<?xml version="1.0" encoding="UTF-8" standalone="no" ?>
<gpx xmlns="http://www.topografix.com/GPX/1/1" xmlns:xsi="http://www.w3.org/2001/XMLSchema-instance" xsi:schemaLocation="http://www.topografix.com/GPX/1/1 http://www.topografix.com/GPX/1/1/gpx.xsd" version="1.1" creator="VisuGPX - https://www.visugpx.com">
  <metadata>
    <name>Rando Soizic - Montagne de Morettet par la gorge de Combe d'Oyans.</name>
    <desc><![CDATA[Très belle rando du "vertige" qui nous fait passer par des endroits superbes où il faut mettre les mains et ne pas craindre trop le vertige.]]></desc>
  </metadata>
  <trk>
    <name><![CDATA[04-AVR-17 14:16:35]]></name>
    <trkseg>
      <trkpt lat="44.97241" lon="5.16797">
        <ele>427.44</ele>
        <time>2017-04-04T07:39:53Z</time>
      </trkpt>
      <trkpt lat="44.9724" lon="5.16797">
        <ele>429.37</ele>
        <time>2017-04-04T07:39:55Z</time>
      </trkpt>
      <trkpt lat="44.9724" lon="5.16797">
        <ele>431.77</ele>
        <time>2017-04-04T07:39:59Z</time>
      </trkpt>
      <trkpt lat="44.97241" lon="5.16797">
        <ele>433.21</ele>
        <time>2017-04-04T07:40:02Z</time>
      </trkpt>
      <trkpt lat="44.9724" lon="5.16796">
        <ele>436.58</ele>
        <time>2017-04-04T07:40:10Z</time>
      </trkpt>
      <trkpt lat="44.97237" lon="5.16799">
        <ele>438.5</ele>
        <time>2017-04-04T07:40:16Z</time>
      </trkpt>
      <trkpt lat="44.97232" lon="5.16804">
        <ele>439.94</ele>
        <time>2017-04-04T07:40:21Z</time>
      </trkpt>
      <trkpt lat="44.97232" lon="5.16809">
        <ele>440.42</ele>
        <time>2017-04-04T07:40:25Z</time>
      </trkpt>
      <trkpt lat="44.97232" lon="5.16813">
        <ele>441.38</ele>
        <time>2017-04-04T07:40:28Z</time>
      </trkpt>
      <trkpt lat="44.97235" lon="5.1682">
        <ele>441.38</ele>
        <time>2017-04-04T07:40:32Z</time>
      </trkpt>
      <trkpt lat="44.9724" lon="5.1683">
        <ele>442.34</ele>
        <time>2017-04-04T07:40:39Z</time>
      </trkpt>
      <trkpt lat="44.97246" lon="5.16846">
        <ele>442.34</ele>
        <time>2017-04-04T07:40:49Z</time>
      </trkpt>
      <trkpt lat="44.97255" lon="5.16864">
        <ele>442.34</ele>
        <time>2017-04-04T07:41:00Z</time>
      </trkpt>
      <trkpt lat="44.97264" lon="5.16879">
        <ele>442.34</ele>
        <time>2017-04-04T07:41:10Z</time>
      </trkpt>
      <trkpt lat="44.97267" lon="5.1689">
        <ele>441.86</ele>
        <time>2017-04-04T07:41:16Z</time>
      </trkpt>
      <trkpt lat="44.97265" lon="5.16893">
        <ele>441.38</ele>
        <time>2017-04-04T07:41:21Z</time>
      </trkpt>
      <trkpt lat="44.97264" lon="5.16897">
        <ele>441.38</ele>
        <time>2017-04-04T07:41:25Z</time>
      </trkpt>
      <trkpt lat="44.97253" lon="5.16911">
        <ele>440.9</ele>
        <time>2017-04-04T07:41:37Z</time>
      </trkpt>
      <trkpt lat="44.9724" lon="5.1693">
        <ele>439.46</ele>
        <time>2017-04-04T07:41:50Z</time>
      </trkpt>
      <trkpt lat="44.97225" lon="5.16948">
        <ele>437.54</ele>
        <time>2017-04-04T07:42:04Z</time>
      </trkpt>
      <trkpt lat="44.97218" lon="5.16961">
        <ele>436.1</ele>
        <time>2017-04-04T07:42:14Z</time>
      </trkpt>
      <trkpt lat="44.97209" lon="5.16978">
        <ele>435.13</ele>
        <time>2017-04-04T07:42:24Z</time>
      </trkpt>
      <trkpt lat="44.97202" lon="5.16994">
        <ele>434.65</ele>
        <time>2017-04-04T07:42:33Z</time>
      </trkpt>
      <trkpt lat="44.97201" lon="5.16997">
        <ele>434.17</ele>
        <time>2017-04-04T07:42:35Z</time>
      </trkpt>
      <trkpt lat="44.97198" lon="5.17005">
        <ele>433.69</ele>
        <time>2017-04-04T07:42:39Z</time>
      </trkpt>
      <trkpt lat="44.97195" lon="5.17017">
        <ele>433.21</ele>
        <time>2017-04-04T07:42:44Z</time>
      </trkpt>
      <trkpt lat="44.97196" lon="5.17033">
        <ele>431.77</ele>
        <time>2017-04-04T07:42:52Z</time>
      </trkpt>
      <trkpt lat="44.97197" lon="5.17038">
        <ele>431.77</ele>
        <time>2017-04-04T07:42:55Z</time>
      </trkpt>
      <trkpt lat="44.97198" lon="5.17047">
        <ele>430.81</ele>
        <time>2017-04-04T07:43:00Z</time>
      </trkpt>
      <trkpt lat="44.97202" lon="5.17061">
        <ele>429.85</ele>
        <time>2017-04-04T07:43:06Z</time>
      </trkpt>
      <trkpt lat="44.97204" lon="5.17065">
        <ele>429.85</ele>
        <time>2017-04-04T07:43:08Z</time>
      </trkpt>
      <trkpt lat="44.97209" lon="5.17077">
        <ele>428.89</ele>
        <time>2017-04-04T07:43:15Z</time>
      </trkpt>
      <trkpt lat="44.97212" lon="5.17085">
        <ele>428.4</ele>
        <time>2017-04-04T07:43:20Z</time>
      </trkpt>
      <trkpt lat="44.97213" lon="5.17091">
        <ele>427.92</ele>
        <time>2017-04-04T07:43:24Z</time>
      </trkpt>
      <trkpt lat="44.97217" lon="5.17095">
        <ele>427.44</ele>
        <time>2017-04-04T07:43:28Z</time>
      </trkpt>
      <trkpt lat="44.9722" lon="5.17118">
        <ele>426.48</ele>
        <time>2017-04-04T07:43:40Z</time>
      </trkpt>
      <trkpt lat="44.9722" lon="5.17122">
        <ele>425.52</ele>
        <time>2017-04-04T07:43:55Z</time>
      </trkpt>
      <trkpt lat="44.9722" lon="5.17127">
        <ele>425.52</ele>
        <time>2017-04-04T07:44:09Z</time>
      </trkpt>
      <trkpt lat="44.97218" lon="5.17142">
        <ele>424.08</ele>
        <time>2017-04-04T07:44:20Z</time>
      </trkpt>
      <trkpt lat="44.97215" lon="5.17149">
        <ele>424.08</ele>
        <time>2017-04-04T07:44:24Z</time>
      </trkpt>
      <trkpt lat="44.97212" lon="5.17174">
        <ele>422.64</ele>
        <time>2017-04-04T07:44:37Z</time>
      </trkpt>
      <trkpt lat="44.97213" lon="5.17177">
        <ele>422.64</ele>
        <time>2017-04-04T07:44:39Z</time>
      </trkpt>
      <trkpt lat="44.97213" lon="5.17184">
        <ele>422.16</ele>
        <time>2017-04-04T07:44:44Z</time>
      </trkpt>
      <trkpt lat="44.97212" lon="5.17188">
        <ele>422.16</ele>
        <time>2017-04-04T07:44:55Z</time>
      </trkpt>
      <trkpt lat="44.97212" lon="5.17204">
        <ele>421.19</ele>
        <time>2017-04-04T07:45:02Z</time>
      </trkpt>
      <trkpt lat="44.97209" lon="5.17211">
        <ele>420.71</ele>
        <time>2017-04-04T07:45:07Z</time>
      </trkpt>
      <trkpt lat="44.97211" lon="5.17219">
        <ele>419.75</ele>
        <time>2017-04-04T07:45:12Z</time>
      </trkpt>
      <trkpt lat="44.9721" lon="5.17228">
        <ele>418.79</ele>
        <time>2017-04-04T07:45:17Z</time>
      </trkpt>
      <trkpt lat="44.9721" lon="5.17239">
        <ele>417.83</ele>
        <time>2017-04-04T07:45:23Z</time>
      </trkpt>
      <trkpt lat="44.97207" lon="5.17245">
        <ele>416.87</ele>
        <time>2017-04-04T07:45:28Z</time>
      </trkpt>
      <trkpt lat="44.97207" lon="5.17252">
        <ele>415.91</ele>
        <time>2017-04-04T07:45:33Z</time>
      </trkpt>
      <trkpt lat="44.97214" lon="5.17264">
        <ele>413.02</ele>
        <time>2017-04-04T07:45:44Z</time>
      </trkpt>
      <trkpt lat="44.97214" lon="5.17264">
        <ele>412.54</ele>
        <time>2017-04-04T07:45:46Z</time>
      </trkpt>
      <trkpt lat="44.97213" lon="5.17268">
        <ele>412.54</ele>
        <time>2017-04-04T07:45:53Z</time>
      </trkpt>
      <trkpt lat="44.97212" lon="5.17271">
        <ele>413.02</ele>
        <time>2017-04-04T07:45:55Z</time>
      </trkpt>
      <trkpt lat="44.9721" lon="5.17274">
        <ele>413.02</ele>
        <time>2017-04-04T07:46:02Z</time>
      </trkpt>
      <trkpt lat="44.97203" lon="5.17278">
        <ele>413.5</ele>
        <time>2017-04-04T07:46:09Z</time>
      </trkpt>
      <trkpt lat="44.97199" lon="5.17289">
        <ele>413.02</ele>
        <time>2017-04-04T07:46:19Z</time>
      </trkpt>
      <trkpt lat="44.97199" lon="5.17289">
        <ele>413.5</ele>
        <time>2017-04-04T07:46:20Z</time>
      </trkpt>
      <trkpt lat="44.9719" lon="5.17294">
        <ele>413.98</ele>
        <time>2017-04-04T07:46:26Z</time>
      </trkpt>
      <trkpt lat="44.97187" lon="5.17297">
        <ele>413.98</ele>
        <time>2017-04-04T07:46:29Z</time>
      </trkpt>
      <trkpt lat="44.9718" lon="5.173">
        <ele>413.98</ele>
        <time>2017-04-04T07:46:37Z</time>
      </trkpt>
      <trkpt lat="44.97176" lon="5.17302">
        <ele>413.98</ele>
        <time>2017-04-04T07:46:43Z</time>
      </trkpt>
      <trkpt lat="44.97168" lon="5.17303">
        <ele>415.43</ele>
        <time>2017-04-04T07:46:51Z</time>
      </trkpt>
      <trkpt lat="44.97167" lon="5.17303">
        <ele>415.43</ele>
        <time>2017-04-04T07:46:52Z</time>
      </trkpt>
      <trkpt lat="44.97165" lon="5.17303">
        <ele>415.43</ele>
        <time>2017-04-04T07:46:53Z</time>
      </trkpt>
      <trkpt lat="44.97156" lon="5.17305">
        <ele>414.95</ele>
        <time>2017-04-04T07:47:04Z</time>
      </trkpt>
      <trkpt lat="44.97147" lon="5.17303">
        <ele>417.35</ele>
        <time>2017-04-04T07:47:16Z</time>
      </trkpt>
      <trkpt lat="44.97146" lon="5.17303">
        <ele>417.35</ele>
        <time>2017-04-04T07:47:17Z</time>
      </trkpt>
      <trkpt lat="44.97142" lon="5.17301">
        <ele>418.31</ele>
        <time>2017-04-04T07:47:32Z</time>
      </trkpt>
      <trkpt lat="44.9714" lon="5.17305">
        <ele>418.79</ele>
        <time>2017-04-04T07:47:36Z</time>
      </trkpt>
      <trkpt lat="44.97133" lon="5.17303">
        <ele>419.27</ele>
        <time>2017-04-04T07:47:42Z</time>
      </trkpt>
      <trkpt lat="44.97121" lon="5.17302">
        <ele>420.71</ele>
        <time>2017-04-04T07:47:55Z</time>
      </trkpt>
      <trkpt lat="44.97117" lon="5.17302">
        <ele>420.23</ele>
        <time>2017-04-04T07:48:03Z</time>
      </trkpt>
      <trkpt lat="44.97115" lon="5.17305">
        <ele>420.23</ele>
        <time>2017-04-04T07:48:13Z</time>
      </trkpt>
      <trkpt lat="44.97113" lon="5.17309">
        <ele>418.31</ele>
        <time>2017-04-04T07:48:21Z</time>
      </trkpt>
      <trkpt lat="44.97113" lon="5.1731">
        <ele>422.64</ele>
        <time>2017-04-04T07:48:22Z</time>
      </trkpt>
      <trkpt lat="44.97113" lon="5.17311">
        <ele>420.71</ele>
        <time>2017-04-04T07:48:23Z</time>
      </trkpt>
      <trkpt lat="44.97115" lon="5.17324">
        <ele>419.75</ele>
        <time>2017-04-04T07:48:39Z</time>
      </trkpt>
      <trkpt lat="44.97125" lon="5.17381">
        <ele>422.16</ele>
        <time>2017-04-04T07:51:07Z</time>
      </trkpt>
      <trkpt lat="44.97111" lon="5.17367">
        <ele>422.16</ele>
        <time>2017-04-04T07:51:28Z</time>
      </trkpt>
      <trkpt lat="44.9709" lon="5.17347">
        <ele>421.68</ele>
        <time>2017-04-04T07:52:00Z</time>
      </trkpt>
      <trkpt lat="44.97089" lon="5.17348">
        <ele>422.16</ele>
        <time>2017-04-04T07:52:19Z</time>
      </trkpt>
      <trkpt lat="44.97089" lon="5.17347">
        <ele>422.16</ele>
        <time>2017-04-04T07:52:23Z</time>
      </trkpt>
      <trkpt lat="44.97104" lon="5.17363">
        <ele>422.64</ele>
        <time>2017-04-04T07:52:33Z</time>
      </trkpt>
      <trkpt lat="44.97125" lon="5.17379">
        <ele>422.64</ele>
        <time>2017-04-04T07:52:55Z</time>
      </trkpt>
      <trkpt lat="44.97133" lon="5.1739">
        <ele>422.64</ele>
        <time>2017-04-04T07:53:17Z</time>
      </trkpt>
      <trkpt lat="44.97131" lon="5.17397">
        <ele>424.56</ele>
        <time>2017-04-04T07:53:29Z</time>
      </trkpt>
      <trkpt lat="44.97131" lon="5.17397">
        <ele>424.08</ele>
        <time>2017-04-04T07:53:31Z</time>
      </trkpt>
      <trkpt lat="44.97127" lon="5.17393">
        <ele>424.08</ele>
        <time>2017-04-04T07:53:35Z</time>
      </trkpt>
      <trkpt lat="44.97114" lon="5.17381">
        <ele>426</ele>
        <time>2017-04-04T07:53:48Z</time>
      </trkpt>
      <trkpt lat="44.97104" lon="5.17372">
        <ele>426.96</ele>
        <time>2017-04-04T07:54:04Z</time>
      </trkpt>
      <trkpt lat="44.97095" lon="5.17363">
        <ele>424.56</ele>
        <time>2017-04-04T07:54:21Z</time>
      </trkpt>
      <trkpt lat="44.97111" lon="5.17403">
        <ele>424.56</ele>
        <time>2017-04-04T07:55:21Z</time>
      </trkpt>
      <trkpt lat="44.9706" lon="5.17348">
        <ele>424.56</ele>
        <time>2017-04-04T07:55:41Z</time>
      </trkpt>
      <trkpt lat="44.97052" lon="5.17341">
        <ele>426.96</ele>
        <time>2017-04-04T07:55:56Z</time>
      </trkpt>
      <trkpt lat="44.9704" lon="5.17341">
        <ele>427.44</ele>
        <time>2017-04-04T07:56:13Z</time>
      </trkpt>
      <trkpt lat="44.9704" lon="5.17342">
        <ele>427.44</ele>
        <time>2017-04-04T07:56:14Z</time>
      </trkpt>
      <trkpt lat="44.97039" lon="5.1734">
        <ele>427.92</ele>
        <time>2017-04-04T07:56:15Z</time>
      </trkpt>
      <trkpt lat="44.9704" lon="5.17337">
        <ele>427.44</ele>
        <time>2017-04-04T07:56:34Z</time>
      </trkpt>
      <trkpt lat="44.97049" lon="5.17351">
        <ele>428.4</ele>
        <time>2017-04-04T07:56:50Z</time>
      </trkpt>
      <trkpt lat="44.97059" lon="5.17363">
        <ele>429.37</ele>
        <time>2017-04-04T07:57:05Z</time>
      </trkpt>
      <trkpt lat="44.97045" lon="5.17353">
        <ele>428.89</ele>
        <time>2017-04-04T07:57:24Z</time>
      </trkpt>
      <trkpt lat="44.97061" lon="5.17365">
        <ele>428.89</ele>
        <time>2017-04-04T07:57:46Z</time>
      </trkpt>
      <trkpt lat="44.97053" lon="5.17359">
        <ele>428.89</ele>
        <time>2017-04-04T07:58:09Z</time>
      </trkpt>
      <trkpt lat="44.97047" lon="5.17351">
        <ele>431.77</ele>
        <time>2017-04-04T07:58:21Z</time>
      </trkpt>
      <trkpt lat="44.97051" lon="5.17357">
        <ele>433.69</ele>
        <time>2017-04-04T07:58:31Z</time>
      </trkpt>
      <trkpt lat="44.9705" lon="5.17362">
        <ele>434.65</ele>
        <time>2017-04-04T07:58:33Z</time>
      </trkpt>
      <trkpt lat="44.97052" lon="5.17364">
        <ele>435.13</ele>
        <time>2017-04-04T07:58:36Z</time>
      </trkpt>
      <trkpt lat="44.97044" lon="5.17345">
        <ele>437.06</ele>
        <time>2017-04-04T07:58:48Z</time>
      </trkpt>
      <trkpt lat="44.97042" lon="5.17343">
        <ele>438.5</ele>
        <time>2017-04-04T07:59:03Z</time>
      </trkpt>
      <trkpt lat="44.97038" lon="5.17337">
        <ele>439.46</ele>
        <time>2017-04-04T07:59:18Z</time>
      </trkpt>
      <trkpt lat="44.97041" lon="5.17337">
        <ele>440.9</ele>
        <time>2017-04-04T07:59:30Z</time>
      </trkpt>
      <trkpt lat="44.97041" lon="5.17337">
        <ele>441.86</ele>
        <time>2017-04-04T07:59:38Z</time>
      </trkpt>
      <trkpt lat="44.97039" lon="5.17343">
        <ele>443.31</ele>
        <time>2017-04-04T07:59:45Z</time>
      </trkpt>
      <trkpt lat="44.97042" lon="5.17344">
        <ele>445.71</ele>
        <time>2017-04-04T07:59:59Z</time>
      </trkpt>
      <trkpt lat="44.97042" lon="5.17344">
        <ele>447.15</ele>
        <time>2017-04-04T08:00:14Z</time>
      </trkpt>
      <trkpt lat="44.97042" lon="5.17344">
        <ele>448.59</ele>
        <time>2017-04-04T08:00:35Z</time>
      </trkpt>
      <trkpt lat="44.97045" lon="5.17346">
        <ele>448.11</ele>
        <time>2017-04-04T08:01:00Z</time>
      </trkpt>
      <trkpt lat="44.97049" lon="5.17349">
        <ele>448.11</ele>
        <time>2017-04-04T08:01:31Z</time>
      </trkpt>
      <trkpt lat="44.97049" lon="5.17349">
        <ele>451</ele>
        <time>2017-04-04T08:01:37Z</time>
      </trkpt>
      <trkpt lat="44.97049" lon="5.17351">
        <ele>454.36</ele>
        <time>2017-04-04T08:01:49Z</time>
      </trkpt>
      <trkpt lat="44.97051" lon="5.17359">
        <ele>457.24</ele>
        <time>2017-04-04T08:02:00Z</time>
      </trkpt>
      <trkpt lat="44.97051" lon="5.17359">
        <ele>458.69</ele>
        <time>2017-04-04T08:02:08Z</time>
      </trkpt>
      <trkpt lat="44.97077" lon="5.17372">
        <ele>461.57</ele>
        <time>2017-04-04T08:02:22Z</time>
      </trkpt>
      <trkpt lat="44.97078" lon="5.17378">
        <ele>464.45</ele>
        <time>2017-04-04T08:02:33Z</time>
      </trkpt>
      <trkpt lat="44.97081" lon="5.17385">
        <ele>467.82</ele>
        <time>2017-04-04T08:02:47Z</time>
      </trkpt>
      <trkpt lat="44.97074" lon="5.17384">
        <ele>470.7</ele>
        <time>2017-04-04T08:03:00Z</time>
      </trkpt>
      <trkpt lat="44.97074" lon="5.17384">
        <ele>471.18</ele>
        <time>2017-04-04T08:03:12Z</time>
      </trkpt>
      <trkpt lat="44.97074" lon="5.17384">
        <ele>471.18</ele>
        <time>2017-04-04T08:03:34Z</time>
      </trkpt>
      <trkpt lat="44.97072" lon="5.17385">
        <ele>473.11</ele>
        <time>2017-04-04T08:03:46Z</time>
      </trkpt>
      <trkpt lat="44.97072" lon="5.17385">
        <ele>476.47</ele>
        <time>2017-04-04T08:03:59Z</time>
      </trkpt>
      <trkpt lat="44.97068" lon="5.17419">
        <ele>479.84</ele>
        <time>2017-04-04T08:04:13Z</time>
      </trkpt>
      <trkpt lat="44.97062" lon="5.17438">
        <ele>482.72</ele>
        <time>2017-04-04T08:04:25Z</time>
      </trkpt>
      <trkpt lat="44.97061" lon="5.17444">
        <ele>484.16</ele>
        <time>2017-04-04T08:04:39Z</time>
      </trkpt>
      <trkpt lat="44.97063" lon="5.17452">
        <ele>485.6</ele>
        <time>2017-04-04T08:04:50Z</time>
      </trkpt>
      <trkpt lat="44.9706" lon="5.17452">
        <ele>487.05</ele>
        <time>2017-04-04T08:05:05Z</time>
      </trkpt>
      <trkpt lat="44.97056" lon="5.17454">
        <ele>488.49</ele>
        <time>2017-04-04T08:05:16Z</time>
      </trkpt>
      <trkpt lat="44.97056" lon="5.17462">
        <ele>490.89</ele>
        <time>2017-04-04T08:05:26Z</time>
      </trkpt>
      <trkpt lat="44.97056" lon="5.17466">
        <ele>493.77</ele>
        <time>2017-04-04T08:05:40Z</time>
      </trkpt>
      <trkpt lat="44.97055" lon="5.17468">
        <ele>495.22</ele>
        <time>2017-04-04T08:05:53Z</time>
      </trkpt>
      <trkpt lat="44.97055" lon="5.17473">
        <ele>497.14</ele>
        <time>2017-04-04T08:06:05Z</time>
      </trkpt>
      <trkpt lat="44.97053" lon="5.17479">
        <ele>500.02</ele>
        <time>2017-04-04T08:06:17Z</time>
      </trkpt>
      <trkpt lat="44.97053" lon="5.17483">
        <ele>502.91</ele>
        <time>2017-04-04T08:06:30Z</time>
      </trkpt>
      <trkpt lat="44.97056" lon="5.1749">
        <ele>505.79</ele>
        <time>2017-04-04T08:06:43Z</time>
      </trkpt>
      <trkpt lat="44.97058" lon="5.17497">
        <ele>508.67</ele>
        <time>2017-04-04T08:06:55Z</time>
      </trkpt>
      <trkpt lat="44.97058" lon="5.175">
        <ele>512.04</ele>
        <time>2017-04-04T08:07:09Z</time>
      </trkpt>
      <trkpt lat="44.9706" lon="5.17504">
        <ele>514.44</ele>
        <time>2017-04-04T08:07:22Z</time>
      </trkpt>
      <trkpt lat="44.97063" lon="5.17508">
        <ele>516.85</ele>
        <time>2017-04-04T08:07:36Z</time>
      </trkpt>
      <trkpt lat="44.97065" lon="5.17515">
        <ele>519.25</ele>
        <time>2017-04-04T08:07:50Z</time>
      </trkpt>
      <trkpt lat="44.97066" lon="5.17518">
        <ele>522.13</ele>
        <time>2017-04-04T08:08:03Z</time>
      </trkpt>
      <trkpt lat="44.97066" lon="5.17522">
        <ele>524.06</ele>
        <time>2017-04-04T08:08:15Z</time>
      </trkpt>
      <trkpt lat="44.97068" lon="5.17526">
        <ele>526.46</ele>
        <time>2017-04-04T08:08:27Z</time>
      </trkpt>
      <trkpt lat="44.97068" lon="5.17531">
        <ele>529.82</ele>
        <time>2017-04-04T08:08:40Z</time>
      </trkpt>
      <trkpt lat="44.97072" lon="5.17536">
        <ele>533.19</ele>
        <time>2017-04-04T08:08:52Z</time>
      </trkpt>
      <trkpt lat="44.97073" lon="5.17539">
        <ele>535.11</ele>
        <time>2017-04-04T08:09:06Z</time>
      </trkpt>
      <trkpt lat="44.97073" lon="5.17539">
        <ele>535.11</ele>
        <time>2017-04-04T08:09:24Z</time>
      </trkpt>
      <trkpt lat="44.97078" lon="5.17544">
        <ele>536.07</ele>
        <time>2017-04-04T08:09:36Z</time>
      </trkpt>
      <trkpt lat="44.97081" lon="5.17548">
        <ele>537.99</ele>
        <time>2017-04-04T08:09:47Z</time>
      </trkpt>
      <trkpt lat="44.97085" lon="5.17554">
        <ele>540.4</ele>
        <time>2017-04-04T08:10:02Z</time>
      </trkpt>
      <trkpt lat="44.97086" lon="5.17554">
        <ele>540.88</ele>
        <time>2017-04-04T08:10:03Z</time>
      </trkpt>
      <trkpt lat="44.97086" lon="5.17557">
        <ele>542.32</ele>
        <time>2017-04-04T08:10:16Z</time>
      </trkpt>
      <trkpt lat="44.97087" lon="5.17557">
        <ele>542.8</ele>
        <time>2017-04-04T08:10:34Z</time>
      </trkpt>
      <trkpt lat="44.97087" lon="5.17557">
        <ele>542.32</ele>
        <time>2017-04-04T08:10:56Z</time>
      </trkpt>
      <trkpt lat="44.97087" lon="5.17559">
        <ele>542.32</ele>
        <time>2017-04-04T08:11:13Z</time>
      </trkpt>
      <trkpt lat="44.97091" lon="5.17561">
        <ele>542.32</ele>
        <time>2017-04-04T08:11:35Z</time>
      </trkpt>
      <trkpt lat="44.97089" lon="5.17561">
        <ele>541.84</ele>
        <time>2017-04-04T08:12:03Z</time>
      </trkpt>
      <trkpt lat="44.97089" lon="5.17561">
        <ele>542.32</ele>
        <time>2017-04-04T08:12:20Z</time>
      </trkpt>
      <trkpt lat="44.97084" lon="5.17558">
        <ele>540.88</ele>
        <time>2017-04-04T08:12:35Z</time>
      </trkpt>
      <trkpt lat="44.9708" lon="5.17554">
        <ele>537.51</ele>
        <time>2017-04-04T08:12:43Z</time>
      </trkpt>
      <trkpt lat="44.9708" lon="5.17554">
        <ele>537.99</ele>
        <time>2017-04-04T08:12:45Z</time>
      </trkpt>
      <trkpt lat="44.97079" lon="5.17553">
        <ele>536.07</ele>
        <time>2017-04-04T08:12:47Z</time>
      </trkpt>
      <trkpt lat="44.97131" lon="5.17545">
        <ele>541.36</ele>
        <time>2017-04-04T08:15:59Z</time>
      </trkpt>
      <trkpt lat="44.97121" lon="5.17552">
        <ele>541.84</ele>
        <time>2017-04-04T08:16:00Z</time>
      </trkpt>
      <trkpt lat="44.97092" lon="5.1756">
        <ele>544.24</ele>
        <time>2017-04-04T08:16:11Z</time>
      </trkpt>
      <trkpt lat="44.97092" lon="5.1756">
        <ele>544.24</ele>
        <time>2017-04-04T08:16:12Z</time>
      </trkpt>
      <trkpt lat="44.97095" lon="5.17562">
        <ele>545.69</ele>
        <time>2017-04-04T08:16:17Z</time>
      </trkpt>
      <trkpt lat="44.97101" lon="5.17558">
        <ele>548.57</ele>
        <time>2017-04-04T08:16:26Z</time>
      </trkpt>
      <trkpt lat="44.971" lon="5.17556">
        <ele>551.93</ele>
        <time>2017-04-04T08:16:35Z</time>
      </trkpt>
      <trkpt lat="44.97102" lon="5.17552">
        <ele>553.38</ele>
        <time>2017-04-04T08:16:42Z</time>
      </trkpt>
      <trkpt lat="44.97107" lon="5.17546">
        <ele>556.74</ele>
        <time>2017-04-04T08:16:53Z</time>
      </trkpt>
      <trkpt lat="44.97105" lon="5.17546">
        <ele>559.14</ele>
        <time>2017-04-04T08:17:07Z</time>
      </trkpt>
      <trkpt lat="44.97102" lon="5.17546">
        <ele>559.62</ele>
        <time>2017-04-04T08:17:23Z</time>
      </trkpt>
      <trkpt lat="44.97096" lon="5.17548">
        <ele>561.07</ele>
        <time>2017-04-04T08:17:36Z</time>
      </trkpt>
      <trkpt lat="44.97095" lon="5.17547">
        <ele>563.95</ele>
        <time>2017-04-04T08:17:52Z</time>
      </trkpt>
      <trkpt lat="44.97096" lon="5.17547">
        <ele>565.87</ele>
        <time>2017-04-04T08:18:04Z</time>
      </trkpt>
      <trkpt lat="44.97097" lon="5.17546">
        <ele>566.35</ele>
        <time>2017-04-04T08:18:35Z</time>
      </trkpt>
      <trkpt lat="44.97097" lon="5.17546">
        <ele>566.83</ele>
        <time>2017-04-04T08:18:39Z</time>
      </trkpt>
      <trkpt lat="44.97118" lon="5.17525">
        <ele>568.28</ele>
        <time>2017-04-04T08:18:44Z</time>
      </trkpt>
      <trkpt lat="44.9712" lon="5.17519">
        <ele>570.2</ele>
        <time>2017-04-04T08:18:57Z</time>
      </trkpt>
      <trkpt lat="44.9712" lon="5.17519">
        <ele>571.16</ele>
        <time>2017-04-04T08:18:59Z</time>
      </trkpt>
      <trkpt lat="44.97122" lon="5.17511">
        <ele>573.56</ele>
        <time>2017-04-04T08:19:10Z</time>
      </trkpt>
      <trkpt lat="44.97123" lon="5.1751">
        <ele>575.49</ele>
        <time>2017-04-04T08:19:23Z</time>
      </trkpt>
      <trkpt lat="44.97124" lon="5.17507">
        <ele>576.45</ele>
        <time>2017-04-04T08:19:29Z</time>
      </trkpt>
      <trkpt lat="44.97126" lon="5.17504">
        <ele>578.85</ele>
        <time>2017-04-04T08:19:39Z</time>
      </trkpt>
      <trkpt lat="44.97124" lon="5.175">
        <ele>581.73</ele>
        <time>2017-04-04T08:19:50Z</time>
      </trkpt>
      <trkpt lat="44.97123" lon="5.17498">
        <ele>583.18</ele>
        <time>2017-04-04T08:20:05Z</time>
      </trkpt>
      <trkpt lat="44.97122" lon="5.17497">
        <ele>583.66</ele>
        <time>2017-04-04T08:20:24Z</time>
      </trkpt>
      <trkpt lat="44.97121" lon="5.17492">
        <ele>583.18</ele>
        <time>2017-04-04T08:20:51Z</time>
      </trkpt>
      <trkpt lat="44.97121" lon="5.17492">
        <ele>585.1</ele>
        <time>2017-04-04T08:21:06Z</time>
      </trkpt>
      <trkpt lat="44.97118" lon="5.17489">
        <ele>584.62</ele>
        <time>2017-04-04T08:21:32Z</time>
      </trkpt>
      <trkpt lat="44.97118" lon="5.17489">
        <ele>584.62</ele>
        <time>2017-04-04T08:21:56Z</time>
      </trkpt>
      <trkpt lat="44.97118" lon="5.17487">
        <ele>585.58</ele>
        <time>2017-04-04T08:22:02Z</time>
      </trkpt>
      <trkpt lat="44.97123" lon="5.17496">
        <ele>582.7</ele>
        <time>2017-04-04T08:22:15Z</time>
      </trkpt>
      <trkpt lat="44.97124" lon="5.17495">
        <ele>584.14</ele>
        <time>2017-04-04T08:22:16Z</time>
      </trkpt>
      <trkpt lat="44.97126" lon="5.17494">
        <ele>591.83</ele>
        <time>2017-04-04T08:22:20Z</time>
      </trkpt>
      <trkpt lat="44.97126" lon="5.17494">
        <ele>586.06</ele>
        <time>2017-04-04T08:22:21Z</time>
      </trkpt>
      <trkpt lat="44.97129" lon="5.17492">
        <ele>585.1</ele>
        <time>2017-04-04T08:22:39Z</time>
      </trkpt>
      <trkpt lat="44.9713" lon="5.17493">
        <ele>585.58</ele>
        <time>2017-04-04T08:22:55Z</time>
      </trkpt>
      <trkpt lat="44.97126" lon="5.17492">
        <ele>585.1</ele>
        <time>2017-04-04T08:24:02Z</time>
      </trkpt>
      <trkpt lat="44.97133" lon="5.17516">
        <ele>585.58</ele>
        <time>2017-04-04T08:24:13Z</time>
      </trkpt>
      <trkpt lat="44.97134" lon="5.17509">
        <ele>584.14</ele>
        <time>2017-04-04T08:24:15Z</time>
      </trkpt>
      <trkpt lat="44.97126" lon="5.17491">
        <ele>585.58</ele>
        <time>2017-04-04T08:24:28Z</time>
      </trkpt>
      <trkpt lat="44.97126" lon="5.17487">
        <ele>586.06</ele>
        <time>2017-04-04T08:24:40Z</time>
      </trkpt>
      <trkpt lat="44.9713" lon="5.17483">
        <ele>585.58</ele>
        <time>2017-04-04T08:24:56Z</time>
      </trkpt>
      <trkpt lat="44.97138" lon="5.17478">
        <ele>587.02</ele>
        <time>2017-04-04T08:25:14Z</time>
      </trkpt>
      <trkpt lat="44.9714" lon="5.17478">
        <ele>587.02</ele>
        <time>2017-04-04T08:25:45Z</time>
      </trkpt>
      <trkpt lat="44.9714" lon="5.17478">
        <ele>587.02</ele>
        <time>2017-04-04T08:26:21Z</time>
      </trkpt>
      <trkpt lat="44.9714" lon="5.17479">
        <ele>587.02</ele>
        <time>2017-04-04T08:26:50Z</time>
      </trkpt>
      <trkpt lat="44.97143" lon="5.17478">
        <ele>584.14</ele>
        <time>2017-04-04T08:27:10Z</time>
      </trkpt>
      <trkpt lat="44.97145" lon="5.17469">
        <ele>582.7</ele>
        <time>2017-04-04T08:27:23Z</time>
      </trkpt>
      <trkpt lat="44.9714" lon="5.17469">
        <ele>579.81</ele>
        <time>2017-04-04T08:27:34Z</time>
      </trkpt>
      <trkpt lat="44.97142" lon="5.17463">
        <ele>582.7</ele>
        <time>2017-04-04T08:27:51Z</time>
      </trkpt>
      <trkpt lat="44.97146" lon="5.17464">
        <ele>585.58</ele>
        <time>2017-04-04T08:28:02Z</time>
      </trkpt>
      <trkpt lat="44.97148" lon="5.17465">
        <ele>587.5</ele>
        <time>2017-04-04T08:28:21Z</time>
      </trkpt>
      <trkpt lat="44.97148" lon="5.17465">
        <ele>587.5</ele>
        <time>2017-04-04T08:28:47Z</time>
      </trkpt>
      <trkpt lat="44.97148" lon="5.17465">
        <ele>587.5</ele>
        <time>2017-04-04T08:29:15Z</time>
      </trkpt>
      <trkpt lat="44.97152" lon="5.17463">
        <ele>590.39</ele>
        <time>2017-04-04T08:29:34Z</time>
      </trkpt>
      <trkpt lat="44.97157" lon="5.17459">
        <ele>591.83</ele>
        <time>2017-04-04T08:29:52Z</time>
      </trkpt>
      <trkpt lat="44.97157" lon="5.1746">
        <ele>593.75</ele>
        <time>2017-04-04T08:30:13Z</time>
      </trkpt>
      <trkpt lat="44.97157" lon="5.1746">
        <ele>595.19</ele>
        <time>2017-04-04T08:30:32Z</time>
      </trkpt>
      <trkpt lat="44.97157" lon="5.1746">
        <ele>595.67</ele>
        <time>2017-04-04T08:30:53Z</time>
      </trkpt>
      <trkpt lat="44.97157" lon="5.1746">
        <ele>595.19</ele>
        <time>2017-04-04T08:31:12Z</time>
      </trkpt>
      <trkpt lat="44.97157" lon="5.17459">
        <ele>595.67</ele>
        <time>2017-04-04T08:31:32Z</time>
      </trkpt>
      <trkpt lat="44.9716" lon="5.17441">
        <ele>595.67</ele>
        <time>2017-04-04T08:31:56Z</time>
      </trkpt>
      <trkpt lat="44.9716" lon="5.17441">
        <ele>595.67</ele>
        <time>2017-04-04T08:32:16Z</time>
      </trkpt>
      <trkpt lat="44.97148" lon="5.17439">
        <ele>597.12</ele>
        <time>2017-04-04T08:32:49Z</time>
      </trkpt>
      <trkpt lat="44.97111" lon="5.1755">
        <ele>601.92</ele>
        <time>2017-04-04T08:34:25Z</time>
      </trkpt>
      <trkpt lat="44.97124" lon="5.17524">
        <ele>602.4</ele>
        <time>2017-04-04T08:34:47Z</time>
      </trkpt>
      <trkpt lat="44.97145" lon="5.17493">
        <ele>604.81</ele>
        <time>2017-04-04T08:35:03Z</time>
      </trkpt>
      <trkpt lat="44.97165" lon="5.1748">
        <ele>604.81</ele>
        <time>2017-04-04T08:35:25Z</time>
      </trkpt>
      <trkpt lat="44.97171" lon="5.17478">
        <ele>604.81</ele>
        <time>2017-04-04T08:35:52Z</time>
      </trkpt>
      <trkpt lat="44.97171" lon="5.17476">
        <ele>604.81</ele>
        <time>2017-04-04T08:36:12Z</time>
      </trkpt>
      <trkpt lat="44.97162" lon="5.1748">
        <ele>604.33</ele>
        <time>2017-04-04T08:36:37Z</time>
      </trkpt>
      <trkpt lat="44.97162" lon="5.1748">
        <ele>604.81</ele>
        <time>2017-04-04T08:36:58Z</time>
      </trkpt>
      <trkpt lat="44.97167" lon="5.17477">
        <ele>604.33</ele>
        <time>2017-04-04T08:37:22Z</time>
      </trkpt>
      <trkpt lat="44.97167" lon="5.17477">
        <ele>604.81</ele>
        <time>2017-04-04T08:37:47Z</time>
      </trkpt>
      <trkpt lat="44.97171" lon="5.17479">
        <ele>607.21</ele>
        <time>2017-04-04T08:37:53Z</time>
      </trkpt>
      <trkpt lat="44.97175" lon="5.17478">
        <ele>609.61</ele>
        <time>2017-04-04T08:38:07Z</time>
      </trkpt>
      <trkpt lat="44.97179" lon="5.17477">
        <ele>611.06</ele>
        <time>2017-04-04T08:38:17Z</time>
      </trkpt>
      <trkpt lat="44.97177" lon="5.17471">
        <ele>612.98</ele>
        <time>2017-04-04T08:38:28Z</time>
      </trkpt>
      <trkpt lat="44.97177" lon="5.17471">
        <ele>613.46</ele>
        <time>2017-04-04T08:38:48Z</time>
      </trkpt>
      <trkpt lat="44.97177" lon="5.17471">
        <ele>612.98</ele>
        <time>2017-04-04T08:39:13Z</time>
      </trkpt>
      <trkpt lat="44.97177" lon="5.17471">
        <ele>612.98</ele>
        <time>2017-04-04T08:39:37Z</time>
      </trkpt>
      <trkpt lat="44.97177" lon="5.17471">
        <ele>612.98</ele>
        <time>2017-04-04T08:40:06Z</time>
      </trkpt>
      <trkpt lat="44.97178" lon="5.17471">
        <ele>612.5</ele>
        <time>2017-04-04T08:40:29Z</time>
      </trkpt>
      <trkpt lat="44.97178" lon="5.17471">
        <ele>612.5</ele>
        <time>2017-04-04T08:40:46Z</time>
      </trkpt>
      <trkpt lat="44.97178" lon="5.17471">
        <ele>612.5</ele>
        <time>2017-04-04T08:41:10Z</time>
      </trkpt>
      <trkpt lat="44.97178" lon="5.17471">
        <ele>612.5</ele>
        <time>2017-04-04T08:41:41Z</time>
      </trkpt>
      <trkpt lat="44.97178" lon="5.17472">
        <ele>612.02</ele>
        <time>2017-04-04T08:42:01Z</time>
      </trkpt>
      <trkpt lat="44.97178" lon="5.17472">
        <ele>612.02</ele>
        <time>2017-04-04T08:42:25Z</time>
      </trkpt>
      <trkpt lat="44.97179" lon="5.17472">
        <ele>611.54</ele>
        <time>2017-04-04T08:42:55Z</time>
      </trkpt>
      <trkpt lat="44.97179" lon="5.17471">
        <ele>611.54</ele>
        <time>2017-04-04T08:42:58Z</time>
      </trkpt>
      <trkpt lat="44.97179" lon="5.17469">
        <ele>611.06</ele>
        <time>2017-04-04T08:43:07Z</time>
      </trkpt>
      <trkpt lat="44.97174" lon="5.17465">
        <ele>613.94</ele>
        <time>2017-04-04T08:43:20Z</time>
      </trkpt>
      <trkpt lat="44.9717" lon="5.17467">
        <ele>613.94</ele>
        <time>2017-04-04T08:43:30Z</time>
      </trkpt>
      <trkpt lat="44.9717" lon="5.17467">
        <ele>617.3</ele>
        <time>2017-04-04T08:43:39Z</time>
      </trkpt>
      <trkpt lat="44.97169" lon="5.17467">
        <ele>617.78</ele>
        <time>2017-04-04T08:43:55Z</time>
      </trkpt>
      <trkpt lat="44.97168" lon="5.17467">
        <ele>616.82</ele>
        <time>2017-04-04T08:44:17Z</time>
      </trkpt>
      <trkpt lat="44.97167" lon="5.17466">
        <ele>618.26</ele>
        <time>2017-04-04T08:44:33Z</time>
      </trkpt>
      <trkpt lat="44.97166" lon="5.17468">
        <ele>618.26</ele>
        <time>2017-04-04T08:44:48Z</time>
      </trkpt>
      <trkpt lat="44.97165" lon="5.17477">
        <ele>618.75</ele>
        <time>2017-04-04T08:45:00Z</time>
      </trkpt>
      <trkpt lat="44.97163" lon="5.17478">
        <ele>622.11</ele>
        <time>2017-04-04T08:45:12Z</time>
      </trkpt>
      <trkpt lat="44.97159" lon="5.1748">
        <ele>624.99</ele>
        <time>2017-04-04T08:45:27Z</time>
      </trkpt>
      <trkpt lat="44.97157" lon="5.17479">
        <ele>627.88</ele>
        <time>2017-04-04T08:45:39Z</time>
      </trkpt>
      <trkpt lat="44.97156" lon="5.17479">
        <ele>627.4</ele>
        <time>2017-04-04T08:45:57Z</time>
      </trkpt>
      <trkpt lat="44.97155" lon="5.17479">
        <ele>627.4</ele>
        <time>2017-04-04T08:46:07Z</time>
      </trkpt>
      <trkpt lat="44.97153" lon="5.17482">
        <ele>627.88</ele>
        <time>2017-04-04T08:46:18Z</time>
      </trkpt>
      <trkpt lat="44.97153" lon="5.17482">
        <ele>627.4</ele>
        <time>2017-04-04T08:46:40Z</time>
      </trkpt>
      <trkpt lat="44.97154" lon="5.17484">
        <ele>627.4</ele>
        <time>2017-04-04T08:46:59Z</time>
      </trkpt>
      <trkpt lat="44.97154" lon="5.1749">
        <ele>630.28</ele>
        <time>2017-04-04T08:47:10Z</time>
      </trkpt>
      <trkpt lat="44.97154" lon="5.17495">
        <ele>630.28</ele>
        <time>2017-04-04T08:47:24Z</time>
      </trkpt>
      <trkpt lat="44.97155" lon="5.17499">
        <ele>628.84</ele>
        <time>2017-04-04T08:47:39Z</time>
      </trkpt>
      <trkpt lat="44.97155" lon="5.175">
        <ele>628.84</ele>
        <time>2017-04-04T08:48:09Z</time>
      </trkpt>
      <trkpt lat="44.97154" lon="5.17506">
        <ele>630.76</ele>
        <time>2017-04-04T08:48:23Z</time>
      </trkpt>
      <trkpt lat="44.97155" lon="5.17512">
        <ele>629.32</ele>
        <time>2017-04-04T08:48:35Z</time>
      </trkpt>
      <trkpt lat="44.97155" lon="5.17521">
        <ele>631.24</ele>
        <time>2017-04-04T08:48:46Z</time>
      </trkpt>
      <trkpt lat="44.97153" lon="5.17524">
        <ele>632.68</ele>
        <time>2017-04-04T08:48:56Z</time>
      </trkpt>
      <trkpt lat="44.97153" lon="5.17524">
        <ele>635.57</ele>
        <time>2017-04-04T08:49:05Z</time>
      </trkpt>
      <trkpt lat="44.97153" lon="5.17524">
        <ele>635.57</ele>
        <time>2017-04-04T08:49:06Z</time>
      </trkpt>
      <trkpt lat="44.9715" lon="5.17526">
        <ele>637.97</ele>
        <time>2017-04-04T08:49:16Z</time>
      </trkpt>
      <trkpt lat="44.97146" lon="5.17529">
        <ele>640.86</ele>
        <time>2017-04-04T08:49:25Z</time>
      </trkpt>
      <trkpt lat="44.97145" lon="5.17534">
        <ele>642.3</ele>
        <time>2017-04-04T08:49:34Z</time>
      </trkpt>
      <trkpt lat="44.97143" lon="5.17536">
        <ele>643.74</ele>
        <time>2017-04-04T08:49:50Z</time>
      </trkpt>
      <trkpt lat="44.97144" lon="5.17537">
        <ele>642.78</ele>
        <time>2017-04-04T08:50:09Z</time>
      </trkpt>
      <trkpt lat="44.97144" lon="5.17538">
        <ele>643.26</ele>
        <time>2017-04-04T08:50:11Z</time>
      </trkpt>
      <trkpt lat="44.97145" lon="5.17546">
        <ele>642.3</ele>
        <time>2017-04-04T08:50:20Z</time>
      </trkpt>
      <trkpt lat="44.97145" lon="5.17548">
        <ele>641.82</ele>
        <time>2017-04-04T08:50:35Z</time>
      </trkpt>
      <trkpt lat="44.97147" lon="5.17551">
        <ele>640.86</ele>
        <time>2017-04-04T08:50:47Z</time>
      </trkpt>
      <trkpt lat="44.97149" lon="5.17555">
        <ele>638.93</ele>
        <time>2017-04-04T08:50:58Z</time>
      </trkpt>
      <trkpt lat="44.97151" lon="5.17558">
        <ele>637.49</ele>
        <time>2017-04-04T08:51:09Z</time>
      </trkpt>
      <trkpt lat="44.97151" lon="5.17558">
        <ele>637.49</ele>
        <time>2017-04-04T08:51:24Z</time>
      </trkpt>
      <trkpt lat="44.97153" lon="5.17566">
        <ele>637.01</ele>
        <time>2017-04-04T08:51:34Z</time>
      </trkpt>
      <trkpt lat="44.97154" lon="5.17567">
        <ele>635.09</ele>
        <time>2017-04-04T08:51:44Z</time>
      </trkpt>
      <trkpt lat="44.97158" lon="5.17574">
        <ele>635.09</ele>
        <time>2017-04-04T08:51:56Z</time>
      </trkpt>
      <trkpt lat="44.97158" lon="5.17574">
        <ele>634.61</ele>
        <time>2017-04-04T08:52:14Z</time>
      </trkpt>
      <trkpt lat="44.97159" lon="5.17576">
        <ele>633.65</ele>
        <time>2017-04-04T08:52:33Z</time>
      </trkpt>
      <trkpt lat="44.97159" lon="5.17576">
        <ele>632.2</ele>
        <time>2017-04-04T08:52:47Z</time>
      </trkpt>
      <trkpt lat="44.97159" lon="5.17576">
        <ele>631.72</ele>
        <time>2017-04-04T08:53:08Z</time>
      </trkpt>
      <trkpt lat="44.97159" lon="5.17576">
        <ele>630.28</ele>
        <time>2017-04-04T08:53:29Z</time>
      </trkpt>
      <trkpt lat="44.97159" lon="5.17576">
        <ele>629.32</ele>
        <time>2017-04-04T08:53:52Z</time>
      </trkpt>
      <trkpt lat="44.97159" lon="5.17576">
        <ele>628.36</ele>
        <time>2017-04-04T08:54:12Z</time>
      </trkpt>
      <trkpt lat="44.97159" lon="5.17576">
        <ele>627.4</ele>
        <time>2017-04-04T08:54:27Z</time>
      </trkpt>
      <trkpt lat="44.97159" lon="5.17576">
        <ele>627.4</ele>
        <time>2017-04-04T08:54:54Z</time>
      </trkpt>
      <trkpt lat="44.97159" lon="5.17576">
        <ele>627.4</ele>
        <time>2017-04-04T08:55:21Z</time>
      </trkpt>
      <trkpt lat="44.97159" lon="5.17576">
        <ele>626.44</ele>
        <time>2017-04-04T08:55:35Z</time>
      </trkpt>
      <trkpt lat="44.97159" lon="5.17576">
        <ele>625.96</ele>
        <time>2017-04-04T08:55:59Z</time>
      </trkpt>
      <trkpt lat="44.97159" lon="5.17576">
        <ele>624.51</ele>
        <time>2017-04-04T08:56:19Z</time>
      </trkpt>
      <trkpt lat="44.97159" lon="5.17576">
        <ele>623.07</ele>
        <time>2017-04-04T08:56:36Z</time>
      </trkpt>
      <trkpt lat="44.97159" lon="5.17576">
        <ele>620.67</ele>
        <time>2017-04-04T08:56:55Z</time>
      </trkpt>
      <trkpt lat="44.97158" lon="5.17577">
        <ele>621.15</ele>
        <time>2017-04-04T08:57:16Z</time>
      </trkpt>
      <trkpt lat="44.97158" lon="5.17577">
        <ele>621.15</ele>
        <time>2017-04-04T08:57:40Z</time>
      </trkpt>
      <trkpt lat="44.97158" lon="5.17576">
        <ele>621.63</ele>
        <time>2017-04-04T08:57:48Z</time>
      </trkpt>
      <trkpt lat="44.97153" lon="5.17566">
        <ele>621.63</ele>
        <time>2017-04-04T08:58:03Z</time>
      </trkpt>
      <trkpt lat="44.97153" lon="5.17566">
        <ele>622.11</ele>
        <time>2017-04-04T08:58:24Z</time>
      </trkpt>
      <trkpt lat="44.97154" lon="5.17569">
        <ele>622.11</ele>
        <time>2017-04-04T08:58:26Z</time>
      </trkpt>
      <trkpt lat="44.97178" lon="5.1761">
        <ele>621.15</ele>
        <time>2017-04-04T08:58:47Z</time>
      </trkpt>
      <trkpt lat="44.97184" lon="5.17601">
        <ele>621.15</ele>
        <time>2017-04-04T08:59:11Z</time>
      </trkpt>
      <trkpt lat="44.9714" lon="5.17572">
        <ele>622.11</ele>
        <time>2017-04-04T08:59:58Z</time>
      </trkpt>
      <trkpt lat="44.97146" lon="5.17591">
        <ele>623.07</ele>
        <time>2017-04-04T09:00:24Z</time>
      </trkpt>
      <trkpt lat="44.97139" lon="5.17629">
        <ele>622.59</ele>
        <time>2017-04-04T09:00:44Z</time>
      </trkpt>
      <trkpt lat="44.9712" lon="5.17596">
        <ele>622.59</ele>
        <time>2017-04-04T09:01:07Z</time>
      </trkpt>
      <trkpt lat="44.97115" lon="5.17595">
        <ele>622.59</ele>
        <time>2017-04-04T09:01:42Z</time>
      </trkpt>
      <trkpt lat="44.97138" lon="5.17589">
        <ele>622.11</ele>
        <time>2017-04-04T09:01:53Z</time>
      </trkpt>
      <trkpt lat="44.97124" lon="5.17618">
        <ele>622.11</ele>
        <time>2017-04-04T09:02:06Z</time>
      </trkpt>
      <trkpt lat="44.97117" lon="5.17634">
        <ele>622.59</ele>
        <time>2017-04-04T09:02:20Z</time>
      </trkpt>
      <trkpt lat="44.97119" lon="5.17633">
        <ele>626.44</ele>
        <time>2017-04-04T09:02:33Z</time>
      </trkpt>
      <trkpt lat="44.97122" lon="5.17635">
        <ele>629.32</ele>
        <time>2017-04-04T09:02:45Z</time>
      </trkpt>
      <trkpt lat="44.97121" lon="5.17639">
        <ele>631.72</ele>
        <time>2017-04-04T09:02:58Z</time>
      </trkpt>
      <trkpt lat="44.97131" lon="5.17657">
        <ele>634.13</ele>
        <time>2017-04-04T09:03:17Z</time>
      </trkpt>
      <trkpt lat="44.97127" lon="5.17662">
        <ele>636.05</ele>
        <time>2017-04-04T09:03:39Z</time>
      </trkpt>
      <trkpt lat="44.97127" lon="5.17662">
        <ele>639.41</ele>
        <time>2017-04-04T09:03:56Z</time>
      </trkpt>
      <trkpt lat="44.97127" lon="5.17662">
        <ele>642.3</ele>
        <time>2017-04-04T09:04:09Z</time>
      </trkpt>
      <trkpt lat="44.97128" lon="5.17664">
        <ele>645.66</ele>
        <time>2017-04-04T09:04:37Z</time>
      </trkpt>
      <trkpt lat="44.97133" lon="5.17656">
        <ele>647.59</ele>
        <time>2017-04-04T09:04:55Z</time>
      </trkpt>
      <trkpt lat="44.97135" lon="5.17657">
        <ele>649.03</ele>
        <time>2017-04-04T09:04:58Z</time>
      </trkpt>
      <trkpt lat="44.97136" lon="5.17656">
        <ele>649.99</ele>
        <time>2017-04-04T09:05:00Z</time>
      </trkpt>
      <trkpt lat="44.97136" lon="5.17656">
        <ele>651.91</ele>
        <time>2017-04-04T09:05:18Z</time>
      </trkpt>
      <trkpt lat="44.97136" lon="5.17656">
        <ele>653.35</ele>
        <time>2017-04-04T09:05:35Z</time>
      </trkpt>
      <trkpt lat="44.97137" lon="5.17658">
        <ele>653.35</ele>
        <time>2017-04-04T09:05:52Z</time>
      </trkpt>
      <trkpt lat="44.97137" lon="5.17658">
        <ele>652.87</ele>
        <time>2017-04-04T09:06:05Z</time>
      </trkpt>
      <trkpt lat="44.97137" lon="5.17658">
        <ele>651.91</ele>
        <time>2017-04-04T09:06:21Z</time>
      </trkpt>
      <trkpt lat="44.97137" lon="5.17659">
        <ele>651.91</ele>
        <time>2017-04-04T09:06:40Z</time>
      </trkpt>
      <trkpt lat="44.97137" lon="5.17659">
        <ele>654.8</ele>
        <time>2017-04-04T09:07:06Z</time>
      </trkpt>
      <trkpt lat="44.9714" lon="5.17657">
        <ele>658.16</ele>
        <time>2017-04-04T09:07:14Z</time>
      </trkpt>
      <trkpt lat="44.97141" lon="5.17657">
        <ele>661.52</ele>
        <time>2017-04-04T09:07:23Z</time>
      </trkpt>
      <trkpt lat="44.97141" lon="5.17657">
        <ele>664.41</ele>
        <time>2017-04-04T09:07:33Z</time>
      </trkpt>
      <trkpt lat="44.97141" lon="5.17657">
        <ele>666.33</ele>
        <time>2017-04-04T09:07:38Z</time>
      </trkpt>
      <trkpt lat="44.97141" lon="5.17653">
        <ele>667.29</ele>
        <time>2017-04-04T09:07:49Z</time>
      </trkpt>
      <trkpt lat="44.97145" lon="5.1763">
        <ele>671.14</ele>
        <time>2017-04-04T09:07:59Z</time>
      </trkpt>
      <trkpt lat="44.97148" lon="5.17627">
        <ele>672.58</ele>
        <time>2017-04-04T09:08:06Z</time>
      </trkpt>
      <trkpt lat="44.97156" lon="5.17623">
        <ele>674.98</ele>
        <time>2017-04-04T09:08:17Z</time>
      </trkpt>
      <trkpt lat="44.97165" lon="5.17627">
        <ele>676.91</ele>
        <time>2017-04-04T09:08:27Z</time>
      </trkpt>
      <trkpt lat="44.9717" lon="5.17628">
        <ele>679.31</ele>
        <time>2017-04-04T09:08:37Z</time>
      </trkpt>
      <trkpt lat="44.97173" lon="5.1763">
        <ele>680.75</ele>
        <time>2017-04-04T09:08:48Z</time>
      </trkpt>
      <trkpt lat="44.97175" lon="5.17634">
        <ele>681.71</ele>
        <time>2017-04-04T09:09:01Z</time>
      </trkpt>
      <trkpt lat="44.97175" lon="5.17635">
        <ele>684.12</ele>
        <time>2017-04-04T09:09:13Z</time>
      </trkpt>
      <trkpt lat="44.97175" lon="5.17635">
        <ele>685.08</ele>
        <time>2017-04-04T09:09:19Z</time>
      </trkpt>
      <trkpt lat="44.97184" lon="5.1764">
        <ele>687.96</ele>
        <time>2017-04-04T09:09:31Z</time>
      </trkpt>
      <trkpt lat="44.97192" lon="5.17633">
        <ele>688.92</ele>
        <time>2017-04-04T09:09:45Z</time>
      </trkpt>
      <trkpt lat="44.97193" lon="5.17633">
        <ele>688.92</ele>
        <time>2017-04-04T09:10:03Z</time>
      </trkpt>
      <trkpt lat="44.97194" lon="5.1764">
        <ele>689.88</ele>
        <time>2017-04-04T09:10:17Z</time>
      </trkpt>
      <trkpt lat="44.97197" lon="5.17648">
        <ele>692.29</ele>
        <time>2017-04-04T09:10:29Z</time>
      </trkpt>
      <trkpt lat="44.97197" lon="5.17648">
        <ele>692.77</ele>
        <time>2017-04-04T09:11:03Z</time>
      </trkpt>
      <trkpt lat="44.97199" lon="5.17644">
        <ele>692.77</ele>
        <time>2017-04-04T09:11:25Z</time>
      </trkpt>
      <trkpt lat="44.97199" lon="5.17644">
        <ele>693.25</ele>
        <time>2017-04-04T09:11:50Z</time>
      </trkpt>
      <trkpt lat="44.97199" lon="5.17644">
        <ele>693.73</ele>
        <time>2017-04-04T09:12:17Z</time>
      </trkpt>
      <trkpt lat="44.97199" lon="5.17644">
        <ele>693.73</ele>
        <time>2017-04-04T09:12:34Z</time>
      </trkpt>
      <trkpt lat="44.97207" lon="5.1765">
        <ele>695.17</ele>
        <time>2017-04-04T09:12:46Z</time>
      </trkpt>
      <trkpt lat="44.97211" lon="5.17651">
        <ele>695.65</ele>
        <time>2017-04-04T09:12:51Z</time>
      </trkpt>
      <trkpt lat="44.97227" lon="5.17652">
        <ele>696.61</ele>
        <time>2017-04-04T09:13:05Z</time>
      </trkpt>
      <trkpt lat="44.97232" lon="5.1765">
        <ele>697.09</ele>
        <time>2017-04-04T09:13:09Z</time>
      </trkpt>
      <trkpt lat="44.97242" lon="5.17648">
        <ele>697.57</ele>
        <time>2017-04-04T09:13:18Z</time>
      </trkpt>
      <trkpt lat="44.97247" lon="5.17649">
        <ele>698.53</ele>
        <time>2017-04-04T09:13:24Z</time>
      </trkpt>
      <trkpt lat="44.97248" lon="5.1766">
        <ele>699.02</ele>
        <time>2017-04-04T09:13:35Z</time>
      </trkpt>
      <trkpt lat="44.97251" lon="5.1767">
        <ele>701.42</ele>
        <time>2017-04-04T09:13:46Z</time>
      </trkpt>
      <trkpt lat="44.9726" lon="5.17679">
        <ele>702.38</ele>
        <time>2017-04-04T09:13:57Z</time>
      </trkpt>
      <trkpt lat="44.97265" lon="5.17683">
        <ele>702.86</ele>
        <time>2017-04-04T09:14:02Z</time>
      </trkpt>
      <trkpt lat="44.97269" lon="5.17688">
        <ele>702.86</ele>
        <time>2017-04-04T09:14:06Z</time>
      </trkpt>
      <trkpt lat="44.97287" lon="5.17694">
        <ele>701.9</ele>
        <time>2017-04-04T09:14:19Z</time>
      </trkpt>
      <trkpt lat="44.97289" lon="5.17696">
        <ele>701.42</ele>
        <time>2017-04-04T09:14:21Z</time>
      </trkpt>
      <trkpt lat="44.97299" lon="5.17703">
        <ele>702.38</ele>
        <time>2017-04-04T09:14:32Z</time>
      </trkpt>
      <trkpt lat="44.97306" lon="5.17707">
        <ele>702.38</ele>
        <time>2017-04-04T09:14:47Z</time>
      </trkpt>
      <trkpt lat="44.97306" lon="5.17707">
        <ele>701.42</ele>
        <time>2017-04-04T09:15:10Z</time>
      </trkpt>
      <trkpt lat="44.97309" lon="5.17707">
        <ele>700.94</ele>
        <time>2017-04-04T09:15:31Z</time>
      </trkpt>
      <trkpt lat="44.97307" lon="5.17706">
        <ele>703.34</ele>
        <time>2017-04-04T09:15:41Z</time>
      </trkpt>
      <trkpt lat="44.97302" lon="5.17704">
        <ele>704.78</ele>
        <time>2017-04-04T09:15:55Z</time>
      </trkpt>
      <trkpt lat="44.97295" lon="5.17706">
        <ele>708.15</ele>
        <time>2017-04-04T09:16:08Z</time>
      </trkpt>
      <trkpt lat="44.97289" lon="5.1771">
        <ele>710.55</ele>
        <time>2017-04-04T09:16:21Z</time>
      </trkpt>
      <trkpt lat="44.97278" lon="5.17713">
        <ele>713.44</ele>
        <time>2017-04-04T09:16:33Z</time>
      </trkpt>
      <trkpt lat="44.97271" lon="5.17717">
        <ele>715.36</ele>
        <time>2017-04-04T09:16:45Z</time>
      </trkpt>
      <trkpt lat="44.97267" lon="5.17718">
        <ele>717.28</ele>
        <time>2017-04-04T09:16:57Z</time>
      </trkpt>
      <trkpt lat="44.97259" lon="5.17716">
        <ele>720.16</ele>
        <time>2017-04-04T09:17:11Z</time>
      </trkpt>
      <trkpt lat="44.97257" lon="5.17717">
        <ele>723.05</ele>
        <time>2017-04-04T09:17:24Z</time>
      </trkpt>
      <trkpt lat="44.97249" lon="5.17719">
        <ele>724.97</ele>
        <time>2017-04-04T09:17:35Z</time>
      </trkpt>
      <trkpt lat="44.97246" lon="5.1772">
        <ele>727.86</ele>
        <time>2017-04-04T09:17:47Z</time>
      </trkpt>
      <trkpt lat="44.97241" lon="5.17718">
        <ele>729.78</ele>
        <time>2017-04-04T09:17:58Z</time>
      </trkpt>
      <trkpt lat="44.9724" lon="5.17717">
        <ele>730.26</ele>
        <time>2017-04-04T09:18:01Z</time>
      </trkpt>
      <trkpt lat="44.97226" lon="5.17715">
        <ele>730.74</ele>
        <time>2017-04-04T09:18:16Z</time>
      </trkpt>
      <trkpt lat="44.9722" lon="5.17717">
        <ele>731.7</ele>
        <time>2017-04-04T09:18:28Z</time>
      </trkpt>
      <trkpt lat="44.97217" lon="5.17717">
        <ele>730.74</ele>
        <time>2017-04-04T09:18:41Z</time>
      </trkpt>
      <trkpt lat="44.97217" lon="5.17717">
        <ele>730.74</ele>
        <time>2017-04-04T09:18:45Z</time>
      </trkpt>
      <trkpt lat="44.97215" lon="5.17717">
        <ele>730.26</ele>
        <time>2017-04-04T09:18:48Z</time>
      </trkpt>
      <trkpt lat="44.97214" lon="5.17718">
        <ele>729.78</ele>
        <time>2017-04-04T09:18:57Z</time>
      </trkpt>
      <trkpt lat="44.97214" lon="5.17718">
        <ele>729.78</ele>
        <time>2017-04-04T09:19:15Z</time>
      </trkpt>
      <trkpt lat="44.97214" lon="5.17717">
        <ele>729.3</ele>
        <time>2017-04-04T09:19:43Z</time>
      </trkpt>
      <trkpt lat="44.97214" lon="5.17717">
        <ele>728.82</ele>
        <time>2017-04-04T09:19:56Z</time>
      </trkpt>
      <trkpt lat="44.97206" lon="5.17717">
        <ele>730.74</ele>
        <time>2017-04-04T09:20:07Z</time>
      </trkpt>
      <trkpt lat="44.97198" lon="5.17717">
        <ele>731.7</ele>
        <time>2017-04-04T09:20:18Z</time>
      </trkpt>
      <trkpt lat="44.97189" lon="5.17719">
        <ele>733.14</ele>
        <time>2017-04-04T09:20:28Z</time>
      </trkpt>
      <trkpt lat="44.97183" lon="5.1772">
        <ele>734.1</ele>
        <time>2017-04-04T09:20:39Z</time>
      </trkpt>
      <trkpt lat="44.97174" lon="5.17723">
        <ele>736.03</ele>
        <time>2017-04-04T09:20:48Z</time>
      </trkpt>
      <trkpt lat="44.97165" lon="5.17726">
        <ele>737.95</ele>
        <time>2017-04-04T09:20:59Z</time>
      </trkpt>
      <trkpt lat="44.97156" lon="5.17732">
        <ele>741.31</ele>
        <time>2017-04-04T09:21:11Z</time>
      </trkpt>
      <trkpt lat="44.97149" lon="5.17735">
        <ele>743.24</ele>
        <time>2017-04-04T09:21:22Z</time>
      </trkpt>
      <trkpt lat="44.97141" lon="5.1774">
        <ele>745.64</ele>
        <time>2017-04-04T09:21:32Z</time>
      </trkpt>
      <trkpt lat="44.97134" lon="5.17746">
        <ele>747.56</ele>
        <time>2017-04-04T09:21:43Z</time>
      </trkpt>
      <trkpt lat="44.97131" lon="5.17749">
        <ele>749</ele>
        <time>2017-04-04T09:21:53Z</time>
      </trkpt>
      <trkpt lat="44.97133" lon="5.17754">
        <ele>749.97</ele>
        <time>2017-04-04T09:22:03Z</time>
      </trkpt>
      <trkpt lat="44.97135" lon="5.17757">
        <ele>749.97</ele>
        <time>2017-04-04T09:22:17Z</time>
      </trkpt>
      <trkpt lat="44.97134" lon="5.17757">
        <ele>749.49</ele>
        <time>2017-04-04T09:22:44Z</time>
      </trkpt>
      <trkpt lat="44.97135" lon="5.17761">
        <ele>750.93</ele>
        <time>2017-04-04T09:22:59Z</time>
      </trkpt>
      <trkpt lat="44.97139" lon="5.17767">
        <ele>753.81</ele>
        <time>2017-04-04T09:23:12Z</time>
      </trkpt>
      <trkpt lat="44.97142" lon="5.17774">
        <ele>755.73</ele>
        <time>2017-04-04T09:23:23Z</time>
      </trkpt>
      <trkpt lat="44.97147" lon="5.17784">
        <ele>757.66</ele>
        <time>2017-04-04T09:23:35Z</time>
      </trkpt>
      <trkpt lat="44.97155" lon="5.17791">
        <ele>760.06</ele>
        <time>2017-04-04T09:23:46Z</time>
      </trkpt>
      <trkpt lat="44.97159" lon="5.17794">
        <ele>761.02</ele>
        <time>2017-04-04T09:23:52Z</time>
      </trkpt>
      <trkpt lat="44.97164" lon="5.17797">
        <ele>762.94</ele>
        <time>2017-04-04T09:24:03Z</time>
      </trkpt>
      <trkpt lat="44.9717" lon="5.17798">
        <ele>764.39</ele>
        <time>2017-04-04T09:24:11Z</time>
      </trkpt>
      <trkpt lat="44.97174" lon="5.17799">
        <ele>766.79</ele>
        <time>2017-04-04T09:24:23Z</time>
      </trkpt>
      <trkpt lat="44.97178" lon="5.178">
        <ele>768.23</ele>
        <time>2017-04-04T09:24:34Z</time>
      </trkpt>
      <trkpt lat="44.9718" lon="5.178">
        <ele>769.19</ele>
        <time>2017-04-04T09:24:38Z</time>
      </trkpt>
      <trkpt lat="44.97184" lon="5.17795">
        <ele>771.11</ele>
        <time>2017-04-04T09:24:46Z</time>
      </trkpt>
      <trkpt lat="44.97186" lon="5.17793">
        <ele>772.08</ele>
        <time>2017-04-04T09:25:00Z</time>
      </trkpt>
      <trkpt lat="44.97187" lon="5.17794">
        <ele>772.56</ele>
        <time>2017-04-04T09:25:24Z</time>
      </trkpt>
      <trkpt lat="44.97191" lon="5.17796">
        <ele>774</ele>
        <time>2017-04-04T09:25:35Z</time>
      </trkpt>
      <trkpt lat="44.97195" lon="5.17803">
        <ele>774.48</ele>
        <time>2017-04-04T09:25:46Z</time>
      </trkpt>
      <trkpt lat="44.97204" lon="5.17807">
        <ele>774.96</ele>
        <time>2017-04-04T09:25:58Z</time>
      </trkpt>
      <trkpt lat="44.97213" lon="5.17809">
        <ele>776.4</ele>
        <time>2017-04-04T09:26:11Z</time>
      </trkpt>
      <trkpt lat="44.97219" lon="5.17811">
        <ele>778.32</ele>
        <time>2017-04-04T09:26:24Z</time>
      </trkpt>
      <trkpt lat="44.97227" lon="5.17814">
        <ele>780.25</ele>
        <time>2017-04-04T09:26:36Z</time>
      </trkpt>
      <trkpt lat="44.9723" lon="5.17816">
        <ele>781.69</ele>
        <time>2017-04-04T09:26:47Z</time>
      </trkpt>
      <trkpt lat="44.97232" lon="5.17814">
        <ele>780.73</ele>
        <time>2017-04-04T09:27:07Z</time>
      </trkpt>
      <trkpt lat="44.97232" lon="5.17814">
        <ele>780.73</ele>
        <time>2017-04-04T09:27:27Z</time>
      </trkpt>
      <trkpt lat="44.97232" lon="5.17814">
        <ele>777.36</ele>
        <time>2017-04-04T09:27:28Z</time>
      </trkpt>
      <trkpt lat="44.97232" lon="5.17814">
        <ele>782.65</ele>
        <time>2017-04-04T09:27:29Z</time>
      </trkpt>
      <trkpt lat="44.97232" lon="5.17814">
        <ele>780.73</ele>
        <time>2017-04-04T09:27:32Z</time>
      </trkpt>
      <trkpt lat="44.97235" lon="5.17816">
        <ele>780.73</ele>
        <time>2017-04-04T09:27:39Z</time>
      </trkpt>
      <trkpt lat="44.9724" lon="5.1782">
        <ele>781.21</ele>
        <time>2017-04-04T09:27:47Z</time>
      </trkpt>
      <trkpt lat="44.97248" lon="5.17829">
        <ele>783.13</ele>
        <time>2017-04-04T09:27:59Z</time>
      </trkpt>
      <trkpt lat="44.9725" lon="5.17833">
        <ele>786.02</ele>
        <time>2017-04-04T09:28:11Z</time>
      </trkpt>
      <trkpt lat="44.97256" lon="5.1784">
        <ele>787.94</ele>
        <time>2017-04-04T09:28:22Z</time>
      </trkpt>
      <trkpt lat="44.97263" lon="5.17841">
        <ele>790.82</ele>
        <time>2017-04-04T09:28:34Z</time>
      </trkpt>
      <trkpt lat="44.97269" lon="5.17838">
        <ele>792.74</ele>
        <time>2017-04-04T09:28:44Z</time>
      </trkpt>
      <trkpt lat="44.97275" lon="5.17838">
        <ele>794.67</ele>
        <time>2017-04-04T09:28:54Z</time>
      </trkpt>
      <trkpt lat="44.97278" lon="5.17836">
        <ele>794.19</ele>
        <time>2017-04-04T09:29:11Z</time>
      </trkpt>
      <trkpt lat="44.97284" lon="5.17838">
        <ele>796.59</ele>
        <time>2017-04-04T09:29:21Z</time>
      </trkpt>
      <trkpt lat="44.97289" lon="5.1784">
        <ele>799.47</ele>
        <time>2017-04-04T09:29:32Z</time>
      </trkpt>
      <trkpt lat="44.97297" lon="5.17838">
        <ele>800.92</ele>
        <time>2017-04-04T09:29:43Z</time>
      </trkpt>
      <trkpt lat="44.97304" lon="5.17841">
        <ele>802.84</ele>
        <time>2017-04-04T09:29:55Z</time>
      </trkpt>
      <trkpt lat="44.97308" lon="5.17845">
        <ele>804.76</ele>
        <time>2017-04-04T09:30:06Z</time>
      </trkpt>
      <trkpt lat="44.97312" lon="5.17854">
        <ele>806.2</ele>
        <time>2017-04-04T09:30:17Z</time>
      </trkpt>
      <trkpt lat="44.97317" lon="5.17865">
        <ele>806.2</ele>
        <time>2017-04-04T09:30:28Z</time>
      </trkpt>
      <trkpt lat="44.97319" lon="5.17869">
        <ele>806.68</ele>
        <time>2017-04-04T09:30:33Z</time>
      </trkpt>
      <trkpt lat="44.97325" lon="5.17878">
        <ele>808.13</ele>
        <time>2017-04-04T09:30:43Z</time>
      </trkpt>
      <trkpt lat="44.97333" lon="5.17886">
        <ele>811.01</ele>
        <time>2017-04-04T09:30:56Z</time>
      </trkpt>
      <trkpt lat="44.97342" lon="5.17897">
        <ele>811.49</ele>
        <time>2017-04-04T09:31:09Z</time>
      </trkpt>
      <trkpt lat="44.97348" lon="5.17908">
        <ele>812.45</ele>
        <time>2017-04-04T09:31:20Z</time>
      </trkpt>
      <trkpt lat="44.97353" lon="5.17918">
        <ele>811.97</ele>
        <time>2017-04-04T09:31:31Z</time>
      </trkpt>
      <trkpt lat="44.97361" lon="5.17924">
        <ele>813.89</ele>
        <time>2017-04-04T09:31:42Z</time>
      </trkpt>
      <trkpt lat="44.97367" lon="5.17926">
        <ele>815.82</ele>
        <time>2017-04-04T09:31:52Z</time>
      </trkpt>
      <trkpt lat="44.97375" lon="5.17928">
        <ele>818.22</ele>
        <time>2017-04-04T09:32:04Z</time>
      </trkpt>
      <trkpt lat="44.97383" lon="5.17929">
        <ele>819.18</ele>
        <time>2017-04-04T09:32:11Z</time>
      </trkpt>
      <trkpt lat="44.97392" lon="5.17928">
        <ele>821.1</ele>
        <time>2017-04-04T09:32:23Z</time>
      </trkpt>
      <trkpt lat="44.97398" lon="5.17931">
        <ele>822.55</ele>
        <time>2017-04-04T09:32:34Z</time>
      </trkpt>
      <trkpt lat="44.97404" lon="5.17934">
        <ele>823.51</ele>
        <time>2017-04-04T09:32:40Z</time>
      </trkpt>
      <trkpt lat="44.97407" lon="5.17936">
        <ele>823.99</ele>
        <time>2017-04-04T09:32:42Z</time>
      </trkpt>
      <trkpt lat="44.97411" lon="5.17942">
        <ele>824.47</ele>
        <time>2017-04-04T09:32:47Z</time>
      </trkpt>
      <trkpt lat="44.97417" lon="5.17951">
        <ele>824.47</ele>
        <time>2017-04-04T09:32:59Z</time>
      </trkpt>
      <trkpt lat="44.97423" lon="5.17955">
        <ele>824.95</ele>
        <time>2017-04-04T09:33:08Z</time>
      </trkpt>
      <trkpt lat="44.97434" lon="5.17964">
        <ele>825.43</ele>
        <time>2017-04-04T09:33:22Z</time>
      </trkpt>
      <trkpt lat="44.97435" lon="5.17967">
        <ele>826.87</ele>
        <time>2017-04-04T09:33:35Z</time>
      </trkpt>
      <trkpt lat="44.97438" lon="5.1797">
        <ele>826.39</ele>
        <time>2017-04-04T09:33:55Z</time>
      </trkpt>
      <trkpt lat="44.97447" lon="5.17972">
        <ele>827.83</ele>
        <time>2017-04-04T09:34:06Z</time>
      </trkpt>
      <trkpt lat="44.97449" lon="5.17972">
        <ele>829.27</ele>
        <time>2017-04-04T09:34:17Z</time>
      </trkpt>
      <trkpt lat="44.97451" lon="5.17973">
        <ele>827.83</ele>
        <time>2017-04-04T09:34:25Z</time>
      </trkpt>
      <trkpt lat="44.97457" lon="5.1798">
        <ele>824.95</ele>
        <time>2017-04-04T09:34:37Z</time>
      </trkpt>
      <trkpt lat="44.97458" lon="5.17983">
        <ele>823.99</ele>
        <time>2017-04-04T09:34:41Z</time>
      </trkpt>
      <trkpt lat="44.97463" lon="5.17996">
        <ele>823.03</ele>
        <time>2017-04-04T09:34:54Z</time>
      </trkpt>
      <trkpt lat="44.97469" lon="5.18009">
        <ele>823.99</ele>
        <time>2017-04-04T09:35:06Z</time>
      </trkpt>
      <trkpt lat="44.97474" lon="5.1802">
        <ele>823.99</ele>
        <time>2017-04-04T09:35:14Z</time>
      </trkpt>
      <trkpt lat="44.97478" lon="5.18032">
        <ele>823.99</ele>
        <time>2017-04-04T09:35:28Z</time>
      </trkpt>
      <trkpt lat="44.97494" lon="5.18037">
        <ele>824.47</ele>
        <time>2017-04-04T09:35:41Z</time>
      </trkpt>
      <trkpt lat="44.97499" lon="5.18039">
        <ele>824.95</ele>
        <time>2017-04-04T09:35:54Z</time>
      </trkpt>
      <trkpt lat="44.97499" lon="5.18039">
        <ele>823.99</ele>
        <time>2017-04-04T09:36:18Z</time>
      </trkpt>
      <trkpt lat="44.975" lon="5.18039">
        <ele>823.99</ele>
        <time>2017-04-04T09:36:54Z</time>
      </trkpt>
      <trkpt lat="44.975" lon="5.18039">
        <ele>823.03</ele>
        <time>2017-04-04T09:37:24Z</time>
      </trkpt>
      <trkpt lat="44.975" lon="5.18039">
        <ele>823.03</ele>
        <time>2017-04-04T09:37:48Z</time>
      </trkpt>
      <trkpt lat="44.975" lon="5.18039">
        <ele>822.55</ele>
        <time>2017-04-04T09:38:12Z</time>
      </trkpt>
      <trkpt lat="44.97501" lon="5.18039">
        <ele>822.06</ele>
        <time>2017-04-04T09:38:35Z</time>
      </trkpt>
      <trkpt lat="44.975" lon="5.18039">
        <ele>821.58</ele>
        <time>2017-04-04T09:38:54Z</time>
      </trkpt>
      <trkpt lat="44.97501" lon="5.18038">
        <ele>821.58</ele>
        <time>2017-04-04T09:39:12Z</time>
      </trkpt>
      <trkpt lat="44.97501" lon="5.18039">
        <ele>821.1</ele>
        <time>2017-04-04T09:39:32Z</time>
      </trkpt>
      <trkpt lat="44.97506" lon="5.18043">
        <ele>822.55</ele>
        <time>2017-04-04T09:39:49Z</time>
      </trkpt>
      <trkpt lat="44.97515" lon="5.18046">
        <ele>824.95</ele>
        <time>2017-04-04T09:40:01Z</time>
      </trkpt>
      <trkpt lat="44.97521" lon="5.18047">
        <ele>827.35</ele>
        <time>2017-04-04T09:40:13Z</time>
      </trkpt>
      <trkpt lat="44.97532" lon="5.18041">
        <ele>828.31</ele>
        <time>2017-04-04T09:40:26Z</time>
      </trkpt>
      <trkpt lat="44.97536" lon="5.18042">
        <ele>831.68</ele>
        <time>2017-04-04T09:40:38Z</time>
      </trkpt>
      <trkpt lat="44.97539" lon="5.18043">
        <ele>835.04</ele>
        <time>2017-04-04T09:40:52Z</time>
      </trkpt>
      <trkpt lat="44.97548" lon="5.18038">
        <ele>836.48</ele>
        <time>2017-04-04T09:41:02Z</time>
      </trkpt>
      <trkpt lat="44.97553" lon="5.18034">
        <ele>837.93</ele>
        <time>2017-04-04T09:41:14Z</time>
      </trkpt>
      <trkpt lat="44.97555" lon="5.18033">
        <ele>838.89</ele>
        <time>2017-04-04T09:41:30Z</time>
      </trkpt>
      <trkpt lat="44.97557" lon="5.18033">
        <ele>839.37</ele>
        <time>2017-04-04T09:41:32Z</time>
      </trkpt>
      <trkpt lat="44.97563" lon="5.18035">
        <ele>839.85</ele>
        <time>2017-04-04T09:41:43Z</time>
      </trkpt>
      <trkpt lat="44.97566" lon="5.18037">
        <ele>838.89</ele>
        <time>2017-04-04T09:41:56Z</time>
      </trkpt>
      <trkpt lat="44.97567" lon="5.18037">
        <ele>838.89</ele>
        <time>2017-04-04T09:41:57Z</time>
      </trkpt>
      <trkpt lat="44.9757" lon="5.18041">
        <ele>838.41</ele>
        <time>2017-04-04T09:42:09Z</time>
      </trkpt>
      <trkpt lat="44.97571" lon="5.18036">
        <ele>838.41</ele>
        <time>2017-04-04T09:42:14Z</time>
      </trkpt>
      <trkpt lat="44.97563" lon="5.18032">
        <ele>839.37</ele>
        <time>2017-04-04T09:42:22Z</time>
      </trkpt>
      <trkpt lat="44.9756" lon="5.18028">
        <ele>838.89</ele>
        <time>2017-04-04T09:42:34Z</time>
      </trkpt>
      <trkpt lat="44.9756" lon="5.18027">
        <ele>838.89</ele>
        <time>2017-04-04T09:42:44Z</time>
      </trkpt>
      <trkpt lat="44.97557" lon="5.18032">
        <ele>838.41</ele>
        <time>2017-04-04T10:06:27Z</time>
      </trkpt>
      <trkpt lat="44.97556" lon="5.18033">
        <ele>838.41</ele>
        <time>2017-04-04T10:06:28Z</time>
      </trkpt>
      <trkpt lat="44.97566" lon="5.18032">
        <ele>836</ele>
        <time>2017-04-04T10:06:38Z</time>
      </trkpt>
      <trkpt lat="44.97572" lon="5.1804">
        <ele>832.64</ele>
        <time>2017-04-04T10:06:47Z</time>
      </trkpt>
      <trkpt lat="44.9758" lon="5.18046">
        <ele>829.27</ele>
        <time>2017-04-04T10:06:56Z</time>
      </trkpt>
      <trkpt lat="44.97581" lon="5.18049">
        <ele>827.35</ele>
        <time>2017-04-04T10:07:00Z</time>
      </trkpt>
      <trkpt lat="44.97588" lon="5.18057">
        <ele>823.51</ele>
        <time>2017-04-04T10:07:11Z</time>
      </trkpt>
      <trkpt lat="44.97591" lon="5.18067">
        <ele>821.58</ele>
        <time>2017-04-04T10:07:24Z</time>
      </trkpt>
      <trkpt lat="44.97595" lon="5.18082">
        <ele>822.55</ele>
        <time>2017-04-04T10:07:35Z</time>
      </trkpt>
      <trkpt lat="44.976" lon="5.18092">
        <ele>823.51</ele>
        <time>2017-04-04T10:07:46Z</time>
      </trkpt>
      <trkpt lat="44.97601" lon="5.18094">
        <ele>823.99</ele>
        <time>2017-04-04T10:07:49Z</time>
      </trkpt>
      <trkpt lat="44.97604" lon="5.18096">
        <ele>823.51</ele>
        <time>2017-04-04T10:07:52Z</time>
      </trkpt>
      <trkpt lat="44.97612" lon="5.18105">
        <ele>822.06</ele>
        <time>2017-04-04T10:08:02Z</time>
      </trkpt>
      <trkpt lat="44.97613" lon="5.18106">
        <ele>821.58</ele>
        <time>2017-04-04T10:08:03Z</time>
      </trkpt>
      <trkpt lat="44.97616" lon="5.18108">
        <ele>821.58</ele>
        <time>2017-04-04T10:08:06Z</time>
      </trkpt>
      <trkpt lat="44.97621" lon="5.18113">
        <ele>819.66</ele>
        <time>2017-04-04T10:08:19Z</time>
      </trkpt>
      <trkpt lat="44.97621" lon="5.18114">
        <ele>819.66</ele>
        <time>2017-04-04T10:08:24Z</time>
      </trkpt>
      <trkpt lat="44.97627" lon="5.1812">
        <ele>821.1</ele>
        <time>2017-04-04T10:08:35Z</time>
      </trkpt>
      <trkpt lat="44.9763" lon="5.18121">
        <ele>819.66</ele>
        <time>2017-04-04T10:08:48Z</time>
      </trkpt>
      <trkpt lat="44.97639" lon="5.18127">
        <ele>819.18</ele>
        <time>2017-04-04T10:08:55Z</time>
      </trkpt>
      <trkpt lat="44.97651" lon="5.18138">
        <ele>819.18</ele>
        <time>2017-04-04T10:09:07Z</time>
      </trkpt>
      <trkpt lat="44.97657" lon="5.18141">
        <ele>819.66</ele>
        <time>2017-04-04T10:09:13Z</time>
      </trkpt>
      <trkpt lat="44.97662" lon="5.18142">
        <ele>819.66</ele>
        <time>2017-04-04T10:09:16Z</time>
      </trkpt>
      <trkpt lat="44.97667" lon="5.18145">
        <ele>818.7</ele>
        <time>2017-04-04T10:09:27Z</time>
      </trkpt>
      <trkpt lat="44.97667" lon="5.18145">
        <ele>818.7</ele>
        <time>2017-04-04T10:09:58Z</time>
      </trkpt>
      <trkpt lat="44.97667" lon="5.18145">
        <ele>818.22</ele>
        <time>2017-04-04T10:10:23Z</time>
      </trkpt>
      <trkpt lat="44.97667" lon="5.18145">
        <ele>819.66</ele>
        <time>2017-04-04T10:10:48Z</time>
      </trkpt>
      <trkpt lat="44.97676" lon="5.18145">
        <ele>819.18</ele>
        <time>2017-04-04T10:11:00Z</time>
      </trkpt>
      <trkpt lat="44.97683" lon="5.1815">
        <ele>817.74</ele>
        <time>2017-04-04T10:11:10Z</time>
      </trkpt>
      <trkpt lat="44.97694" lon="5.18152">
        <ele>815.34</ele>
        <time>2017-04-04T10:11:19Z</time>
      </trkpt>
      <trkpt lat="44.97706" lon="5.1816">
        <ele>813.41</ele>
        <time>2017-04-04T10:11:31Z</time>
      </trkpt>
      <trkpt lat="44.97712" lon="5.18165">
        <ele>812.93</ele>
        <time>2017-04-04T10:11:36Z</time>
      </trkpt>
      <trkpt lat="44.97719" lon="5.18168">
        <ele>812.45</ele>
        <time>2017-04-04T10:11:41Z</time>
      </trkpt>
      <trkpt lat="44.97723" lon="5.1817">
        <ele>811.49</ele>
        <time>2017-04-04T10:11:45Z</time>
      </trkpt>
      <trkpt lat="44.97731" lon="5.1818">
        <ele>810.05</ele>
        <time>2017-04-04T10:11:57Z</time>
      </trkpt>
      <trkpt lat="44.97735" lon="5.1818">
        <ele>809.09</ele>
        <time>2017-04-04T10:12:01Z</time>
      </trkpt>
      <trkpt lat="44.97747" lon="5.18188">
        <ele>806.68</ele>
        <time>2017-04-04T10:12:14Z</time>
      </trkpt>
      <trkpt lat="44.97751" lon="5.18191">
        <ele>806.68</ele>
        <time>2017-04-04T10:12:23Z</time>
      </trkpt>
      <trkpt lat="44.97755" lon="5.18193">
        <ele>805.72</ele>
        <time>2017-04-04T10:12:28Z</time>
      </trkpt>
      <trkpt lat="44.97758" lon="5.18194">
        <ele>805.24</ele>
        <time>2017-04-04T10:12:30Z</time>
      </trkpt>
      <trkpt lat="44.9776" lon="5.18195">
        <ele>804.76</ele>
        <time>2017-04-04T10:12:33Z</time>
      </trkpt>
      <trkpt lat="44.97764" lon="5.18193">
        <ele>804.28</ele>
        <time>2017-04-04T10:12:37Z</time>
      </trkpt>
      <trkpt lat="44.97765" lon="5.18192">
        <ele>803.32</ele>
        <time>2017-04-04T10:12:40Z</time>
      </trkpt>
      <trkpt lat="44.97775" lon="5.18192">
        <ele>801.88</ele>
        <time>2017-04-04T10:12:50Z</time>
      </trkpt>
      <trkpt lat="44.97787" lon="5.18197">
        <ele>799.95</ele>
        <time>2017-04-04T10:12:59Z</time>
      </trkpt>
      <trkpt lat="44.97795" lon="5.18198">
        <ele>798.51</ele>
        <time>2017-04-04T10:13:08Z</time>
      </trkpt>
      <trkpt lat="44.97807" lon="5.18199">
        <ele>798.99</ele>
        <time>2017-04-04T10:13:19Z</time>
      </trkpt>
      <trkpt lat="44.97813" lon="5.182">
        <ele>798.99</ele>
        <time>2017-04-04T10:13:25Z</time>
      </trkpt>
      <trkpt lat="44.97826" lon="5.18201">
        <ele>798.03</ele>
        <time>2017-04-04T10:13:34Z</time>
      </trkpt>
      <trkpt lat="44.97836" lon="5.18202">
        <ele>797.07</ele>
        <time>2017-04-04T10:13:40Z</time>
      </trkpt>
      <trkpt lat="44.97841" lon="5.18199">
        <ele>798.03</ele>
        <time>2017-04-04T10:13:44Z</time>
      </trkpt>
      <trkpt lat="44.97854" lon="5.18197">
        <ele>798.99</ele>
        <time>2017-04-04T10:13:57Z</time>
      </trkpt>
      <trkpt lat="44.97855" lon="5.18197">
        <ele>798.99</ele>
        <time>2017-04-04T10:13:58Z</time>
      </trkpt>
      <trkpt lat="44.97861" lon="5.18196">
        <ele>799.47</ele>
        <time>2017-04-04T10:14:03Z</time>
      </trkpt>
      <trkpt lat="44.9787" lon="5.18195">
        <ele>799.95</ele>
        <time>2017-04-04T10:14:10Z</time>
      </trkpt>
      <trkpt lat="44.97878" lon="5.18195">
        <ele>800.44</ele>
        <time>2017-04-04T10:14:16Z</time>
      </trkpt>
      <trkpt lat="44.97893" lon="5.18198">
        <ele>799.47</ele>
        <time>2017-04-04T10:14:29Z</time>
      </trkpt>
      <trkpt lat="44.9791" lon="5.18201">
        <ele>798.99</ele>
        <time>2017-04-04T10:14:42Z</time>
      </trkpt>
      <trkpt lat="44.97916" lon="5.18203">
        <ele>798.03</ele>
        <time>2017-04-04T10:14:51Z</time>
      </trkpt>
      <trkpt lat="44.97933" lon="5.18202">
        <ele>797.07</ele>
        <time>2017-04-04T10:15:02Z</time>
      </trkpt>
      <trkpt lat="44.97934" lon="5.18202">
        <ele>796.59</ele>
        <time>2017-04-04T10:15:03Z</time>
      </trkpt>
      <trkpt lat="44.97937" lon="5.18203">
        <ele>796.59</ele>
        <time>2017-04-04T10:15:05Z</time>
      </trkpt>
      <trkpt lat="44.97947" lon="5.18211">
        <ele>795.63</ele>
        <time>2017-04-04T10:15:18Z</time>
      </trkpt>
      <trkpt lat="44.97959" lon="5.18223">
        <ele>792.74</ele>
        <time>2017-04-04T10:15:32Z</time>
      </trkpt>
      <trkpt lat="44.97971" lon="5.18227">
        <ele>789.38</ele>
        <time>2017-04-04T10:15:45Z</time>
      </trkpt>
      <trkpt lat="44.97973" lon="5.18229">
        <ele>788.42</ele>
        <time>2017-04-04T10:15:59Z</time>
      </trkpt>
      <trkpt lat="44.97974" lon="5.18229">
        <ele>786.98</ele>
        <time>2017-04-04T10:16:19Z</time>
      </trkpt>
      <trkpt lat="44.97974" lon="5.1823">
        <ele>784.09</ele>
        <time>2017-04-04T10:16:26Z</time>
      </trkpt>
      <trkpt lat="44.97979" lon="5.18234">
        <ele>781.21</ele>
        <time>2017-04-04T10:16:33Z</time>
      </trkpt>
      <trkpt lat="44.97988" lon="5.18239">
        <ele>777.36</ele>
        <time>2017-04-04T10:16:46Z</time>
      </trkpt>
      <trkpt lat="44.97996" lon="5.18242">
        <ele>775.44</ele>
        <time>2017-04-04T10:16:54Z</time>
      </trkpt>
      <trkpt lat="44.98008" lon="5.18245">
        <ele>774.48</ele>
        <time>2017-04-04T10:17:04Z</time>
      </trkpt>
      <trkpt lat="44.9801" lon="5.18247">
        <ele>773.52</ele>
        <time>2017-04-04T10:17:12Z</time>
      </trkpt>
      <trkpt lat="44.97999" lon="5.18258">
        <ele>773.52</ele>
        <time>2017-04-04T10:17:25Z</time>
      </trkpt>
      <trkpt lat="44.9799" lon="5.18266">
        <ele>774</ele>
        <time>2017-04-04T10:17:36Z</time>
      </trkpt>
      <trkpt lat="44.97979" lon="5.18273">
        <ele>775.44</ele>
        <time>2017-04-04T10:17:49Z</time>
      </trkpt>
      <trkpt lat="44.97964" lon="5.18279">
        <ele>777.36</ele>
        <time>2017-04-04T10:18:04Z</time>
      </trkpt>
      <trkpt lat="44.97949" lon="5.18282">
        <ele>776.88</ele>
        <time>2017-04-04T10:18:16Z</time>
      </trkpt>
      <trkpt lat="44.97926" lon="5.18279">
        <ele>775.92</ele>
        <time>2017-04-04T10:18:30Z</time>
      </trkpt>
      <trkpt lat="44.97915" lon="5.18276">
        <ele>774</ele>
        <time>2017-04-04T10:18:42Z</time>
      </trkpt>
      <trkpt lat="44.979" lon="5.18275">
        <ele>771.6</ele>
        <time>2017-04-04T10:18:53Z</time>
      </trkpt>
      <trkpt lat="44.97896" lon="5.18274">
        <ele>770.63</ele>
        <time>2017-04-04T10:18:57Z</time>
      </trkpt>
      <trkpt lat="44.9788" lon="5.18272">
        <ele>768.71</ele>
        <time>2017-04-04T10:19:10Z</time>
      </trkpt>
      <trkpt lat="44.97873" lon="5.18271">
        <ele>768.23</ele>
        <time>2017-04-04T10:19:17Z</time>
      </trkpt>
      <trkpt lat="44.97859" lon="5.18275">
        <ele>766.31</ele>
        <time>2017-04-04T10:19:28Z</time>
      </trkpt>
      <trkpt lat="44.97846" lon="5.18272">
        <ele>765.35</ele>
        <time>2017-04-04T10:19:38Z</time>
      </trkpt>
      <trkpt lat="44.97828" lon="5.1827">
        <ele>764.87</ele>
        <time>2017-04-04T10:19:53Z</time>
      </trkpt>
      <trkpt lat="44.9781" lon="5.18269">
        <ele>764.87</ele>
        <time>2017-04-04T10:20:08Z</time>
      </trkpt>
      <trkpt lat="44.97793" lon="5.18276">
        <ele>765.35</ele>
        <time>2017-04-04T10:20:23Z</time>
      </trkpt>
      <trkpt lat="44.97777" lon="5.18291">
        <ele>764.87</ele>
        <time>2017-04-04T10:20:39Z</time>
      </trkpt>
      <trkpt lat="44.97757" lon="5.18311">
        <ele>765.35</ele>
        <time>2017-04-04T10:20:53Z</time>
      </trkpt>
      <trkpt lat="44.97743" lon="5.18325">
        <ele>765.35</ele>
        <time>2017-04-04T10:21:06Z</time>
      </trkpt>
      <trkpt lat="44.9774" lon="5.18327">
        <ele>765.35</ele>
        <time>2017-04-04T10:21:09Z</time>
      </trkpt>
      <trkpt lat="44.97733" lon="5.18337">
        <ele>764.39</ele>
        <time>2017-04-04T10:21:16Z</time>
      </trkpt>
      <trkpt lat="44.97725" lon="5.18358">
        <ele>764.87</ele>
        <time>2017-04-04T10:21:27Z</time>
      </trkpt>
      <trkpt lat="44.97714" lon="5.18377">
        <ele>766.79</ele>
        <time>2017-04-04T10:21:40Z</time>
      </trkpt>
      <trkpt lat="44.97709" lon="5.18386">
        <ele>768.71</ele>
        <time>2017-04-04T10:21:50Z</time>
      </trkpt>
      <trkpt lat="44.97697" lon="5.1841">
        <ele>771.11</ele>
        <time>2017-04-04T10:22:03Z</time>
      </trkpt>
      <trkpt lat="44.97696" lon="5.18412">
        <ele>771.11</ele>
        <time>2017-04-04T10:22:04Z</time>
      </trkpt>
      <trkpt lat="44.97691" lon="5.18419">
        <ele>771.6</ele>
        <time>2017-04-04T10:22:11Z</time>
      </trkpt>
      <trkpt lat="44.97683" lon="5.18436">
        <ele>771.6</ele>
        <time>2017-04-04T10:22:22Z</time>
      </trkpt>
      <trkpt lat="44.97685" lon="5.18435">
        <ele>770.15</ele>
        <time>2017-04-04T10:22:33Z</time>
      </trkpt>
      <trkpt lat="44.97683" lon="5.18433">
        <ele>770.15</ele>
        <time>2017-04-04T10:22:52Z</time>
      </trkpt>
      <trkpt lat="44.97689" lon="5.18434">
        <ele>770.15</ele>
        <time>2017-04-04T10:23:13Z</time>
      </trkpt>
      <trkpt lat="44.97691" lon="5.18432">
        <ele>769.67</ele>
        <time>2017-04-04T10:23:34Z</time>
      </trkpt>
      <trkpt lat="44.97685" lon="5.18432">
        <ele>769.67</ele>
        <time>2017-04-04T10:23:59Z</time>
      </trkpt>
      <trkpt lat="44.97688" lon="5.18432">
        <ele>769.67</ele>
        <time>2017-04-04T10:24:19Z</time>
      </trkpt>
      <trkpt lat="44.97685" lon="5.18435">
        <ele>769.67</ele>
        <time>2017-04-04T10:24:34Z</time>
      </trkpt>
      <trkpt lat="44.97686" lon="5.18439">
        <ele>770.63</ele>
        <time>2017-04-04T10:24:57Z</time>
      </trkpt>
      <trkpt lat="44.97682" lon="5.18439">
        <ele>770.15</ele>
        <time>2017-04-04T10:25:28Z</time>
      </trkpt>
      <trkpt lat="44.97681" lon="5.18446">
        <ele>770.63</ele>
        <time>2017-04-04T10:25:39Z</time>
      </trkpt>
      <trkpt lat="44.97678" lon="5.18448">
        <ele>770.63</ele>
        <time>2017-04-04T10:25:54Z</time>
      </trkpt>
      <trkpt lat="44.97677" lon="5.18449">
        <ele>770.63</ele>
        <time>2017-04-04T10:25:55Z</time>
      </trkpt>
      <trkpt lat="44.97668" lon="5.1846">
        <ele>770.15</ele>
        <time>2017-04-04T10:26:06Z</time>
      </trkpt>
      <trkpt lat="44.97665" lon="5.18476">
        <ele>770.15</ele>
        <time>2017-04-04T10:26:18Z</time>
      </trkpt>
      <trkpt lat="44.97658" lon="5.18478">
        <ele>772.08</ele>
        <time>2017-04-04T10:26:29Z</time>
      </trkpt>
      <trkpt lat="44.97655" lon="5.18481">
        <ele>773.52</ele>
        <time>2017-04-04T10:26:33Z</time>
      </trkpt>
      <trkpt lat="44.97641" lon="5.18484">
        <ele>773.52</ele>
        <time>2017-04-04T10:26:46Z</time>
      </trkpt>
      <trkpt lat="44.97628" lon="5.18482">
        <ele>774</ele>
        <time>2017-04-04T10:26:57Z</time>
      </trkpt>
      <trkpt lat="44.97615" lon="5.18487">
        <ele>774.48</ele>
        <time>2017-04-04T10:27:11Z</time>
      </trkpt>
      <trkpt lat="44.97606" lon="5.18489">
        <ele>774.96</ele>
        <time>2017-04-04T10:27:21Z</time>
      </trkpt>
      <trkpt lat="44.97595" lon="5.18493">
        <ele>775.44</ele>
        <time>2017-04-04T10:27:28Z</time>
      </trkpt>
      <trkpt lat="44.97582" lon="5.18496">
        <ele>776.88</ele>
        <time>2017-04-04T10:27:39Z</time>
      </trkpt>
      <trkpt lat="44.97575" lon="5.18498">
        <ele>777.36</ele>
        <time>2017-04-04T10:27:42Z</time>
      </trkpt>
      <trkpt lat="44.97567" lon="5.18501">
        <ele>776.88</ele>
        <time>2017-04-04T10:27:49Z</time>
      </trkpt>
      <trkpt lat="44.97561" lon="5.18502">
        <ele>776.88</ele>
        <time>2017-04-04T10:27:52Z</time>
      </trkpt>
      <trkpt lat="44.9755" lon="5.18507">
        <ele>776.4</ele>
        <time>2017-04-04T10:28:00Z</time>
      </trkpt>
      <trkpt lat="44.97542" lon="5.18512">
        <ele>776.4</ele>
        <time>2017-04-04T10:28:07Z</time>
      </trkpt>
      <trkpt lat="44.9754" lon="5.18515">
        <ele>776.4</ele>
        <time>2017-04-04T10:28:09Z</time>
      </trkpt>
      <trkpt lat="44.97536" lon="5.18517">
        <ele>776.4</ele>
        <time>2017-04-04T10:28:12Z</time>
      </trkpt>
      <trkpt lat="44.97528" lon="5.18526">
        <ele>776.88</ele>
        <time>2017-04-04T10:28:19Z</time>
      </trkpt>
      <trkpt lat="44.97527" lon="5.18529">
        <ele>776.88</ele>
        <time>2017-04-04T10:28:21Z</time>
      </trkpt>
      <trkpt lat="44.9752" lon="5.18548">
        <ele>777.36</ele>
        <time>2017-04-04T10:28:34Z</time>
      </trkpt>
      <trkpt lat="44.97519" lon="5.18555">
        <ele>777.36</ele>
        <time>2017-04-04T10:28:39Z</time>
      </trkpt>
      <trkpt lat="44.97512" lon="5.18575">
        <ele>778.32</ele>
        <time>2017-04-04T10:28:51Z</time>
      </trkpt>
      <trkpt lat="44.97511" lon="5.18576">
        <ele>778.32</ele>
        <time>2017-04-04T10:28:52Z</time>
      </trkpt>
      <trkpt lat="44.97508" lon="5.18581">
        <ele>778.32</ele>
        <time>2017-04-04T10:28:55Z</time>
      </trkpt>
      <trkpt lat="44.97504" lon="5.1859">
        <ele>778.32</ele>
        <time>2017-04-04T10:29:01Z</time>
      </trkpt>
      <trkpt lat="44.97502" lon="5.18593">
        <ele>778.81</ele>
        <time>2017-04-04T10:29:03Z</time>
      </trkpt>
      <trkpt lat="44.9749" lon="5.18609">
        <ele>779.29</ele>
        <time>2017-04-04T10:29:16Z</time>
      </trkpt>
      <trkpt lat="44.97489" lon="5.18612">
        <ele>779.29</ele>
        <time>2017-04-04T10:29:18Z</time>
      </trkpt>
      <trkpt lat="44.97481" lon="5.18622">
        <ele>780.73</ele>
        <time>2017-04-04T10:29:26Z</time>
      </trkpt>
      <trkpt lat="44.97476" lon="5.18627">
        <ele>780.73</ele>
        <time>2017-04-04T10:29:32Z</time>
      </trkpt>
      <trkpt lat="44.97462" lon="5.18638">
        <ele>779.77</ele>
        <time>2017-04-04T10:29:44Z</time>
      </trkpt>
      <trkpt lat="44.97462" lon="5.18638">
        <ele>779.77</ele>
        <time>2017-04-04T10:29:45Z</time>
      </trkpt>
      <trkpt lat="44.97459" lon="5.18641">
        <ele>780.25</ele>
        <time>2017-04-04T10:29:48Z</time>
      </trkpt>
      <trkpt lat="44.97447" lon="5.18647">
        <ele>782.65</ele>
        <time>2017-04-04T10:30:02Z</time>
      </trkpt>
      <trkpt lat="44.97446" lon="5.18648">
        <ele>783.61</ele>
        <time>2017-04-04T10:30:05Z</time>
      </trkpt>
      <trkpt lat="44.97437" lon="5.18649">
        <ele>784.09</ele>
        <time>2017-04-04T10:30:18Z</time>
      </trkpt>
      <trkpt lat="44.97434" lon="5.1865">
        <ele>785.05</ele>
        <time>2017-04-04T10:30:22Z</time>
      </trkpt>
      <trkpt lat="44.97426" lon="5.18649">
        <ele>786.98</ele>
        <time>2017-04-04T10:30:31Z</time>
      </trkpt>
      <trkpt lat="44.97411" lon="5.18651">
        <ele>789.86</ele>
        <time>2017-04-04T10:30:42Z</time>
      </trkpt>
      <trkpt lat="44.974" lon="5.18646">
        <ele>792.26</ele>
        <time>2017-04-04T10:30:55Z</time>
      </trkpt>
      <trkpt lat="44.97386" lon="5.18645">
        <ele>794.19</ele>
        <time>2017-04-04T10:31:08Z</time>
      </trkpt>
      <trkpt lat="44.9738" lon="5.18643">
        <ele>795.15</ele>
        <time>2017-04-04T10:31:12Z</time>
      </trkpt>
      <trkpt lat="44.97377" lon="5.18642">
        <ele>795.63</ele>
        <time>2017-04-04T10:31:14Z</time>
      </trkpt>
      <trkpt lat="44.97364" lon="5.18638">
        <ele>796.11</ele>
        <time>2017-04-04T10:31:26Z</time>
      </trkpt>
      <trkpt lat="44.97354" lon="5.18635">
        <ele>797.07</ele>
        <time>2017-04-04T10:31:40Z</time>
      </trkpt>
      <trkpt lat="44.97354" lon="5.18635">
        <ele>797.55</ele>
        <time>2017-04-04T10:31:41Z</time>
      </trkpt>
      <trkpt lat="44.97342" lon="5.18636">
        <ele>798.99</ele>
        <time>2017-04-04T10:31:52Z</time>
      </trkpt>
      <trkpt lat="44.97332" lon="5.1864">
        <ele>801.4</ele>
        <time>2017-04-04T10:32:05Z</time>
      </trkpt>
      <trkpt lat="44.97331" lon="5.18639">
        <ele>801.4</ele>
        <time>2017-04-04T10:32:06Z</time>
      </trkpt>
      <trkpt lat="44.97324" lon="5.18637">
        <ele>800.44</ele>
        <time>2017-04-04T10:32:17Z</time>
      </trkpt>
      <trkpt lat="44.97323" lon="5.18635">
        <ele>800.92</ele>
        <time>2017-04-04T10:32:20Z</time>
      </trkpt>
      <trkpt lat="44.97322" lon="5.18632">
        <ele>799.95</ele>
        <time>2017-04-04T10:32:32Z</time>
      </trkpt>
      <trkpt lat="44.97321" lon="5.18633">
        <ele>800.44</ele>
        <time>2017-04-04T10:32:55Z</time>
      </trkpt>
      <trkpt lat="44.97321" lon="5.18634">
        <ele>800.44</ele>
        <time>2017-04-04T10:32:57Z</time>
      </trkpt>
      <trkpt lat="44.97324" lon="5.18642">
        <ele>802.36</ele>
        <time>2017-04-04T10:33:09Z</time>
      </trkpt>
      <trkpt lat="44.97322" lon="5.1864">
        <ele>802.36</ele>
        <time>2017-04-04T10:33:23Z</time>
      </trkpt>
      <trkpt lat="44.97321" lon="5.1864">
        <ele>802.36</ele>
        <time>2017-04-04T10:33:35Z</time>
      </trkpt>
      <trkpt lat="44.97321" lon="5.1864">
        <ele>801.88</ele>
        <time>2017-04-04T10:33:49Z</time>
      </trkpt>
      <trkpt lat="44.97321" lon="5.18641">
        <ele>801.88</ele>
        <time>2017-04-04T10:34:10Z</time>
      </trkpt>
      <trkpt lat="44.97328" lon="5.18647">
        <ele>802.36</ele>
        <time>2017-04-04T10:34:20Z</time>
      </trkpt>
      <trkpt lat="44.97327" lon="5.18649">
        <ele>801.88</ele>
        <time>2017-04-04T10:34:22Z</time>
      </trkpt>
      <trkpt lat="44.97327" lon="5.18658">
        <ele>799.95</ele>
        <time>2017-04-04T10:34:32Z</time>
      </trkpt>
      <trkpt lat="44.97326" lon="5.18669">
        <ele>797.07</ele>
        <time>2017-04-04T10:34:42Z</time>
      </trkpt>
      <trkpt lat="44.97324" lon="5.18679">
        <ele>796.11</ele>
        <time>2017-04-04T10:34:49Z</time>
      </trkpt>
      <trkpt lat="44.97319" lon="5.18696">
        <ele>793.71</ele>
        <time>2017-04-04T10:35:01Z</time>
      </trkpt>
      <trkpt lat="44.97319" lon="5.18697">
        <ele>793.71</ele>
        <time>2017-04-04T10:35:02Z</time>
      </trkpt>
      <trkpt lat="44.97316" lon="5.1871">
        <ele>792.26</ele>
        <time>2017-04-04T10:35:10Z</time>
      </trkpt>
      <trkpt lat="44.97315" lon="5.18729">
        <ele>790.34</ele>
        <time>2017-04-04T10:35:22Z</time>
      </trkpt>
      <trkpt lat="44.97315" lon="5.18729">
        <ele>789.86</ele>
        <time>2017-04-04T10:35:24Z</time>
      </trkpt>
      <trkpt lat="44.97314" lon="5.18752">
        <ele>788.42</ele>
        <time>2017-04-04T10:35:36Z</time>
      </trkpt>
      <trkpt lat="44.97315" lon="5.18754">
        <ele>788.42</ele>
        <time>2017-04-04T10:35:55Z</time>
      </trkpt>
      <trkpt lat="44.9731" lon="5.18755">
        <ele>785.05</ele>
        <time>2017-04-04T10:36:04Z</time>
      </trkpt>
      <trkpt lat="44.97308" lon="5.18757">
        <ele>782.65</ele>
        <time>2017-04-04T10:36:09Z</time>
      </trkpt>
      <trkpt lat="44.97306" lon="5.1876">
        <ele>781.21</ele>
        <time>2017-04-04T10:36:14Z</time>
      </trkpt>
      <trkpt lat="44.97306" lon="5.1876">
        <ele>780.25</ele>
        <time>2017-04-04T10:36:15Z</time>
      </trkpt>
      <trkpt lat="44.97295" lon="5.1877">
        <ele>777.36</ele>
        <time>2017-04-04T10:36:26Z</time>
      </trkpt>
      <trkpt lat="44.9729" lon="5.18774">
        <ele>775.44</ele>
        <time>2017-04-04T10:36:32Z</time>
      </trkpt>
      <trkpt lat="44.97288" lon="5.18771">
        <ele>773.52</ele>
        <time>2017-04-04T10:36:38Z</time>
      </trkpt>
      <trkpt lat="44.97277" lon="5.18782">
        <ele>769.67</ele>
        <time>2017-04-04T10:36:49Z</time>
      </trkpt>
      <trkpt lat="44.97273" lon="5.18783">
        <ele>768.71</ele>
        <time>2017-04-04T10:36:52Z</time>
      </trkpt>
      <trkpt lat="44.9727" lon="5.18774">
        <ele>765.35</ele>
        <time>2017-04-04T10:37:06Z</time>
      </trkpt>
      <trkpt lat="44.97267" lon="5.18769">
        <ele>762.46</ele>
        <time>2017-04-04T10:37:13Z</time>
      </trkpt>
      <trkpt lat="44.97268" lon="5.18761">
        <ele>759.58</ele>
        <time>2017-04-04T10:37:22Z</time>
      </trkpt>
      <trkpt lat="44.97267" lon="5.18752">
        <ele>756.21</ele>
        <time>2017-04-04T10:37:32Z</time>
      </trkpt>
      <trkpt lat="44.97264" lon="5.18751">
        <ele>753.81</ele>
        <time>2017-04-04T10:37:40Z</time>
      </trkpt>
      <trkpt lat="44.97259" lon="5.18749">
        <ele>752.37</ele>
        <time>2017-04-04T10:37:45Z</time>
      </trkpt>
      <trkpt lat="44.97255" lon="5.18744">
        <ele>749.49</ele>
        <time>2017-04-04T10:37:57Z</time>
      </trkpt>
      <trkpt lat="44.97253" lon="5.18735">
        <ele>746.12</ele>
        <time>2017-04-04T10:38:09Z</time>
      </trkpt>
      <trkpt lat="44.97252" lon="5.18731">
        <ele>744.2</ele>
        <time>2017-04-04T10:38:19Z</time>
      </trkpt>
      <trkpt lat="44.97252" lon="5.18731">
        <ele>744.2</ele>
        <time>2017-04-04T10:38:25Z</time>
      </trkpt>
      <trkpt lat="44.97246" lon="5.18735">
        <ele>740.83</ele>
        <time>2017-04-04T10:38:37Z</time>
      </trkpt>
      <trkpt lat="44.97241" lon="5.18738">
        <ele>737.95</ele>
        <time>2017-04-04T10:38:46Z</time>
      </trkpt>
      <trkpt lat="44.97237" lon="5.18743">
        <ele>736.03</ele>
        <time>2017-04-04T10:38:51Z</time>
      </trkpt>
      <trkpt lat="44.97235" lon="5.18744">
        <ele>735.07</ele>
        <time>2017-04-04T10:38:54Z</time>
      </trkpt>
      <trkpt lat="44.97228" lon="5.18746">
        <ele>733.14</ele>
        <time>2017-04-04T10:39:01Z</time>
      </trkpt>
      <trkpt lat="44.97225" lon="5.1875">
        <ele>730.74</ele>
        <time>2017-04-04T10:39:09Z</time>
      </trkpt>
      <trkpt lat="44.9722" lon="5.18752">
        <ele>728.82</ele>
        <time>2017-04-04T10:39:13Z</time>
      </trkpt>
      <trkpt lat="44.97217" lon="5.18754">
        <ele>727.37</ele>
        <time>2017-04-04T10:39:22Z</time>
      </trkpt>
      <trkpt lat="44.97215" lon="5.18755">
        <ele>726.41</ele>
        <time>2017-04-04T10:39:24Z</time>
      </trkpt>
      <trkpt lat="44.97205" lon="5.18773">
        <ele>723.05</ele>
        <time>2017-04-04T10:39:36Z</time>
      </trkpt>
      <trkpt lat="44.972" lon="5.18782">
        <ele>719.68</ele>
        <time>2017-04-04T10:39:44Z</time>
      </trkpt>
      <trkpt lat="44.97197" lon="5.1879">
        <ele>717.76</ele>
        <time>2017-04-04T10:39:51Z</time>
      </trkpt>
      <trkpt lat="44.97197" lon="5.18795">
        <ele>716.8</ele>
        <time>2017-04-04T10:39:54Z</time>
      </trkpt>
      <trkpt lat="44.97193" lon="5.188">
        <ele>714.88</ele>
        <time>2017-04-04T10:40:02Z</time>
      </trkpt>
      <trkpt lat="44.97188" lon="5.18805">
        <ele>714.4</ele>
        <time>2017-04-04T10:40:06Z</time>
      </trkpt>
      <trkpt lat="44.97184" lon="5.18815">
        <ele>711.03</ele>
        <time>2017-04-04T10:40:16Z</time>
      </trkpt>
      <trkpt lat="44.97178" lon="5.18826">
        <ele>707.67</ele>
        <time>2017-04-04T10:40:26Z</time>
      </trkpt>
      <trkpt lat="44.97176" lon="5.18828">
        <ele>706.71</ele>
        <time>2017-04-04T10:40:28Z</time>
      </trkpt>
      <trkpt lat="44.97168" lon="5.18836">
        <ele>704.3</ele>
        <time>2017-04-04T10:40:37Z</time>
      </trkpt>
      <trkpt lat="44.97164" lon="5.18841">
        <ele>703.34</ele>
        <time>2017-04-04T10:40:49Z</time>
      </trkpt>
      <trkpt lat="44.9716" lon="5.1884">
        <ele>701.42</ele>
        <time>2017-04-04T10:41:01Z</time>
      </trkpt>
      <trkpt lat="44.97156" lon="5.18836">
        <ele>700.46</ele>
        <time>2017-04-04T10:41:13Z</time>
      </trkpt>
      <trkpt lat="44.97154" lon="5.18834">
        <ele>699.5</ele>
        <time>2017-04-04T10:41:28Z</time>
      </trkpt>
      <trkpt lat="44.97154" lon="5.18835">
        <ele>699.5</ele>
        <time>2017-04-04T10:41:50Z</time>
      </trkpt>
      <trkpt lat="44.97154" lon="5.18835">
        <ele>699.02</ele>
        <time>2017-04-04T10:42:10Z</time>
      </trkpt>
      <trkpt lat="44.97154" lon="5.18836">
        <ele>699.02</ele>
        <time>2017-04-04T10:42:39Z</time>
      </trkpt>
      <trkpt lat="44.97153" lon="5.18836">
        <ele>699.5</ele>
        <time>2017-04-04T10:42:53Z</time>
      </trkpt>
      <trkpt lat="44.97152" lon="5.18835">
        <ele>699.02</ele>
        <time>2017-04-04T10:43:07Z</time>
      </trkpt>
      <trkpt lat="44.97149" lon="5.18836">
        <ele>698.53</ele>
        <time>2017-04-04T10:43:16Z</time>
      </trkpt>
      <trkpt lat="44.97147" lon="5.18835">
        <ele>698.53</ele>
        <time>2017-04-04T10:43:18Z</time>
      </trkpt>
      <trkpt lat="44.97139" lon="5.18838">
        <ele>696.13</ele>
        <time>2017-04-04T10:43:28Z</time>
      </trkpt>
      <trkpt lat="44.97132" lon="5.1884">
        <ele>695.65</ele>
        <time>2017-04-04T10:43:34Z</time>
      </trkpt>
      <trkpt lat="44.97113" lon="5.1884">
        <ele>694.21</ele>
        <time>2017-04-04T10:43:48Z</time>
      </trkpt>
      <trkpt lat="44.97102" lon="5.18839">
        <ele>692.29</ele>
        <time>2017-04-04T10:43:57Z</time>
      </trkpt>
      <trkpt lat="44.97099" lon="5.18839">
        <ele>691.81</ele>
        <time>2017-04-04T10:44:00Z</time>
      </trkpt>
      <trkpt lat="44.97092" lon="5.1884">
        <ele>690.84</ele>
        <time>2017-04-04T10:44:05Z</time>
      </trkpt>
      <trkpt lat="44.97084" lon="5.18841">
        <ele>688.44</ele>
        <time>2017-04-04T10:44:12Z</time>
      </trkpt>
      <trkpt lat="44.97079" lon="5.1884">
        <ele>687</ele>
        <time>2017-04-04T10:44:17Z</time>
      </trkpt>
      <trkpt lat="44.97072" lon="5.1884">
        <ele>685.56</ele>
        <time>2017-04-04T10:44:24Z</time>
      </trkpt>
      <trkpt lat="44.97063" lon="5.18845">
        <ele>684.12</ele>
        <time>2017-04-04T10:44:31Z</time>
      </trkpt>
      <trkpt lat="44.9705" lon="5.18846">
        <ele>681.71</ele>
        <time>2017-04-04T10:44:43Z</time>
      </trkpt>
      <trkpt lat="44.97047" lon="5.18845">
        <ele>681.23</ele>
        <time>2017-04-04T10:44:47Z</time>
      </trkpt>
      <trkpt lat="44.97036" lon="5.18851">
        <ele>678.83</ele>
        <time>2017-04-04T10:44:57Z</time>
      </trkpt>
      <trkpt lat="44.97023" lon="5.18855">
        <ele>677.39</ele>
        <time>2017-04-04T10:45:10Z</time>
      </trkpt>
      <trkpt lat="44.97023" lon="5.18855">
        <ele>677.39</ele>
        <time>2017-04-04T10:45:11Z</time>
      </trkpt>
      <trkpt lat="44.9702" lon="5.18855">
        <ele>676.91</ele>
        <time>2017-04-04T10:45:14Z</time>
      </trkpt>
      <trkpt lat="44.97015" lon="5.18853">
        <ele>674.98</ele>
        <time>2017-04-04T10:45:20Z</time>
      </trkpt>
      <trkpt lat="44.97005" lon="5.18853">
        <ele>671.62</ele>
        <time>2017-04-04T10:45:32Z</time>
      </trkpt>
      <trkpt lat="44.96999" lon="5.18852">
        <ele>670.18</ele>
        <time>2017-04-04T10:45:43Z</time>
      </trkpt>
      <trkpt lat="44.9699" lon="5.18851">
        <ele>667.29</ele>
        <time>2017-04-04T10:45:54Z</time>
      </trkpt>
      <trkpt lat="44.96983" lon="5.18851">
        <ele>665.37</ele>
        <time>2017-04-04T10:46:01Z</time>
      </trkpt>
      <trkpt lat="44.96977" lon="5.18851">
        <ele>662.97</ele>
        <time>2017-04-04T10:46:11Z</time>
      </trkpt>
      <trkpt lat="44.96974" lon="5.18851">
        <ele>662.01</ele>
        <time>2017-04-04T10:46:14Z</time>
      </trkpt>
      <trkpt lat="44.96968" lon="5.18855">
        <ele>660.08</ele>
        <time>2017-04-04T10:46:25Z</time>
      </trkpt>
      <trkpt lat="44.96962" lon="5.18851">
        <ele>658.16</ele>
        <time>2017-04-04T10:46:35Z</time>
      </trkpt>
      <trkpt lat="44.9696" lon="5.18845">
        <ele>656.72</ele>
        <time>2017-04-04T10:46:41Z</time>
      </trkpt>
      <trkpt lat="44.9696" lon="5.18842">
        <ele>656.24</ele>
        <time>2017-04-04T10:46:43Z</time>
      </trkpt>
      <trkpt lat="44.96957" lon="5.1884">
        <ele>655.76</ele>
        <time>2017-04-04T10:46:45Z</time>
      </trkpt>
      <trkpt lat="44.96956" lon="5.18839">
        <ele>654.8</ele>
        <time>2017-04-04T10:46:46Z</time>
      </trkpt>
      <trkpt lat="44.96947" lon="5.18845">
        <ele>654.31</ele>
        <time>2017-04-04T10:46:54Z</time>
      </trkpt>
      <trkpt lat="44.96943" lon="5.18853">
        <ele>655.76</ele>
        <time>2017-04-04T10:47:05Z</time>
      </trkpt>
      <trkpt lat="44.96941" lon="5.18858">
        <ele>655.76</ele>
        <time>2017-04-04T10:47:16Z</time>
      </trkpt>
      <trkpt lat="44.9694" lon="5.18858">
        <ele>655.28</ele>
        <time>2017-04-04T10:47:33Z</time>
      </trkpt>
      <trkpt lat="44.9694" lon="5.18858">
        <ele>656.24</ele>
        <time>2017-04-04T10:47:58Z</time>
      </trkpt>
      <trkpt lat="44.9694" lon="5.18858">
        <ele>656.72</ele>
        <time>2017-04-04T10:48:29Z</time>
      </trkpt>
      <trkpt lat="44.96941" lon="5.18858">
        <ele>656.24</ele>
        <time>2017-04-04T10:48:58Z</time>
      </trkpt>
      <trkpt lat="44.96941" lon="5.18858">
        <ele>656.72</ele>
        <time>2017-04-04T10:49:23Z</time>
      </trkpt>
      <trkpt lat="44.96941" lon="5.18858">
        <ele>657.2</ele>
        <time>2017-04-04T10:49:52Z</time>
      </trkpt>
      <trkpt lat="44.96934" lon="5.18857">
        <ele>655.76</ele>
        <time>2017-04-04T10:50:16Z</time>
      </trkpt>
      <trkpt lat="44.96929" lon="5.18855">
        <ele>654.8</ele>
        <time>2017-04-04T10:50:27Z</time>
      </trkpt>
      <trkpt lat="44.96926" lon="5.18856">
        <ele>654.8</ele>
        <time>2017-04-04T10:50:43Z</time>
      </trkpt>
      <trkpt lat="44.96918" lon="5.18853">
        <ele>653.83</ele>
        <time>2017-04-04T10:50:55Z</time>
      </trkpt>
      <trkpt lat="44.96908" lon="5.18852">
        <ele>653.35</ele>
        <time>2017-04-04T10:51:02Z</time>
      </trkpt>
      <trkpt lat="44.96905" lon="5.18851">
        <ele>652.87</ele>
        <time>2017-04-04T10:51:04Z</time>
      </trkpt>
      <trkpt lat="44.969" lon="5.18845">
        <ele>651.91</ele>
        <time>2017-04-04T10:51:08Z</time>
      </trkpt>
      <trkpt lat="44.96894" lon="5.18843">
        <ele>651.43</ele>
        <time>2017-04-04T10:51:16Z</time>
      </trkpt>
      <trkpt lat="44.9689" lon="5.1884">
        <ele>650.95</ele>
        <time>2017-04-04T10:51:19Z</time>
      </trkpt>
      <trkpt lat="44.96887" lon="5.18833">
        <ele>649.51</ele>
        <time>2017-04-04T10:51:29Z</time>
      </trkpt>
      <trkpt lat="44.96888" lon="5.18833">
        <ele>649.03</ele>
        <time>2017-04-04T10:51:30Z</time>
      </trkpt>
      <trkpt lat="44.96903" lon="5.18822">
        <ele>646.62</ele>
        <time>2017-04-04T10:51:45Z</time>
      </trkpt>
      <trkpt lat="44.96905" lon="5.18819">
        <ele>646.62</ele>
        <time>2017-04-04T10:51:47Z</time>
      </trkpt>
      <trkpt lat="44.96911" lon="5.18809">
        <ele>644.7</ele>
        <time>2017-04-04T10:51:55Z</time>
      </trkpt>
      <trkpt lat="44.96915" lon="5.18804">
        <ele>644.22</ele>
        <time>2017-04-04T10:52:00Z</time>
      </trkpt>
      <trkpt lat="44.96917" lon="5.18796">
        <ele>642.78</ele>
        <time>2017-04-04T10:52:06Z</time>
      </trkpt>
      <trkpt lat="44.9692" lon="5.18786">
        <ele>642.3</ele>
        <time>2017-04-04T10:52:12Z</time>
      </trkpt>
      <trkpt lat="44.96934" lon="5.18779">
        <ele>639.89</ele>
        <time>2017-04-04T10:52:24Z</time>
      </trkpt>
      <trkpt lat="44.9694" lon="5.1878">
        <ele>638.93</ele>
        <time>2017-04-04T10:52:33Z</time>
      </trkpt>
      <trkpt lat="44.9695" lon="5.18786">
        <ele>636.53</ele>
        <time>2017-04-04T10:52:44Z</time>
      </trkpt>
      <trkpt lat="44.96963" lon="5.18786">
        <ele>634.61</ele>
        <time>2017-04-04T10:52:56Z</time>
      </trkpt>
      <trkpt lat="44.96971" lon="5.18789">
        <ele>633.17</ele>
        <time>2017-04-04T10:53:04Z</time>
      </trkpt>
      <trkpt lat="44.96974" lon="5.18786">
        <ele>632.68</ele>
        <time>2017-04-04T10:53:07Z</time>
      </trkpt>
      <trkpt lat="44.96989" lon="5.18779">
        <ele>630.76</ele>
        <time>2017-04-04T10:53:19Z</time>
      </trkpt>
      <trkpt lat="44.97" lon="5.18778">
        <ele>628.84</ele>
        <time>2017-04-04T10:53:30Z</time>
      </trkpt>
      <trkpt lat="44.97014" lon="5.18767">
        <ele>627.4</ele>
        <time>2017-04-04T10:53:44Z</time>
      </trkpt>
      <trkpt lat="44.97016" lon="5.18765">
        <ele>626.44</ele>
        <time>2017-04-04T10:53:47Z</time>
      </trkpt>
      <trkpt lat="44.97025" lon="5.18755">
        <ele>624.03</ele>
        <time>2017-04-04T10:53:58Z</time>
      </trkpt>
      <trkpt lat="44.97028" lon="5.1875">
        <ele>622.59</ele>
        <time>2017-04-04T10:54:06Z</time>
      </trkpt>
      <trkpt lat="44.97036" lon="5.18738">
        <ele>619.23</ele>
        <time>2017-04-04T10:54:17Z</time>
      </trkpt>
      <trkpt lat="44.97045" lon="5.18717">
        <ele>617.3</ele>
        <time>2017-04-04T10:54:29Z</time>
      </trkpt>
      <trkpt lat="44.97046" lon="5.18716">
        <ele>616.82</ele>
        <time>2017-04-04T10:54:34Z</time>
      </trkpt>
      <trkpt lat="44.97043" lon="5.18717">
        <ele>617.3</ele>
        <time>2017-04-04T10:54:46Z</time>
      </trkpt>
      <trkpt lat="44.9704" lon="5.18706">
        <ele>616.34</ele>
        <time>2017-04-04T10:54:56Z</time>
      </trkpt>
      <trkpt lat="44.97026" lon="5.18685">
        <ele>613.94</ele>
        <time>2017-04-04T10:55:11Z</time>
      </trkpt>
      <trkpt lat="44.97023" lon="5.1868">
        <ele>613.46</ele>
        <time>2017-04-04T10:55:14Z</time>
      </trkpt>
      <trkpt lat="44.9701" lon="5.1866">
        <ele>611.54</ele>
        <time>2017-04-04T10:55:26Z</time>
      </trkpt>
      <trkpt lat="44.97003" lon="5.18641">
        <ele>610.09</ele>
        <time>2017-04-04T10:55:37Z</time>
      </trkpt>
      <trkpt lat="44.96999" lon="5.18628">
        <ele>608.65</ele>
        <time>2017-04-04T10:55:44Z</time>
      </trkpt>
      <trkpt lat="44.96994" lon="5.18608">
        <ele>606.25</ele>
        <time>2017-04-04T10:55:57Z</time>
      </trkpt>
      <trkpt lat="44.96996" lon="5.18599">
        <ele>605.77</ele>
        <time>2017-04-04T10:56:02Z</time>
      </trkpt>
      <trkpt lat="44.96997" lon="5.18595">
        <ele>605.29</ele>
        <time>2017-04-04T10:56:04Z</time>
      </trkpt>
      <trkpt lat="44.96996" lon="5.18586">
        <ele>604.81</ele>
        <time>2017-04-04T10:56:09Z</time>
      </trkpt>
      <trkpt lat="44.96995" lon="5.18573">
        <ele>604.33</ele>
        <time>2017-04-04T10:56:17Z</time>
      </trkpt>
      <trkpt lat="44.96995" lon="5.18564">
        <ele>603.85</ele>
        <time>2017-04-04T10:56:21Z</time>
      </trkpt>
      <trkpt lat="44.96991" lon="5.18555">
        <ele>603.85</ele>
        <time>2017-04-04T10:56:26Z</time>
      </trkpt>
      <trkpt lat="44.96981" lon="5.1854">
        <ele>603.36</ele>
        <time>2017-04-04T10:56:38Z</time>
      </trkpt>
      <trkpt lat="44.96975" lon="5.18514">
        <ele>603.85</ele>
        <time>2017-04-04T10:56:51Z</time>
      </trkpt>
      <trkpt lat="44.96975" lon="5.18513">
        <ele>603.85</ele>
        <time>2017-04-04T10:56:52Z</time>
      </trkpt>
      <trkpt lat="44.96974" lon="5.18507">
        <ele>603.85</ele>
        <time>2017-04-04T10:56:55Z</time>
      </trkpt>
      <trkpt lat="44.96971" lon="5.18496">
        <ele>603.85</ele>
        <time>2017-04-04T10:57:01Z</time>
      </trkpt>
      <trkpt lat="44.96969" lon="5.18478">
        <ele>603.36</ele>
        <time>2017-04-04T10:57:12Z</time>
      </trkpt>
      <trkpt lat="44.96956" lon="5.18456">
        <ele>603.36</ele>
        <time>2017-04-04T10:57:25Z</time>
      </trkpt>
      <trkpt lat="44.96955" lon="5.18455">
        <ele>602.88</ele>
        <time>2017-04-04T10:57:26Z</time>
      </trkpt>
      <trkpt lat="44.96946" lon="5.18436">
        <ele>602.88</ele>
        <time>2017-04-04T10:57:38Z</time>
      </trkpt>
      <trkpt lat="44.96939" lon="5.18428">
        <ele>602.4</ele>
        <time>2017-04-04T10:57:43Z</time>
      </trkpt>
      <trkpt lat="44.96934" lon="5.18422">
        <ele>601.92</ele>
        <time>2017-04-04T10:57:49Z</time>
      </trkpt>
      <trkpt lat="44.96921" lon="5.18416">
        <ele>599.52</ele>
        <time>2017-04-04T10:58:00Z</time>
      </trkpt>
      <trkpt lat="44.96917" lon="5.18415">
        <ele>599.04</ele>
        <time>2017-04-04T10:58:05Z</time>
      </trkpt>
      <trkpt lat="44.96913" lon="5.18416">
        <ele>598.56</ele>
        <time>2017-04-04T10:58:07Z</time>
      </trkpt>
      <trkpt lat="44.96907" lon="5.18422">
        <ele>597.6</ele>
        <time>2017-04-04T10:58:11Z</time>
      </trkpt>
      <trkpt lat="44.96895" lon="5.18436">
        <ele>595.67</ele>
        <time>2017-04-04T10:58:22Z</time>
      </trkpt>
      <trkpt lat="44.96887" lon="5.1844">
        <ele>594.71</ele>
        <time>2017-04-04T10:58:28Z</time>
      </trkpt>
      <trkpt lat="44.96877" lon="5.18447">
        <ele>592.31</ele>
        <time>2017-04-04T10:58:38Z</time>
      </trkpt>
      <trkpt lat="44.96863" lon="5.18452">
        <ele>590.87</ele>
        <time>2017-04-04T10:58:53Z</time>
      </trkpt>
      <trkpt lat="44.96851" lon="5.1846">
        <ele>587.98</ele>
        <time>2017-04-04T10:59:05Z</time>
      </trkpt>
      <trkpt lat="44.96839" lon="5.18468">
        <ele>585.1</ele>
        <time>2017-04-04T10:59:17Z</time>
      </trkpt>
      <trkpt lat="44.96831" lon="5.18474">
        <ele>583.66</ele>
        <time>2017-04-04T10:59:25Z</time>
      </trkpt>
      <trkpt lat="44.96819" lon="5.18478">
        <ele>580.29</ele>
        <time>2017-04-04T10:59:35Z</time>
      </trkpt>
      <trkpt lat="44.96813" lon="5.18479">
        <ele>579.33</ele>
        <time>2017-04-04T10:59:39Z</time>
      </trkpt>
      <trkpt lat="44.96805" lon="5.18478">
        <ele>577.41</ele>
        <time>2017-04-04T10:59:47Z</time>
      </trkpt>
      <trkpt lat="44.968" lon="5.18477">
        <ele>576.93</ele>
        <time>2017-04-04T10:59:51Z</time>
      </trkpt>
      <trkpt lat="44.96792" lon="5.18471">
        <ele>575.49</ele>
        <time>2017-04-04T10:59:59Z</time>
      </trkpt>
      <trkpt lat="44.96781" lon="5.18463">
        <ele>573.56</ele>
        <time>2017-04-04T11:00:10Z</time>
      </trkpt>
      <trkpt lat="44.9678" lon="5.18463">
        <ele>573.56</ele>
        <time>2017-04-04T11:00:11Z</time>
      </trkpt>
      <trkpt lat="44.96777" lon="5.1846">
        <ele>571.64</ele>
        <time>2017-04-04T11:00:14Z</time>
      </trkpt>
      <trkpt lat="44.96767" lon="5.18448">
        <ele>570.2</ele>
        <time>2017-04-04T11:00:26Z</time>
      </trkpt>
      <trkpt lat="44.96754" lon="5.18443">
        <ele>567.8</ele>
        <time>2017-04-04T11:00:36Z</time>
      </trkpt>
      <trkpt lat="44.96751" lon="5.18441">
        <ele>567.32</ele>
        <time>2017-04-04T11:00:39Z</time>
      </trkpt>
      <trkpt lat="44.96746" lon="5.18439">
        <ele>566.83</ele>
        <time>2017-04-04T11:00:43Z</time>
      </trkpt>
      <trkpt lat="44.96738" lon="5.18432">
        <ele>565.39</ele>
        <time>2017-04-04T11:00:51Z</time>
      </trkpt>
      <trkpt lat="44.96736" lon="5.18429">
        <ele>563.95</ele>
        <time>2017-04-04T11:01:03Z</time>
      </trkpt>
      <trkpt lat="44.96737" lon="5.18428">
        <ele>564.43</ele>
        <time>2017-04-04T11:01:32Z</time>
      </trkpt>
      <trkpt lat="44.96736" lon="5.18427">
        <ele>564.43</ele>
        <time>2017-04-04T11:01:37Z</time>
      </trkpt>
      <trkpt lat="44.96735" lon="5.18424">
        <ele>564.43</ele>
        <time>2017-04-04T11:01:45Z</time>
      </trkpt>
      <trkpt lat="44.96734" lon="5.18417">
        <ele>563.95</ele>
        <time>2017-04-04T11:01:50Z</time>
      </trkpt>
      <trkpt lat="44.96732" lon="5.1841">
        <ele>563.47</ele>
        <time>2017-04-04T11:01:56Z</time>
      </trkpt>
      <trkpt lat="44.96726" lon="5.18391">
        <ele>562.51</ele>
        <time>2017-04-04T11:02:07Z</time>
      </trkpt>
      <trkpt lat="44.96726" lon="5.1839">
        <ele>562.51</ele>
        <time>2017-04-04T11:02:08Z</time>
      </trkpt>
      <trkpt lat="44.96724" lon="5.18374">
        <ele>560.59</ele>
        <time>2017-04-04T11:02:16Z</time>
      </trkpt>
      <trkpt lat="44.96722" lon="5.18369">
        <ele>559.62</ele>
        <time>2017-04-04T11:02:20Z</time>
      </trkpt>
      <trkpt lat="44.96721" lon="5.18365">
        <ele>560.59</ele>
        <time>2017-04-04T11:02:23Z</time>
      </trkpt>
      <trkpt lat="44.96715" lon="5.18353">
        <ele>559.14</ele>
        <time>2017-04-04T11:02:31Z</time>
      </trkpt>
      <trkpt lat="44.96706" lon="5.18337">
        <ele>559.14</ele>
        <time>2017-04-04T11:02:43Z</time>
      </trkpt>
      <trkpt lat="44.96699" lon="5.18325">
        <ele>556.74</ele>
        <time>2017-04-04T11:02:52Z</time>
      </trkpt>
      <trkpt lat="44.96691" lon="5.18312">
        <ele>557.22</ele>
        <time>2017-04-04T11:03:00Z</time>
      </trkpt>
      <trkpt lat="44.96687" lon="5.18308">
        <ele>555.3</ele>
        <time>2017-04-04T11:03:04Z</time>
      </trkpt>
      <trkpt lat="44.96686" lon="5.18305">
        <ele>555.3</ele>
        <time>2017-04-04T11:03:06Z</time>
      </trkpt>
      <trkpt lat="44.96676" lon="5.18285">
        <ele>552.41</ele>
        <time>2017-04-04T11:03:19Z</time>
      </trkpt>
      <trkpt lat="44.96676" lon="5.18285">
        <ele>552.41</ele>
        <time>2017-04-04T11:03:20Z</time>
      </trkpt>
      <trkpt lat="44.96673" lon="5.1828">
        <ele>551.93</ele>
        <time>2017-04-04T11:03:23Z</time>
      </trkpt>
      <trkpt lat="44.9667" lon="5.18271">
        <ele>550.49</ele>
        <time>2017-04-04T11:03:28Z</time>
      </trkpt>
      <trkpt lat="44.96664" lon="5.18262">
        <ele>549.05</ele>
        <time>2017-04-04T11:03:35Z</time>
      </trkpt>
      <trkpt lat="44.96654" lon="5.18257">
        <ele>547.13</ele>
        <time>2017-04-04T11:03:42Z</time>
      </trkpt>
      <trkpt lat="44.96649" lon="5.18243">
        <ele>546.17</ele>
        <time>2017-04-04T11:03:48Z</time>
      </trkpt>
      <trkpt lat="44.96649" lon="5.18241">
        <ele>545.2</ele>
        <time>2017-04-04T11:03:52Z</time>
      </trkpt>
      <trkpt lat="44.96654" lon="5.18241">
        <ele>542.32</ele>
        <time>2017-04-04T11:03:57Z</time>
      </trkpt>
      <trkpt lat="44.96654" lon="5.18241">
        <ele>542.32</ele>
        <time>2017-04-04T11:03:58Z</time>
      </trkpt>
      <trkpt lat="44.96655" lon="5.18241">
        <ele>541.84</ele>
        <time>2017-04-04T11:03:59Z</time>
      </trkpt>
      <trkpt lat="44.96666" lon="5.18231">
        <ele>540.4</ele>
        <time>2017-04-04T11:04:09Z</time>
      </trkpt>
      <trkpt lat="44.96668" lon="5.18211">
        <ele>537.99</ele>
        <time>2017-04-04T11:04:21Z</time>
      </trkpt>
      <trkpt lat="44.96663" lon="5.18203">
        <ele>536.55</ele>
        <time>2017-04-04T11:04:26Z</time>
      </trkpt>
      <trkpt lat="44.96653" lon="5.18189">
        <ele>534.15</ele>
        <time>2017-04-04T11:04:36Z</time>
      </trkpt>
      <trkpt lat="44.96653" lon="5.18187">
        <ele>533.19</ele>
        <time>2017-04-04T11:04:39Z</time>
      </trkpt>
      <trkpt lat="44.96649" lon="5.18181">
        <ele>532.23</ele>
        <time>2017-04-04T11:04:45Z</time>
      </trkpt>
      <trkpt lat="44.96647" lon="5.18175">
        <ele>531.75</ele>
        <time>2017-04-04T11:04:49Z</time>
      </trkpt>
      <trkpt lat="44.96644" lon="5.18159">
        <ele>528.86</ele>
        <time>2017-04-04T11:05:00Z</time>
      </trkpt>
      <trkpt lat="44.96642" lon="5.18152">
        <ele>527.42</ele>
        <time>2017-04-04T11:05:05Z</time>
      </trkpt>
      <trkpt lat="44.96637" lon="5.18145">
        <ele>525.5</ele>
        <time>2017-04-04T11:05:12Z</time>
      </trkpt>
      <trkpt lat="44.96635" lon="5.18135">
        <ele>524.06</ele>
        <time>2017-04-04T11:05:17Z</time>
      </trkpt>
      <trkpt lat="44.96633" lon="5.18125">
        <ele>523.09</ele>
        <time>2017-04-04T11:05:23Z</time>
      </trkpt>
      <trkpt lat="44.96632" lon="5.18123">
        <ele>522.61</ele>
        <time>2017-04-04T11:05:25Z</time>
      </trkpt>
      <trkpt lat="44.96628" lon="5.18108">
        <ele>520.21</ele>
        <time>2017-04-04T11:05:36Z</time>
      </trkpt>
      <trkpt lat="44.96626" lon="5.18103">
        <ele>519.73</ele>
        <time>2017-04-04T11:05:40Z</time>
      </trkpt>
      <trkpt lat="44.96624" lon="5.18086">
        <ele>517.33</ele>
        <time>2017-04-04T11:05:51Z</time>
      </trkpt>
      <trkpt lat="44.96624" lon="5.18084">
        <ele>516.85</ele>
        <time>2017-04-04T11:05:52Z</time>
      </trkpt>
      <trkpt lat="44.9662" lon="5.18065">
        <ele>514.44</ele>
        <time>2017-04-04T11:06:02Z</time>
      </trkpt>
      <trkpt lat="44.9662" lon="5.18063">
        <ele>513.96</ele>
        <time>2017-04-04T11:06:04Z</time>
      </trkpt>
      <trkpt lat="44.96608" lon="5.1805">
        <ele>511.56</ele>
        <time>2017-04-04T11:06:16Z</time>
      </trkpt>
      <trkpt lat="44.96608" lon="5.18048">
        <ele>511.56</ele>
        <time>2017-04-04T11:06:31Z</time>
      </trkpt>
      <trkpt lat="44.96608" lon="5.18046">
        <ele>511.08</ele>
        <time>2017-04-04T11:06:34Z</time>
      </trkpt>
      <trkpt lat="44.96606" lon="5.18043">
        <ele>510.12</ele>
        <time>2017-04-04T11:06:36Z</time>
      </trkpt>
      <trkpt lat="44.96606" lon="5.1804">
        <ele>509.16</ele>
        <time>2017-04-04T11:06:38Z</time>
      </trkpt>
      <trkpt lat="44.96606" lon="5.18037">
        <ele>508.67</ele>
        <time>2017-04-04T11:06:41Z</time>
      </trkpt>
      <trkpt lat="44.96603" lon="5.18034">
        <ele>507.71</ele>
        <time>2017-04-04T11:06:44Z</time>
      </trkpt>
      <trkpt lat="44.96599" lon="5.18026">
        <ele>504.35</ele>
        <time>2017-04-04T11:06:54Z</time>
      </trkpt>
      <trkpt lat="44.96599" lon="5.18025">
        <ele>503.39</ele>
        <time>2017-04-04T11:06:56Z</time>
      </trkpt>
      <trkpt lat="44.966" lon="5.18018">
        <ele>500.02</ele>
        <time>2017-04-04T11:07:04Z</time>
      </trkpt>
      <trkpt lat="44.96599" lon="5.18011">
        <ele>497.14</ele>
        <time>2017-04-04T11:07:12Z</time>
      </trkpt>
      <trkpt lat="44.96596" lon="5.18002">
        <ele>494.74</ele>
        <time>2017-04-04T11:07:20Z</time>
      </trkpt>
      <trkpt lat="44.96591" lon="5.17993">
        <ele>494.26</ele>
        <time>2017-04-04T11:07:27Z</time>
      </trkpt>
      <trkpt lat="44.96586" lon="5.17987">
        <ele>493.77</ele>
        <time>2017-04-04T11:07:32Z</time>
      </trkpt>
      <trkpt lat="44.96593" lon="5.17977">
        <ele>492.33</ele>
        <time>2017-04-04T11:07:40Z</time>
      </trkpt>
      <trkpt lat="44.9659" lon="5.17977">
        <ele>491.85</ele>
        <time>2017-04-04T11:07:53Z</time>
      </trkpt>
      <trkpt lat="44.9659" lon="5.17977">
        <ele>491.85</ele>
        <time>2017-04-04T11:08:16Z</time>
      </trkpt>
      <trkpt lat="44.96589" lon="5.17976">
        <ele>491.85</ele>
        <time>2017-04-04T11:08:19Z</time>
      </trkpt>
      <trkpt lat="44.96591" lon="5.17967">
        <ele>491.85</ele>
        <time>2017-04-04T11:08:23Z</time>
      </trkpt>
      <trkpt lat="44.96589" lon="5.17946">
        <ele>490.89</ele>
        <time>2017-04-04T11:08:34Z</time>
      </trkpt>
      <trkpt lat="44.96589" lon="5.17943">
        <ele>490.41</ele>
        <time>2017-04-04T11:08:37Z</time>
      </trkpt>
      <trkpt lat="44.96591" lon="5.17918">
        <ele>489.45</ele>
        <time>2017-04-04T11:08:49Z</time>
      </trkpt>
      <trkpt lat="44.96591" lon="5.17915">
        <ele>489.45</ele>
        <time>2017-04-04T11:08:50Z</time>
      </trkpt>
      <trkpt lat="44.96585" lon="5.17895">
        <ele>488.49</ele>
        <time>2017-04-04T11:09:01Z</time>
      </trkpt>
      <trkpt lat="44.96583" lon="5.17886">
        <ele>488.01</ele>
        <time>2017-04-04T11:09:05Z</time>
      </trkpt>
      <trkpt lat="44.96582" lon="5.17881">
        <ele>487.53</ele>
        <time>2017-04-04T11:09:09Z</time>
      </trkpt>
      <trkpt lat="44.96583" lon="5.17878">
        <ele>487.05</ele>
        <time>2017-04-04T11:09:11Z</time>
      </trkpt>
      <trkpt lat="44.96584" lon="5.1787">
        <ele>486.56</ele>
        <time>2017-04-04T11:09:15Z</time>
      </trkpt>
      <trkpt lat="44.96583" lon="5.1785">
        <ele>484.16</ele>
        <time>2017-04-04T11:09:27Z</time>
      </trkpt>
      <trkpt lat="44.96582" lon="5.17841">
        <ele>483.2</ele>
        <time>2017-04-04T11:09:31Z</time>
      </trkpt>
      <trkpt lat="44.9658" lon="5.17831">
        <ele>481.76</ele>
        <time>2017-04-04T11:09:36Z</time>
      </trkpt>
      <trkpt lat="44.9658" lon="5.17827">
        <ele>481.28</ele>
        <time>2017-04-04T11:09:48Z</time>
      </trkpt>
      <trkpt lat="44.9658" lon="5.17825">
        <ele>480.8</ele>
        <time>2017-04-04T11:09:51Z</time>
      </trkpt>
      <trkpt lat="44.96577" lon="5.17822">
        <ele>480.32</ele>
        <time>2017-04-04T11:09:54Z</time>
      </trkpt>
      <trkpt lat="44.96576" lon="5.17818">
        <ele>479.35</ele>
        <time>2017-04-04T11:10:00Z</time>
      </trkpt>
      <trkpt lat="44.96572" lon="5.17812">
        <ele>478.87</ele>
        <time>2017-04-04T11:10:04Z</time>
      </trkpt>
      <trkpt lat="44.96568" lon="5.17801">
        <ele>476.47</ele>
        <time>2017-04-04T11:10:14Z</time>
      </trkpt>
      <trkpt lat="44.96564" lon="5.17787">
        <ele>475.51</ele>
        <time>2017-04-04T11:10:23Z</time>
      </trkpt>
      <trkpt lat="44.96563" lon="5.17772">
        <ele>474.55</ele>
        <time>2017-04-04T11:10:34Z</time>
      </trkpt>
      <trkpt lat="44.96563" lon="5.17772">
        <ele>474.07</ele>
        <time>2017-04-04T11:10:35Z</time>
      </trkpt>
      <trkpt lat="44.96566" lon="5.17758">
        <ele>472.14</ele>
        <time>2017-04-04T11:10:47Z</time>
      </trkpt>
      <trkpt lat="44.96581" lon="5.17745">
        <ele>470.22</ele>
        <time>2017-04-04T11:11:01Z</time>
      </trkpt>
      <trkpt lat="44.96584" lon="5.17744">
        <ele>469.74</ele>
        <time>2017-04-04T11:11:05Z</time>
      </trkpt>
      <trkpt lat="44.96587" lon="5.17743">
        <ele>469.74</ele>
        <time>2017-04-04T11:11:08Z</time>
      </trkpt>
      <trkpt lat="44.96591" lon="5.1774">
        <ele>469.26</ele>
        <time>2017-04-04T11:11:11Z</time>
      </trkpt>
      <trkpt lat="44.96597" lon="5.17736">
        <ele>469.26</ele>
        <time>2017-04-04T11:11:17Z</time>
      </trkpt>
      <trkpt lat="44.96601" lon="5.17732">
        <ele>469.26</ele>
        <time>2017-04-04T11:11:21Z</time>
      </trkpt>
      <trkpt lat="44.96603" lon="5.17731">
        <ele>469.26</ele>
        <time>2017-04-04T11:11:23Z</time>
      </trkpt>
      <trkpt lat="44.9661" lon="5.17722">
        <ele>468.78</ele>
        <time>2017-04-04T11:11:29Z</time>
      </trkpt>
      <trkpt lat="44.9662" lon="5.17696">
        <ele>468.3</ele>
        <time>2017-04-04T11:11:41Z</time>
      </trkpt>
      <trkpt lat="44.96621" lon="5.17687">
        <ele>467.82</ele>
        <time>2017-04-04T11:11:50Z</time>
      </trkpt>
      <trkpt lat="44.96628" lon="5.17684">
        <ele>468.3</ele>
        <time>2017-04-04T11:11:55Z</time>
      </trkpt>
      <trkpt lat="44.96633" lon="5.17684">
        <ele>468.3</ele>
        <time>2017-04-04T11:12:00Z</time>
      </trkpt>
      <trkpt lat="44.96649" lon="5.17685">
        <ele>468.78</ele>
        <time>2017-04-04T11:12:10Z</time>
      </trkpt>
      <trkpt lat="44.96653" lon="5.17685">
        <ele>468.78</ele>
        <time>2017-04-04T11:12:14Z</time>
      </trkpt>
      <trkpt lat="44.96655" lon="5.17689">
        <ele>469.26</ele>
        <time>2017-04-04T11:12:17Z</time>
      </trkpt>
      <trkpt lat="44.96661" lon="5.17693">
        <ele>469.74</ele>
        <time>2017-04-04T11:12:29Z</time>
      </trkpt>
      <trkpt lat="44.96661" lon="5.17693">
        <ele>469.74</ele>
        <time>2017-04-04T11:12:54Z</time>
      </trkpt>
      <trkpt lat="44.96661" lon="5.17693">
        <ele>469.74</ele>
        <time>2017-04-04T11:13:03Z</time>
      </trkpt>
      <trkpt lat="44.96651" lon="5.17679">
        <ele>469.26</ele>
        <time>2017-04-04T11:13:14Z</time>
      </trkpt>
      <trkpt lat="44.96649" lon="5.17678">
        <ele>468.78</ele>
        <time>2017-04-04T11:13:15Z</time>
      </trkpt>
      <trkpt lat="44.96641" lon="5.17675">
        <ele>468.78</ele>
        <time>2017-04-04T11:13:21Z</time>
      </trkpt>
      <trkpt lat="44.96634" lon="5.17678">
        <ele>468.78</ele>
        <time>2017-04-04T11:13:27Z</time>
      </trkpt>
      <trkpt lat="44.96627" lon="5.17678">
        <ele>467.82</ele>
        <time>2017-04-04T11:13:31Z</time>
      </trkpt>
      <trkpt lat="44.96621" lon="5.17669">
        <ele>468.3</ele>
        <time>2017-04-04T11:13:40Z</time>
      </trkpt>
      <trkpt lat="44.96622" lon="5.17664">
        <ele>468.3</ele>
        <time>2017-04-04T11:13:43Z</time>
      </trkpt>
      <trkpt lat="44.96627" lon="5.17652">
        <ele>470.7</ele>
        <time>2017-04-04T11:13:55Z</time>
      </trkpt>
      <trkpt lat="44.96629" lon="5.17651">
        <ele>471.18</ele>
        <time>2017-04-04T11:13:57Z</time>
      </trkpt>
      <trkpt lat="44.96634" lon="5.17647">
        <ele>472.63</ele>
        <time>2017-04-04T11:14:03Z</time>
      </trkpt>
      <trkpt lat="44.96639" lon="5.17645">
        <ele>473.59</ele>
        <time>2017-04-04T11:14:13Z</time>
      </trkpt>
      <trkpt lat="44.9664" lon="5.17642">
        <ele>474.55</ele>
        <time>2017-04-04T11:14:16Z</time>
      </trkpt>
      <trkpt lat="44.96642" lon="5.17641">
        <ele>475.51</ele>
        <time>2017-04-04T11:14:18Z</time>
      </trkpt>
      <trkpt lat="44.96642" lon="5.17641">
        <ele>475.51</ele>
        <time>2017-04-04T11:14:20Z</time>
      </trkpt>
      <trkpt lat="44.96651" lon="5.17633">
        <ele>476.95</ele>
        <time>2017-04-04T11:14:31Z</time>
      </trkpt>
      <trkpt lat="44.96652" lon="5.17632">
        <ele>476.95</ele>
        <time>2017-04-04T11:14:38Z</time>
      </trkpt>
      <trkpt lat="44.96654" lon="5.17629">
        <ele>477.43</ele>
        <time>2017-04-04T11:14:40Z</time>
      </trkpt>
      <trkpt lat="44.96656" lon="5.17624">
        <ele>477.91</ele>
        <time>2017-04-04T11:14:44Z</time>
      </trkpt>
      <trkpt lat="44.96664" lon="5.1761">
        <ele>478.39</ele>
        <time>2017-04-04T11:14:53Z</time>
      </trkpt>
      <trkpt lat="44.96665" lon="5.17603">
        <ele>478.39</ele>
        <time>2017-04-04T11:14:58Z</time>
      </trkpt>
      <trkpt lat="44.9667" lon="5.17595">
        <ele>479.35</ele>
        <time>2017-04-04T11:15:02Z</time>
      </trkpt>
      <trkpt lat="44.96673" lon="5.17586">
        <ele>479.35</ele>
        <time>2017-04-04T11:15:06Z</time>
      </trkpt>
      <trkpt lat="44.9668" lon="5.17568">
        <ele>480.32</ele>
        <time>2017-04-04T11:15:18Z</time>
      </trkpt>
      <trkpt lat="44.96685" lon="5.17557">
        <ele>480.8</ele>
        <time>2017-04-04T11:15:25Z</time>
      </trkpt>
      <trkpt lat="44.96686" lon="5.17553">
        <ele>481.28</ele>
        <time>2017-04-04T11:15:27Z</time>
      </trkpt>
      <trkpt lat="44.96691" lon="5.17535">
        <ele>482.72</ele>
        <time>2017-04-04T11:15:39Z</time>
      </trkpt>
      <trkpt lat="44.96697" lon="5.17525">
        <ele>483.2</ele>
        <time>2017-04-04T11:15:46Z</time>
      </trkpt>
      <trkpt lat="44.967" lon="5.17518">
        <ele>483.68</ele>
        <time>2017-04-04T11:15:52Z</time>
      </trkpt>
      <trkpt lat="44.96707" lon="5.17504">
        <ele>485.12</ele>
        <time>2017-04-04T11:16:01Z</time>
      </trkpt>
      <trkpt lat="44.96711" lon="5.17497">
        <ele>486.08</ele>
        <time>2017-04-04T11:16:15Z</time>
      </trkpt>
      <trkpt lat="44.96712" lon="5.17502">
        <ele>485.12</ele>
        <time>2017-04-04T11:16:24Z</time>
      </trkpt>
      <trkpt lat="44.96712" lon="5.17504">
        <ele>483.2</ele>
        <time>2017-04-04T11:16:27Z</time>
      </trkpt>
      <trkpt lat="44.9672" lon="5.17509">
        <ele>480.8</ele>
        <time>2017-04-04T11:16:37Z</time>
      </trkpt>
      <trkpt lat="44.9672" lon="5.17509">
        <ele>480.8</ele>
        <time>2017-04-04T11:16:57Z</time>
      </trkpt>
      <trkpt lat="44.96721" lon="5.17506">
        <ele>480.8</ele>
        <time>2017-04-04T11:17:14Z</time>
      </trkpt>
      <trkpt lat="44.96719" lon="5.17503">
        <ele>483.2</ele>
        <time>2017-04-04T11:17:22Z</time>
      </trkpt>
      <trkpt lat="44.9671" lon="5.175">
        <ele>485.12</ele>
        <time>2017-04-04T11:17:31Z</time>
      </trkpt>
      <trkpt lat="44.96708" lon="5.17497">
        <ele>486.08</ele>
        <time>2017-04-04T11:17:44Z</time>
      </trkpt>
      <trkpt lat="44.96708" lon="5.17497">
        <ele>486.08</ele>
        <time>2017-04-04T11:17:52Z</time>
      </trkpt>
      <trkpt lat="44.96715" lon="5.17482">
        <ele>487.53</ele>
        <time>2017-04-04T11:18:03Z</time>
      </trkpt>
      <trkpt lat="44.96722" lon="5.17467">
        <ele>488.97</ele>
        <time>2017-04-04T11:18:15Z</time>
      </trkpt>
      <trkpt lat="44.96722" lon="5.17466">
        <ele>488.97</ele>
        <time>2017-04-04T11:18:16Z</time>
      </trkpt>
      <trkpt lat="44.96725" lon="5.17455">
        <ele>489.93</ele>
        <time>2017-04-04T11:18:22Z</time>
      </trkpt>
      <trkpt lat="44.96728" lon="5.17442">
        <ele>490.41</ele>
        <time>2017-04-04T11:18:31Z</time>
      </trkpt>
      <trkpt lat="44.96731" lon="5.1744">
        <ele>490.41</ele>
        <time>2017-04-04T11:18:44Z</time>
      </trkpt>
      <trkpt lat="44.96731" lon="5.17439">
        <ele>491.37</ele>
        <time>2017-04-04T11:19:15Z</time>
      </trkpt>
      <trkpt lat="44.96731" lon="5.17439">
        <ele>491.37</ele>
        <time>2017-04-04T11:19:17Z</time>
      </trkpt>
      <trkpt lat="44.96731" lon="5.17435">
        <ele>491.37</ele>
        <time>2017-04-04T11:19:20Z</time>
      </trkpt>
      <trkpt lat="44.96733" lon="5.17424">
        <ele>491.85</ele>
        <time>2017-04-04T11:19:25Z</time>
      </trkpt>
      <trkpt lat="44.96737" lon="5.17396">
        <ele>492.33</ele>
        <time>2017-04-04T11:19:40Z</time>
      </trkpt>
      <trkpt lat="44.96739" lon="5.17382">
        <ele>493.29</ele>
        <time>2017-04-04T11:19:48Z</time>
      </trkpt>
      <trkpt lat="44.96732" lon="5.1736">
        <ele>494.74</ele>
        <time>2017-04-04T11:20:01Z</time>
      </trkpt>
      <trkpt lat="44.96724" lon="5.17347">
        <ele>495.7</ele>
        <time>2017-04-04T11:20:11Z</time>
      </trkpt>
      <trkpt lat="44.96715" lon="5.17336">
        <ele>496.18</ele>
        <time>2017-04-04T11:20:22Z</time>
      </trkpt>
      <trkpt lat="44.96702" lon="5.17314">
        <ele>498.1</ele>
        <time>2017-04-04T11:20:37Z</time>
      </trkpt>
      <trkpt lat="44.96688" lon="5.17298">
        <ele>500.02</ele>
        <time>2017-04-04T11:20:50Z</time>
      </trkpt>
      <trkpt lat="44.96682" lon="5.17289">
        <ele>499.54</ele>
        <time>2017-04-04T11:20:55Z</time>
      </trkpt>
      <trkpt lat="44.96682" lon="5.17278">
        <ele>499.54</ele>
        <time>2017-04-04T11:21:01Z</time>
      </trkpt>
      <trkpt lat="44.96683" lon="5.17267">
        <ele>500.5</ele>
        <time>2017-04-04T11:21:10Z</time>
      </trkpt>
      <trkpt lat="44.96694" lon="5.17249">
        <ele>501.46</ele>
        <time>2017-04-04T11:21:22Z</time>
      </trkpt>
      <trkpt lat="44.96696" lon="5.1724">
        <ele>501.46</ele>
        <time>2017-04-04T11:21:29Z</time>
      </trkpt>
      <trkpt lat="44.96698" lon="5.17236">
        <ele>501.46</ele>
        <time>2017-04-04T11:21:32Z</time>
      </trkpt>
      <trkpt lat="44.96703" lon="5.17216">
        <ele>502.43</ele>
        <time>2017-04-04T11:21:43Z</time>
      </trkpt>
      <trkpt lat="44.9671" lon="5.17205">
        <ele>503.39</ele>
        <time>2017-04-04T11:21:51Z</time>
      </trkpt>
      <trkpt lat="44.96712" lon="5.17202">
        <ele>503.87</ele>
        <time>2017-04-04T11:21:53Z</time>
      </trkpt>
      <trkpt lat="44.9672" lon="5.172">
        <ele>503.87</ele>
        <time>2017-04-04T11:21:59Z</time>
      </trkpt>
      <trkpt lat="44.96729" lon="5.17208">
        <ele>505.31</ele>
        <time>2017-04-04T11:22:09Z</time>
      </trkpt>
      <trkpt lat="44.96733" lon="5.17214">
        <ele>506.27</ele>
        <time>2017-04-04T11:22:14Z</time>
      </trkpt>
      <trkpt lat="44.96734" lon="5.17217">
        <ele>506.75</ele>
        <time>2017-04-04T11:22:17Z</time>
      </trkpt>
      <trkpt lat="44.96737" lon="5.1722">
        <ele>507.23</ele>
        <time>2017-04-04T11:22:20Z</time>
      </trkpt>
      <trkpt lat="44.96751" lon="5.17225">
        <ele>509.16</ele>
        <time>2017-04-04T11:22:32Z</time>
      </trkpt>
      <trkpt lat="44.96752" lon="5.17226">
        <ele>508.67</ele>
        <time>2017-04-04T11:22:34Z</time>
      </trkpt>
      <trkpt lat="44.96763" lon="5.1722">
        <ele>509.64</ele>
        <time>2017-04-04T11:22:43Z</time>
      </trkpt>
      <trkpt lat="44.96766" lon="5.17214">
        <ele>509.64</ele>
        <time>2017-04-04T11:22:55Z</time>
      </trkpt>
      <trkpt lat="44.96765" lon="5.17212">
        <ele>509.16</ele>
        <time>2017-04-04T11:23:08Z</time>
      </trkpt>
      <trkpt lat="44.96768" lon="5.17201">
        <ele>509.64</ele>
        <time>2017-04-04T11:23:19Z</time>
      </trkpt>
      <trkpt lat="44.9677" lon="5.17199">
        <ele>510.12</ele>
        <time>2017-04-04T11:23:31Z</time>
      </trkpt>
      <trkpt lat="44.96772" lon="5.17195">
        <ele>511.08</ele>
        <time>2017-04-04T11:23:38Z</time>
      </trkpt>
      <trkpt lat="44.96774" lon="5.17191">
        <ele>511.56</ele>
        <time>2017-04-04T11:23:40Z</time>
      </trkpt>
      <trkpt lat="44.96783" lon="5.1718">
        <ele>512.52</ele>
        <time>2017-04-04T11:23:46Z</time>
      </trkpt>
      <trkpt lat="44.96788" lon="5.17174">
        <ele>513</ele>
        <time>2017-04-04T11:23:50Z</time>
      </trkpt>
      <trkpt lat="44.96806" lon="5.17167">
        <ele>515.4</ele>
        <time>2017-04-04T11:24:04Z</time>
      </trkpt>
      <trkpt lat="44.96824" lon="5.1716">
        <ele>517.33</ele>
        <time>2017-04-04T11:24:17Z</time>
      </trkpt>
      <trkpt lat="44.96826" lon="5.17159">
        <ele>516.85</ele>
        <time>2017-04-04T11:24:19Z</time>
      </trkpt>
      <trkpt lat="44.96838" lon="5.17149">
        <ele>517.81</ele>
        <time>2017-04-04T11:24:29Z</time>
      </trkpt>
      <trkpt lat="44.96839" lon="5.1715">
        <ele>518.29</ele>
        <time>2017-04-04T11:24:35Z</time>
      </trkpt>
      <trkpt lat="44.96844" lon="5.17149">
        <ele>518.77</ele>
        <time>2017-04-04T11:24:40Z</time>
      </trkpt>
      <trkpt lat="44.96846" lon="5.17148">
        <ele>518.77</ele>
        <time>2017-04-04T11:24:42Z</time>
      </trkpt>
      <trkpt lat="44.96851" lon="5.17145">
        <ele>519.25</ele>
        <time>2017-04-04T11:24:46Z</time>
      </trkpt>
      <trkpt lat="44.96857" lon="5.17143">
        <ele>519.73</ele>
        <time>2017-04-04T11:24:52Z</time>
      </trkpt>
      <trkpt lat="44.96863" lon="5.1714">
        <ele>520.21</ele>
        <time>2017-04-04T11:24:58Z</time>
      </trkpt>
      <trkpt lat="44.96876" lon="5.17134">
        <ele>521.65</ele>
        <time>2017-04-04T11:25:09Z</time>
      </trkpt>
      <trkpt lat="44.96889" lon="5.17132">
        <ele>522.61</ele>
        <time>2017-04-04T11:25:21Z</time>
      </trkpt>
      <trkpt lat="44.96893" lon="5.17133">
        <ele>523.09</ele>
        <time>2017-04-04T11:25:27Z</time>
      </trkpt>
      <trkpt lat="44.96897" lon="5.17132">
        <ele>524.06</ele>
        <time>2017-04-04T11:25:32Z</time>
      </trkpt>
      <trkpt lat="44.96901" lon="5.17132">
        <ele>524.06</ele>
        <time>2017-04-04T11:25:36Z</time>
      </trkpt>
      <trkpt lat="44.96915" lon="5.17131">
        <ele>525.02</ele>
        <time>2017-04-04T11:25:48Z</time>
      </trkpt>
      <trkpt lat="44.96921" lon="5.17131">
        <ele>525.5</ele>
        <time>2017-04-04T11:25:54Z</time>
      </trkpt>
      <trkpt lat="44.96925" lon="5.17133">
        <ele>525.98</ele>
        <time>2017-04-04T11:25:57Z</time>
      </trkpt>
      <trkpt lat="44.9693" lon="5.17134">
        <ele>526.46</ele>
        <time>2017-04-04T11:26:01Z</time>
      </trkpt>
      <trkpt lat="44.96942" lon="5.17134">
        <ele>526.94</ele>
        <time>2017-04-04T11:26:09Z</time>
      </trkpt>
      <trkpt lat="44.96955" lon="5.17135">
        <ele>527.9</ele>
        <time>2017-04-04T11:26:18Z</time>
      </trkpt>
      <trkpt lat="44.96963" lon="5.1714">
        <ele>527.9</ele>
        <time>2017-04-04T11:26:25Z</time>
      </trkpt>
      <trkpt lat="44.96978" lon="5.17143">
        <ele>529.34</ele>
        <time>2017-04-04T11:26:37Z</time>
      </trkpt>
      <trkpt lat="44.96981" lon="5.17142">
        <ele>529.82</ele>
        <time>2017-04-04T11:26:44Z</time>
      </trkpt>
      <trkpt lat="44.96981" lon="5.17141">
        <ele>530.3</ele>
        <time>2017-04-04T11:26:46Z</time>
      </trkpt>
      <trkpt lat="44.96981" lon="5.17139">
        <ele>530.3</ele>
        <time>2017-04-04T11:26:47Z</time>
      </trkpt>
      <trkpt lat="44.96973" lon="5.17128">
        <ele>530.3</ele>
        <time>2017-04-04T11:26:58Z</time>
      </trkpt>
      <trkpt lat="44.96968" lon="5.17127">
        <ele>530.3</ele>
        <time>2017-04-04T11:27:10Z</time>
      </trkpt>
      <trkpt lat="44.96968" lon="5.17127">
        <ele>530.79</ele>
        <time>2017-04-04T11:27:14Z</time>
      </trkpt>
      <trkpt lat="44.96953" lon="5.17121">
        <ele>530.79</ele>
        <time>2017-04-04T11:27:24Z</time>
      </trkpt>
      <trkpt lat="44.96943" lon="5.17117">
        <ele>531.27</ele>
        <time>2017-04-04T11:27:31Z</time>
      </trkpt>
      <trkpt lat="44.96929" lon="5.17107">
        <ele>532.23</ele>
        <time>2017-04-04T11:27:42Z</time>
      </trkpt>
      <trkpt lat="44.96927" lon="5.17106">
        <ele>533.19</ele>
        <time>2017-04-04T11:27:44Z</time>
      </trkpt>
      <trkpt lat="44.96914" lon="5.17099">
        <ele>535.11</ele>
        <time>2017-04-04T11:27:56Z</time>
      </trkpt>
      <trkpt lat="44.9691" lon="5.17096">
        <ele>535.59</ele>
        <time>2017-04-04T11:28:00Z</time>
      </trkpt>
      <trkpt lat="44.96906" lon="5.17094">
        <ele>536.07</ele>
        <time>2017-04-04T11:28:04Z</time>
      </trkpt>
      <trkpt lat="44.96901" lon="5.17091">
        <ele>537.03</ele>
        <time>2017-04-04T11:28:09Z</time>
      </trkpt>
      <trkpt lat="44.9689" lon="5.17084">
        <ele>540.4</ele>
        <time>2017-04-04T11:28:20Z</time>
      </trkpt>
      <trkpt lat="44.96889" lon="5.17083">
        <ele>540.4</ele>
        <time>2017-04-04T11:28:21Z</time>
      </trkpt>
      <trkpt lat="44.96888" lon="5.17083">
        <ele>540.4</ele>
        <time>2017-04-04T11:28:22Z</time>
      </trkpt>
      <trkpt lat="44.96878" lon="5.17078">
        <ele>542.8</ele>
        <time>2017-04-04T11:28:35Z</time>
      </trkpt>
      <trkpt lat="44.96869" lon="5.17076">
        <ele>544.72</ele>
        <time>2017-04-04T11:28:46Z</time>
      </trkpt>
      <trkpt lat="44.96863" lon="5.17075">
        <ele>545.2</ele>
        <time>2017-04-04T11:28:51Z</time>
      </trkpt>
      <trkpt lat="44.96856" lon="5.17073">
        <ele>547.13</ele>
        <time>2017-04-04T11:28:59Z</time>
      </trkpt>
      <trkpt lat="44.96839" lon="5.17065">
        <ele>549.53</ele>
        <time>2017-04-04T11:29:14Z</time>
      </trkpt>
      <trkpt lat="44.96828" lon="5.17057">
        <ele>551.45</ele>
        <time>2017-04-04T11:29:27Z</time>
      </trkpt>
      <trkpt lat="44.96819" lon="5.17053">
        <ele>552.9</ele>
        <time>2017-04-04T11:29:38Z</time>
      </trkpt>
      <trkpt lat="44.96818" lon="5.17052">
        <ele>553.38</ele>
        <time>2017-04-04T11:29:40Z</time>
      </trkpt>
      <trkpt lat="44.96808" lon="5.1705">
        <ele>554.34</ele>
        <time>2017-04-04T11:29:48Z</time>
      </trkpt>
      <trkpt lat="44.96794" lon="5.17043">
        <ele>557.22</ele>
        <time>2017-04-04T11:30:04Z</time>
      </trkpt>
      <trkpt lat="44.96782" lon="5.17034">
        <ele>559.62</ele>
        <time>2017-04-04T11:30:17Z</time>
      </trkpt>
      <trkpt lat="44.96771" lon="5.17028">
        <ele>561.55</ele>
        <time>2017-04-04T11:30:29Z</time>
      </trkpt>
      <trkpt lat="44.96766" lon="5.17025">
        <ele>562.51</ele>
        <time>2017-04-04T11:30:34Z</time>
      </trkpt>
      <trkpt lat="44.96759" lon="5.17014">
        <ele>564.43</ele>
        <time>2017-04-04T11:30:48Z</time>
      </trkpt>
      <trkpt lat="44.96758" lon="5.17012">
        <ele>564.91</ele>
        <time>2017-04-04T11:30:51Z</time>
      </trkpt>
      <trkpt lat="44.96748" lon="5.16999">
        <ele>567.32</ele>
        <time>2017-04-04T11:31:04Z</time>
      </trkpt>
      <trkpt lat="44.9674" lon="5.16986">
        <ele>569.24</ele>
        <time>2017-04-04T11:31:16Z</time>
      </trkpt>
      <trkpt lat="44.96734" lon="5.16976">
        <ele>571.16</ele>
        <time>2017-04-04T11:31:29Z</time>
      </trkpt>
      <trkpt lat="44.96731" lon="5.16972">
        <ele>571.64</ele>
        <time>2017-04-04T11:31:33Z</time>
      </trkpt>
      <trkpt lat="44.96728" lon="5.16968">
        <ele>572.6</ele>
        <time>2017-04-04T11:31:37Z</time>
      </trkpt>
      <trkpt lat="44.96725" lon="5.16964">
        <ele>573.56</ele>
        <time>2017-04-04T11:31:41Z</time>
      </trkpt>
      <trkpt lat="44.9672" lon="5.16953">
        <ele>575.49</ele>
        <time>2017-04-04T11:31:51Z</time>
      </trkpt>
      <trkpt lat="44.96716" lon="5.16948">
        <ele>576.45</ele>
        <time>2017-04-04T11:31:57Z</time>
      </trkpt>
      <trkpt lat="44.96715" lon="5.16943">
        <ele>577.41</ele>
        <time>2017-04-04T11:32:01Z</time>
      </trkpt>
      <trkpt lat="44.9671" lon="5.16933">
        <ele>578.85</ele>
        <time>2017-04-04T11:32:09Z</time>
      </trkpt>
      <trkpt lat="44.96707" lon="5.16929">
        <ele>579.33</ele>
        <time>2017-04-04T11:32:13Z</time>
      </trkpt>
      <trkpt lat="44.967" lon="5.16915">
        <ele>581.73</ele>
        <time>2017-04-04T11:32:24Z</time>
      </trkpt>
      <trkpt lat="44.96698" lon="5.16913">
        <ele>582.22</ele>
        <time>2017-04-04T11:32:26Z</time>
      </trkpt>
      <trkpt lat="44.96696" lon="5.16911">
        <ele>581.73</ele>
        <time>2017-04-04T11:32:36Z</time>
      </trkpt>
      <trkpt lat="44.96693" lon="5.16908">
        <ele>581.73</ele>
        <time>2017-04-04T11:32:40Z</time>
      </trkpt>
      <trkpt lat="44.96691" lon="5.16906">
        <ele>582.22</ele>
        <time>2017-04-04T11:32:42Z</time>
      </trkpt>
      <trkpt lat="44.96687" lon="5.169">
        <ele>582.7</ele>
        <time>2017-04-04T11:32:47Z</time>
      </trkpt>
      <trkpt lat="44.96683" lon="5.16895">
        <ele>583.66</ele>
        <time>2017-04-04T11:32:52Z</time>
      </trkpt>
      <trkpt lat="44.96673" lon="5.16886">
        <ele>585.58</ele>
        <time>2017-04-04T11:33:03Z</time>
      </trkpt>
      <trkpt lat="44.96666" lon="5.1688">
        <ele>586.06</ele>
        <time>2017-04-04T11:33:14Z</time>
      </trkpt>
      <trkpt lat="44.96668" lon="5.16878">
        <ele>586.54</ele>
        <time>2017-04-04T11:33:26Z</time>
      </trkpt>
      <trkpt lat="44.96673" lon="5.16875">
        <ele>587.5</ele>
        <time>2017-04-04T11:33:30Z</time>
      </trkpt>
      <trkpt lat="44.96677" lon="5.16876">
        <ele>588.46</ele>
        <time>2017-04-04T11:33:35Z</time>
      </trkpt>
      <trkpt lat="44.96686" lon="5.16873">
        <ele>590.39</ele>
        <time>2017-04-04T11:33:45Z</time>
      </trkpt>
      <trkpt lat="44.9669" lon="5.16872">
        <ele>593.75</ele>
        <time>2017-04-04T11:33:56Z</time>
      </trkpt>
      <trkpt lat="44.96692" lon="5.16872">
        <ele>594.71</ele>
        <time>2017-04-04T11:34:00Z</time>
      </trkpt>
      <trkpt lat="44.96695" lon="5.16875">
        <ele>596.15</ele>
        <time>2017-04-04T11:34:06Z</time>
      </trkpt>
      <trkpt lat="44.967" lon="5.16876">
        <ele>597.12</ele>
        <time>2017-04-04T11:34:11Z</time>
      </trkpt>
      <trkpt lat="44.96702" lon="5.16877">
        <ele>598.08</ele>
        <time>2017-04-04T11:34:14Z</time>
      </trkpt>
      <trkpt lat="44.96704" lon="5.16879">
        <ele>598.56</ele>
        <time>2017-04-04T11:34:17Z</time>
      </trkpt>
      <trkpt lat="44.96707" lon="5.1688">
        <ele>600</ele>
        <time>2017-04-04T11:34:21Z</time>
      </trkpt>
      <trkpt lat="44.96711" lon="5.16878">
        <ele>600.96</ele>
        <time>2017-04-04T11:34:27Z</time>
      </trkpt>
      <trkpt lat="44.96712" lon="5.16879">
        <ele>601.92</ele>
        <time>2017-04-04T11:34:29Z</time>
      </trkpt>
      <trkpt lat="44.96717" lon="5.16882">
        <ele>602.4</ele>
        <time>2017-04-04T11:34:34Z</time>
      </trkpt>
      <trkpt lat="44.9672" lon="5.16884">
        <ele>603.36</ele>
        <time>2017-04-04T11:34:46Z</time>
      </trkpt>
      <trkpt lat="44.9672" lon="5.16885">
        <ele>603.36</ele>
        <time>2017-04-04T11:35:03Z</time>
      </trkpt>
      <trkpt lat="44.9672" lon="5.16884">
        <ele>603.36</ele>
        <time>2017-04-04T11:35:25Z</time>
      </trkpt>
      <trkpt lat="44.9672" lon="5.16884">
        <ele>603.36</ele>
        <time>2017-04-04T11:35:55Z</time>
      </trkpt>
      <trkpt lat="44.9672" lon="5.16884">
        <ele>604.33</ele>
        <time>2017-04-04T11:36:09Z</time>
      </trkpt>
      <trkpt lat="44.9672" lon="5.16884">
        <ele>604.33</ele>
        <time>2017-04-04T11:36:36Z</time>
      </trkpt>
      <trkpt lat="44.96721" lon="5.16886">
        <ele>603.36</ele>
        <time>2017-04-04T11:37:02Z</time>
      </trkpt>
      <trkpt lat="44.96723" lon="5.16888">
        <ele>603.85</ele>
        <time>2017-04-04T11:37:04Z</time>
      </trkpt>
      <trkpt lat="44.96728" lon="5.16891">
        <ele>604.81</ele>
        <time>2017-04-04T11:37:10Z</time>
      </trkpt>
      <trkpt lat="44.96736" lon="5.16895">
        <ele>606.73</ele>
        <time>2017-04-04T11:37:19Z</time>
      </trkpt>
      <trkpt lat="44.96738" lon="5.16899">
        <ele>607.69</ele>
        <time>2017-04-04T11:37:23Z</time>
      </trkpt>
      <trkpt lat="44.9674" lon="5.16899">
        <ele>608.65</ele>
        <time>2017-04-04T11:37:27Z</time>
      </trkpt>
      <trkpt lat="44.96747" lon="5.16902">
        <ele>611.54</ele>
        <time>2017-04-04T11:37:38Z</time>
      </trkpt>
      <trkpt lat="44.96754" lon="5.16903">
        <ele>614.42</ele>
        <time>2017-04-04T11:37:46Z</time>
      </trkpt>
      <trkpt lat="44.96756" lon="5.16899">
        <ele>614.42</ele>
        <time>2017-04-04T11:37:50Z</time>
      </trkpt>
      <trkpt lat="44.96758" lon="5.16886">
        <ele>617.3</ele>
        <time>2017-04-04T11:38:01Z</time>
      </trkpt>
      <trkpt lat="44.96762" lon="5.16881">
        <ele>618.75</ele>
        <time>2017-04-04T11:38:08Z</time>
      </trkpt>
      <trkpt lat="44.96762" lon="5.16881">
        <ele>617.78</ele>
        <time>2017-04-04T11:38:18Z</time>
      </trkpt>
      <trkpt lat="44.96765" lon="5.1688">
        <ele>618.26</ele>
        <time>2017-04-04T11:38:21Z</time>
      </trkpt>
      <trkpt lat="44.96768" lon="5.16879">
        <ele>618.26</ele>
        <time>2017-04-04T11:38:24Z</time>
      </trkpt>
      <trkpt lat="44.9677" lon="5.16877">
        <ele>618.26</ele>
        <time>2017-04-04T11:38:27Z</time>
      </trkpt>
      <trkpt lat="44.96775" lon="5.16874">
        <ele>618.26</ele>
        <time>2017-04-04T11:38:32Z</time>
      </trkpt>
      <trkpt lat="44.96783" lon="5.16877">
        <ele>619.71</ele>
        <time>2017-04-04T11:38:40Z</time>
      </trkpt>
      <trkpt lat="44.96789" lon="5.16874">
        <ele>619.71</ele>
        <time>2017-04-04T11:38:46Z</time>
      </trkpt>
      <trkpt lat="44.96795" lon="5.16876">
        <ele>620.67</ele>
        <time>2017-04-04T11:38:53Z</time>
      </trkpt>
      <trkpt lat="44.96802" lon="5.16878">
        <ele>622.59</ele>
        <time>2017-04-04T11:39:02Z</time>
      </trkpt>
      <trkpt lat="44.96804" lon="5.16878">
        <ele>623.07</ele>
        <time>2017-04-04T11:39:05Z</time>
      </trkpt>
      <trkpt lat="44.96806" lon="5.1688">
        <ele>624.51</ele>
        <time>2017-04-04T11:39:10Z</time>
      </trkpt>
      <trkpt lat="44.96809" lon="5.16884">
        <ele>628.36</ele>
        <time>2017-04-04T11:39:20Z</time>
      </trkpt>
      <trkpt lat="44.96813" lon="5.16892">
        <ele>629.8</ele>
        <time>2017-04-04T11:39:31Z</time>
      </trkpt>
      <trkpt lat="44.96819" lon="5.16898">
        <ele>631.72</ele>
        <time>2017-04-04T11:39:40Z</time>
      </trkpt>
      <trkpt lat="44.9682" lon="5.16898">
        <ele>631.72</ele>
        <time>2017-04-04T11:39:48Z</time>
      </trkpt>
      <trkpt lat="44.96818" lon="5.16902">
        <ele>634.61</ele>
        <time>2017-04-04T11:40:00Z</time>
      </trkpt>
      <trkpt lat="44.96819" lon="5.16904">
        <ele>634.61</ele>
        <time>2017-04-04T11:40:03Z</time>
      </trkpt>
      <trkpt lat="44.9682" lon="5.16907">
        <ele>635.57</ele>
        <time>2017-04-04T11:40:11Z</time>
      </trkpt>
      <trkpt lat="44.96821" lon="5.16905">
        <ele>635.57</ele>
        <time>2017-04-04T11:40:29Z</time>
      </trkpt>
      <trkpt lat="44.96821" lon="5.16905">
        <ele>635.57</ele>
        <time>2017-04-04T11:40:44Z</time>
      </trkpt>
      <trkpt lat="44.96824" lon="5.16906">
        <ele>634.61</ele>
        <time>2017-04-04T11:40:57Z</time>
      </trkpt>
      <trkpt lat="44.96826" lon="5.16912">
        <ele>635.09</ele>
        <time>2017-04-04T11:41:02Z</time>
      </trkpt>
      <trkpt lat="44.9683" lon="5.16914">
        <ele>636.05</ele>
        <time>2017-04-04T11:41:06Z</time>
      </trkpt>
      <trkpt lat="44.96837" lon="5.16917">
        <ele>636.05</ele>
        <time>2017-04-04T11:41:14Z</time>
      </trkpt>
      <trkpt lat="44.96843" lon="5.16917">
        <ele>636.05</ele>
        <time>2017-04-04T11:41:20Z</time>
      </trkpt>
      <trkpt lat="44.96847" lon="5.16917">
        <ele>637.49</ele>
        <time>2017-04-04T11:41:29Z</time>
      </trkpt>
      <trkpt lat="44.96855" lon="5.16918">
        <ele>638.93</ele>
        <time>2017-04-04T11:41:39Z</time>
      </trkpt>
      <trkpt lat="44.96854" lon="5.16916">
        <ele>637.01</ele>
        <time>2017-04-04T11:41:51Z</time>
      </trkpt>
      <trkpt lat="44.96849" lon="5.16916">
        <ele>639.41</ele>
        <time>2017-04-04T11:52:01Z</time>
      </trkpt>
      <trkpt lat="44.96848" lon="5.16915">
        <ele>638.93</ele>
        <time>2017-04-04T11:52:02Z</time>
      </trkpt>
      <trkpt lat="44.9685" lon="5.16912">
        <ele>637.97</ele>
        <time>2017-04-04T11:52:12Z</time>
      </trkpt>
      <trkpt lat="44.96849" lon="5.16911">
        <ele>638.93</ele>
        <time>2017-04-04T11:52:14Z</time>
      </trkpt>
      <trkpt lat="44.96841" lon="5.16911">
        <ele>638.45</ele>
        <time>2017-04-04T11:52:26Z</time>
      </trkpt>
      <trkpt lat="44.96838" lon="5.16907">
        <ele>637.97</ele>
        <time>2017-04-04T11:52:31Z</time>
      </trkpt>
      <trkpt lat="44.96831" lon="5.16906">
        <ele>635.57</ele>
        <time>2017-04-04T11:52:43Z</time>
      </trkpt>
      <trkpt lat="44.96827" lon="5.16904">
        <ele>633.17</ele>
        <time>2017-04-04T11:52:49Z</time>
      </trkpt>
      <trkpt lat="44.96826" lon="5.16901">
        <ele>632.68</ele>
        <time>2017-04-04T11:52:52Z</time>
      </trkpt>
      <trkpt lat="44.96817" lon="5.16893">
        <ele>629.8</ele>
        <time>2017-04-04T11:53:04Z</time>
      </trkpt>
      <trkpt lat="44.96815" lon="5.16885">
        <ele>628.36</ele>
        <time>2017-04-04T11:53:16Z</time>
      </trkpt>
      <trkpt lat="44.96813" lon="5.16883">
        <ele>625.47</ele>
        <time>2017-04-04T11:53:26Z</time>
      </trkpt>
      <trkpt lat="44.96808" lon="5.16877">
        <ele>624.03</ele>
        <time>2017-04-04T11:53:38Z</time>
      </trkpt>
      <trkpt lat="44.96799" lon="5.16873">
        <ele>622.59</ele>
        <time>2017-04-04T11:53:48Z</time>
      </trkpt>
      <trkpt lat="44.96795" lon="5.16872">
        <ele>621.63</ele>
        <time>2017-04-04T11:53:52Z</time>
      </trkpt>
      <trkpt lat="44.96791" lon="5.16871">
        <ele>620.67</ele>
        <time>2017-04-04T11:53:57Z</time>
      </trkpt>
      <trkpt lat="44.96785" lon="5.16872">
        <ele>620.19</ele>
        <time>2017-04-04T11:54:01Z</time>
      </trkpt>
      <trkpt lat="44.96778" lon="5.16873">
        <ele>619.23</ele>
        <time>2017-04-04T11:54:08Z</time>
      </trkpt>
      <trkpt lat="44.96772" lon="5.16871">
        <ele>618.75</ele>
        <time>2017-04-04T11:54:13Z</time>
      </trkpt>
      <trkpt lat="44.96763" lon="5.16877">
        <ele>618.26</ele>
        <time>2017-04-04T11:54:24Z</time>
      </trkpt>
      <trkpt lat="44.96757" lon="5.16882">
        <ele>618.26</ele>
        <time>2017-04-04T11:54:30Z</time>
      </trkpt>
      <trkpt lat="44.96756" lon="5.16899">
        <ele>615.38</ele>
        <time>2017-04-04T11:54:42Z</time>
      </trkpt>
      <trkpt lat="44.96756" lon="5.169">
        <ele>615.38</ele>
        <time>2017-04-04T11:54:44Z</time>
      </trkpt>
      <trkpt lat="44.96749" lon="5.16899">
        <ele>613.46</ele>
        <time>2017-04-04T11:54:55Z</time>
      </trkpt>
      <trkpt lat="44.96746" lon="5.169">
        <ele>610.09</ele>
        <time>2017-04-04T11:55:05Z</time>
      </trkpt>
      <trkpt lat="44.96743" lon="5.169">
        <ele>608.65</ele>
        <time>2017-04-04T11:55:14Z</time>
      </trkpt>
      <trkpt lat="44.96733" lon="5.16894">
        <ele>606.73</ele>
        <time>2017-04-04T11:55:25Z</time>
      </trkpt>
      <trkpt lat="44.96726" lon="5.16889">
        <ele>604.81</ele>
        <time>2017-04-04T11:55:34Z</time>
      </trkpt>
      <trkpt lat="44.96721" lon="5.16882">
        <ele>604.33</ele>
        <time>2017-04-04T11:55:40Z</time>
      </trkpt>
      <trkpt lat="44.96714" lon="5.16876">
        <ele>602.88</ele>
        <time>2017-04-04T11:55:47Z</time>
      </trkpt>
      <trkpt lat="44.96712" lon="5.16875">
        <ele>601.92</ele>
        <time>2017-04-04T11:55:50Z</time>
      </trkpt>
      <trkpt lat="44.96708" lon="5.16877">
        <ele>600.48</ele>
        <time>2017-04-04T11:55:55Z</time>
      </trkpt>
      <trkpt lat="44.96702" lon="5.16872">
        <ele>599.52</ele>
        <time>2017-04-04T11:56:01Z</time>
      </trkpt>
      <trkpt lat="44.96698" lon="5.16872">
        <ele>598.08</ele>
        <time>2017-04-04T11:56:06Z</time>
      </trkpt>
      <trkpt lat="44.96696" lon="5.1687">
        <ele>597.6</ele>
        <time>2017-04-04T11:56:08Z</time>
      </trkpt>
      <trkpt lat="44.9669" lon="5.16871">
        <ele>594.71</ele>
        <time>2017-04-04T11:56:19Z</time>
      </trkpt>
      <trkpt lat="44.96688" lon="5.16871">
        <ele>592.31</ele>
        <time>2017-04-04T11:56:28Z</time>
      </trkpt>
      <trkpt lat="44.9668" lon="5.16872">
        <ele>589.91</ele>
        <time>2017-04-04T11:56:39Z</time>
      </trkpt>
      <trkpt lat="44.96673" lon="5.16874">
        <ele>589.43</ele>
        <time>2017-04-04T11:56:47Z</time>
      </trkpt>
      <trkpt lat="44.96669" lon="5.16875">
        <ele>588.95</ele>
        <time>2017-04-04T11:56:52Z</time>
      </trkpt>
      <trkpt lat="44.96666" lon="5.16881">
        <ele>587.02</ele>
        <time>2017-04-04T11:56:59Z</time>
      </trkpt>
      <trkpt lat="44.96682" lon="5.16893">
        <ele>585.1</ele>
        <time>2017-04-04T11:57:13Z</time>
      </trkpt>
      <trkpt lat="44.96684" lon="5.16898">
        <ele>584.62</ele>
        <time>2017-04-04T11:57:18Z</time>
      </trkpt>
      <trkpt lat="44.9669" lon="5.16907">
        <ele>583.18</ele>
        <time>2017-04-04T11:57:26Z</time>
      </trkpt>
      <trkpt lat="44.96701" lon="5.16921">
        <ele>581.73</ele>
        <time>2017-04-04T11:57:38Z</time>
      </trkpt>
      <trkpt lat="44.96705" lon="5.16929">
        <ele>580.77</ele>
        <time>2017-04-04T11:57:44Z</time>
      </trkpt>
      <trkpt lat="44.96713" lon="5.16946">
        <ele>577.89</ele>
        <time>2017-04-04T11:57:57Z</time>
      </trkpt>
      <trkpt lat="44.96714" lon="5.16948">
        <ele>576.93</ele>
        <time>2017-04-04T11:57:59Z</time>
      </trkpt>
      <trkpt lat="44.96719" lon="5.16959">
        <ele>575.49</ele>
        <time>2017-04-04T11:58:08Z</time>
      </trkpt>
      <trkpt lat="44.9673" lon="5.16972">
        <ele>573.08</ele>
        <time>2017-04-04T11:58:20Z</time>
      </trkpt>
      <trkpt lat="44.96735" lon="5.16979">
        <ele>572.12</ele>
        <time>2017-04-04T11:58:28Z</time>
      </trkpt>
      <trkpt lat="44.96737" lon="5.16981">
        <ele>571.64</ele>
        <time>2017-04-04T11:58:31Z</time>
      </trkpt>
      <trkpt lat="44.96738" lon="5.16986">
        <ele>570.68</ele>
        <time>2017-04-04T11:58:35Z</time>
      </trkpt>
      <trkpt lat="44.96744" lon="5.16993">
        <ele>569.24</ele>
        <time>2017-04-04T11:58:41Z</time>
      </trkpt>
      <trkpt lat="44.96745" lon="5.16995">
        <ele>568.76</ele>
        <time>2017-04-04T11:58:43Z</time>
      </trkpt>
      <trkpt lat="44.96752" lon="5.17002">
        <ele>566.83</ele>
        <time>2017-04-04T11:58:54Z</time>
      </trkpt>
      <trkpt lat="44.96755" lon="5.17009">
        <ele>563.95</ele>
        <time>2017-04-04T11:59:02Z</time>
      </trkpt>
      <trkpt lat="44.96755" lon="5.1701">
        <ele>562.99</ele>
        <time>2017-04-04T11:59:04Z</time>
      </trkpt>
      <trkpt lat="44.96755" lon="5.17012">
        <ele>562.99</ele>
        <time>2017-04-04T11:59:07Z</time>
      </trkpt>
      <trkpt lat="44.96759" lon="5.1702">
        <ele>562.51</ele>
        <time>2017-04-04T11:59:13Z</time>
      </trkpt>
      <trkpt lat="44.96762" lon="5.17026">
        <ele>562.51</ele>
        <time>2017-04-04T11:59:17Z</time>
      </trkpt>
      <trkpt lat="44.96767" lon="5.17029">
        <ele>561.07</ele>
        <time>2017-04-04T11:59:21Z</time>
      </trkpt>
      <trkpt lat="44.96776" lon="5.17035">
        <ele>559.62</ele>
        <time>2017-04-04T11:59:30Z</time>
      </trkpt>
      <trkpt lat="44.96778" lon="5.17036">
        <ele>559.14</ele>
        <time>2017-04-04T11:59:34Z</time>
      </trkpt>
      <trkpt lat="44.96781" lon="5.17038">
        <ele>558.66</ele>
        <time>2017-04-04T11:59:37Z</time>
      </trkpt>
      <trkpt lat="44.96794" lon="5.17045">
        <ele>556.74</ele>
        <time>2017-04-04T11:59:48Z</time>
      </trkpt>
      <trkpt lat="44.96798" lon="5.17048">
        <ele>556.26</ele>
        <time>2017-04-04T11:59:59Z</time>
      </trkpt>
      <trkpt lat="44.96805" lon="5.17052">
        <ele>555.3</ele>
        <time>2017-04-04T12:00:06Z</time>
      </trkpt>
      <trkpt lat="44.96816" lon="5.17058">
        <ele>552.9</ele>
        <time>2017-04-04T12:00:16Z</time>
      </trkpt>
      <trkpt lat="44.96827" lon="5.17063">
        <ele>550.97</ele>
        <time>2017-04-04T12:00:28Z</time>
      </trkpt>
      <trkpt lat="44.96833" lon="5.17066">
        <ele>550.49</ele>
        <time>2017-04-04T12:00:34Z</time>
      </trkpt>
      <trkpt lat="44.96842" lon="5.17071">
        <ele>548.09</ele>
        <time>2017-04-04T12:00:44Z</time>
      </trkpt>
      <trkpt lat="44.96851" lon="5.17075">
        <ele>546.65</ele>
        <time>2017-04-04T12:00:52Z</time>
      </trkpt>
      <trkpt lat="44.96861" lon="5.17079">
        <ele>545.2</ele>
        <time>2017-04-04T12:01:03Z</time>
      </trkpt>
      <trkpt lat="44.96866" lon="5.17082">
        <ele>543.76</ele>
        <time>2017-04-04T12:01:08Z</time>
      </trkpt>
      <trkpt lat="44.96878" lon="5.17083">
        <ele>541.84</ele>
        <time>2017-04-04T12:01:18Z</time>
      </trkpt>
      <trkpt lat="44.96888" lon="5.1709">
        <ele>540.88</ele>
        <time>2017-04-04T12:01:28Z</time>
      </trkpt>
      <trkpt lat="44.96894" lon="5.17091">
        <ele>539.44</ele>
        <time>2017-04-04T12:01:39Z</time>
      </trkpt>
      <trkpt lat="44.96898" lon="5.17092">
        <ele>538.48</ele>
        <time>2017-04-04T12:01:46Z</time>
      </trkpt>
      <trkpt lat="44.96906" lon="5.17101">
        <ele>536.07</ele>
        <time>2017-04-04T12:01:57Z</time>
      </trkpt>
      <trkpt lat="44.96917" lon="5.1711">
        <ele>534.15</ele>
        <time>2017-04-04T12:02:08Z</time>
      </trkpt>
      <trkpt lat="44.96923" lon="5.17114">
        <ele>533.19</ele>
        <time>2017-04-04T12:02:18Z</time>
      </trkpt>
      <trkpt lat="44.96927" lon="5.17115">
        <ele>533.19</ele>
        <time>2017-04-04T12:02:21Z</time>
      </trkpt>
      <trkpt lat="44.96933" lon="5.17118">
        <ele>532.23</ele>
        <time>2017-04-04T12:02:26Z</time>
      </trkpt>
      <trkpt lat="44.96948" lon="5.17123">
        <ele>532.71</ele>
        <time>2017-04-04T12:02:37Z</time>
      </trkpt>
      <trkpt lat="44.96963" lon="5.17129">
        <ele>533.19</ele>
        <time>2017-04-04T12:02:52Z</time>
      </trkpt>
      <trkpt lat="44.96966" lon="5.17129">
        <ele>533.19</ele>
        <time>2017-04-04T12:02:58Z</time>
      </trkpt>
      <trkpt lat="44.96973" lon="5.17137">
        <ele>532.23</ele>
        <time>2017-04-04T12:03:04Z</time>
      </trkpt>
      <trkpt lat="44.96978" lon="5.17141">
        <ele>532.23</ele>
        <time>2017-04-04T12:03:07Z</time>
      </trkpt>
      <trkpt lat="44.96989" lon="5.17149">
        <ele>531.75</ele>
        <time>2017-04-04T12:03:14Z</time>
      </trkpt>
      <trkpt lat="44.97003" lon="5.17158">
        <ele>534.15</ele>
        <time>2017-04-04T12:03:24Z</time>
      </trkpt>
      <trkpt lat="44.97002" lon="5.17159">
        <ele>533.19</ele>
        <time>2017-04-04T12:03:27Z</time>
      </trkpt>
      <trkpt lat="44.97002" lon="5.17165">
        <ele>533.67</ele>
        <time>2017-04-04T12:03:35Z</time>
      </trkpt>
      <trkpt lat="44.97001" lon="5.1716">
        <ele>533.19</ele>
        <time>2017-04-04T12:03:40Z</time>
      </trkpt>
      <trkpt lat="44.97002" lon="5.17159">
        <ele>533.19</ele>
        <time>2017-04-04T12:03:42Z</time>
      </trkpt>
      <trkpt lat="44.97004" lon="5.17163">
        <ele>533.19</ele>
        <time>2017-04-04T12:03:49Z</time>
      </trkpt>
      <trkpt lat="44.97011" lon="5.17168">
        <ele>535.59</ele>
        <time>2017-04-04T12:03:59Z</time>
      </trkpt>
      <trkpt lat="44.97017" lon="5.17175">
        <ele>537.99</ele>
        <time>2017-04-04T12:04:10Z</time>
      </trkpt>
      <trkpt lat="44.97016" lon="5.17178">
        <ele>539.44</ele>
        <time>2017-04-04T12:04:15Z</time>
      </trkpt>
      <trkpt lat="44.97016" lon="5.17186">
        <ele>541.36</ele>
        <time>2017-04-04T12:04:26Z</time>
      </trkpt>
      <trkpt lat="44.97014" lon="5.17187">
        <ele>539.92</ele>
        <time>2017-04-04T12:04:39Z</time>
      </trkpt>
      <trkpt lat="44.97017" lon="5.17187">
        <ele>540.4</ele>
        <time>2017-04-04T12:04:44Z</time>
      </trkpt>
      <trkpt lat="44.97017" lon="5.1719">
        <ele>540.88</ele>
        <time>2017-04-04T12:04:58Z</time>
      </trkpt>
      <trkpt lat="44.97018" lon="5.17191">
        <ele>540.88</ele>
        <time>2017-04-04T12:05:11Z</time>
      </trkpt>
      <trkpt lat="44.97018" lon="5.17193">
        <ele>540.4</ele>
        <time>2017-04-04T12:05:14Z</time>
      </trkpt>
      <trkpt lat="44.97019" lon="5.17197">
        <ele>541.36</ele>
        <time>2017-04-04T12:05:20Z</time>
      </trkpt>
      <trkpt lat="44.97019" lon="5.17201">
        <ele>541.84</ele>
        <time>2017-04-04T12:05:32Z</time>
      </trkpt>
      <trkpt lat="44.97019" lon="5.17201">
        <ele>541.84</ele>
        <time>2017-04-04T12:05:58Z</time>
      </trkpt>
      <trkpt lat="44.97019" lon="5.17201">
        <ele>541.84</ele>
        <time>2017-04-04T12:06:24Z</time>
      </trkpt>
      <trkpt lat="44.97018" lon="5.17198">
        <ele>539.44</ele>
        <time>2017-04-04T12:06:36Z</time>
      </trkpt>
      <trkpt lat="44.97017" lon="5.17198">
        <ele>537.99</ele>
        <time>2017-04-04T12:06:41Z</time>
      </trkpt>
      <trkpt lat="44.97011" lon="5.17197">
        <ele>535.11</ele>
        <time>2017-04-04T12:06:48Z</time>
      </trkpt>
      <trkpt lat="44.97011" lon="5.17197">
        <ele>535.11</ele>
        <time>2017-04-04T12:06:49Z</time>
      </trkpt>
      <trkpt lat="44.97011" lon="5.17195">
        <ele>534.63</ele>
        <time>2017-04-04T12:06:51Z</time>
      </trkpt>
      <trkpt lat="44.97007" lon="5.17192">
        <ele>532.71</ele>
        <time>2017-04-04T12:06:57Z</time>
      </trkpt>
      <trkpt lat="44.97006" lon="5.1719">
        <ele>530.79</ele>
        <time>2017-04-04T12:07:03Z</time>
      </trkpt>
      <trkpt lat="44.96997" lon="5.1718">
        <ele>526.94</ele>
        <time>2017-04-04T12:07:12Z</time>
      </trkpt>
      <trkpt lat="44.96998" lon="5.17177">
        <ele>526.94</ele>
        <time>2017-04-04T12:07:16Z</time>
      </trkpt>
      <trkpt lat="44.97" lon="5.17175">
        <ele>527.9</ele>
        <time>2017-04-04T12:07:18Z</time>
      </trkpt>
      <trkpt lat="44.97" lon="5.17175">
        <ele>528.86</ele>
        <time>2017-04-04T12:07:20Z</time>
      </trkpt>
      <trkpt lat="44.96999" lon="5.17171">
        <ele>531.27</ele>
        <time>2017-04-04T12:07:26Z</time>
      </trkpt>
      <trkpt lat="44.97001" lon="5.17165">
        <ele>534.15</ele>
        <time>2017-04-04T12:07:32Z</time>
      </trkpt>
      <trkpt lat="44.97006" lon="5.17159">
        <ele>533.19</ele>
        <time>2017-04-04T12:07:36Z</time>
      </trkpt>
      <trkpt lat="44.97016" lon="5.17153">
        <ele>531.75</ele>
        <time>2017-04-04T12:07:43Z</time>
      </trkpt>
      <trkpt lat="44.97018" lon="5.17152">
        <ele>530.79</ele>
        <time>2017-04-04T12:07:47Z</time>
      </trkpt>
      <trkpt lat="44.97024" lon="5.1715">
        <ele>529.82</ele>
        <time>2017-04-04T12:07:52Z</time>
      </trkpt>
      <trkpt lat="44.97035" lon="5.17146">
        <ele>528.38</ele>
        <time>2017-04-04T12:08:00Z</time>
      </trkpt>
      <trkpt lat="44.9704" lon="5.17144">
        <ele>527.9</ele>
        <time>2017-04-04T12:08:04Z</time>
      </trkpt>
      <trkpt lat="44.97044" lon="5.17139">
        <ele>527.42</ele>
        <time>2017-04-04T12:08:07Z</time>
      </trkpt>
      <trkpt lat="44.97044" lon="5.17128">
        <ele>526.94</ele>
        <time>2017-04-04T12:08:13Z</time>
      </trkpt>
      <trkpt lat="44.97037" lon="5.17117">
        <ele>523.58</ele>
        <time>2017-04-04T12:08:21Z</time>
      </trkpt>
      <trkpt lat="44.9703" lon="5.17107">
        <ele>522.13</ele>
        <time>2017-04-04T12:08:27Z</time>
      </trkpt>
      <trkpt lat="44.97023" lon="5.17084">
        <ele>518.77</ele>
        <time>2017-04-04T12:08:37Z</time>
      </trkpt>
      <trkpt lat="44.97024" lon="5.17069">
        <ele>516.37</ele>
        <time>2017-04-04T12:08:48Z</time>
      </trkpt>
      <trkpt lat="44.97024" lon="5.17067">
        <ele>515.88</ele>
        <time>2017-04-04T12:08:50Z</time>
      </trkpt>
      <trkpt lat="44.97023" lon="5.17058">
        <ele>514.92</ele>
        <time>2017-04-04T12:08:54Z</time>
      </trkpt>
      <trkpt lat="44.97022" lon="5.17052">
        <ele>514.44</ele>
        <time>2017-04-04T12:08:59Z</time>
      </trkpt>
      <trkpt lat="44.97027" lon="5.17043">
        <ele>513.48</ele>
        <time>2017-04-04T12:09:03Z</time>
      </trkpt>
      <trkpt lat="44.97029" lon="5.1704">
        <ele>513</ele>
        <time>2017-04-04T12:09:05Z</time>
      </trkpt>
      <trkpt lat="44.97034" lon="5.17036">
        <ele>513</ele>
        <time>2017-04-04T12:09:07Z</time>
      </trkpt>
      <trkpt lat="44.97033" lon="5.1702">
        <ele>511.56</ele>
        <time>2017-04-04T12:09:17Z</time>
      </trkpt>
      <trkpt lat="44.97036" lon="5.16987">
        <ele>510.12</ele>
        <time>2017-04-04T12:09:30Z</time>
      </trkpt>
      <trkpt lat="44.97038" lon="5.16982">
        <ele>509.64</ele>
        <time>2017-04-04T12:09:35Z</time>
      </trkpt>
      <trkpt lat="44.9704" lon="5.16956">
        <ele>506.75</ele>
        <time>2017-04-04T12:09:47Z</time>
      </trkpt>
      <trkpt lat="44.97042" lon="5.16925">
        <ele>504.83</ele>
        <time>2017-04-04T12:10:00Z</time>
      </trkpt>
      <trkpt lat="44.97043" lon="5.16925">
        <ele>504.35</ele>
        <time>2017-04-04T12:10:11Z</time>
      </trkpt>
      <trkpt lat="44.97042" lon="5.16926">
        <ele>504.35</ele>
        <time>2017-04-04T12:10:30Z</time>
      </trkpt>
      <trkpt lat="44.97042" lon="5.16925">
        <ele>504.35</ele>
        <time>2017-04-04T12:10:34Z</time>
      </trkpt>
      <trkpt lat="44.97043" lon="5.16926">
        <ele>503.39</ele>
        <time>2017-04-04T12:10:42Z</time>
      </trkpt>
      <trkpt lat="44.97043" lon="5.16932">
        <ele>502.91</ele>
        <time>2017-04-04T12:10:46Z</time>
      </trkpt>
      <trkpt lat="44.97048" lon="5.16941">
        <ele>500.5</ele>
        <time>2017-04-04T12:10:56Z</time>
      </trkpt>
      <trkpt lat="44.97049" lon="5.16945">
        <ele>500.02</ele>
        <time>2017-04-04T12:11:03Z</time>
      </trkpt>
      <trkpt lat="44.97052" lon="5.16952">
        <ele>499.54</ele>
        <time>2017-04-04T12:11:07Z</time>
      </trkpt>
      <trkpt lat="44.97056" lon="5.16964">
        <ele>498.58</ele>
        <time>2017-04-04T12:11:15Z</time>
      </trkpt>
      <trkpt lat="44.97057" lon="5.16966">
        <ele>498.1</ele>
        <time>2017-04-04T12:11:17Z</time>
      </trkpt>
      <trkpt lat="44.9706" lon="5.16973">
        <ele>497.14</ele>
        <time>2017-04-04T12:11:22Z</time>
      </trkpt>
      <trkpt lat="44.97061" lon="5.16978">
        <ele>497.14</ele>
        <time>2017-04-04T12:11:25Z</time>
      </trkpt>
      <trkpt lat="44.97061" lon="5.16994">
        <ele>495.22</ele>
        <time>2017-04-04T12:11:36Z</time>
      </trkpt>
      <trkpt lat="44.97065" lon="5.17009">
        <ele>494.26</ele>
        <time>2017-04-04T12:11:45Z</time>
      </trkpt>
      <trkpt lat="44.97066" lon="5.17015">
        <ele>493.29</ele>
        <time>2017-04-04T12:11:50Z</time>
      </trkpt>
      <trkpt lat="44.97065" lon="5.17024">
        <ele>492.81</ele>
        <time>2017-04-04T12:11:56Z</time>
      </trkpt>
      <trkpt lat="44.97066" lon="5.17029">
        <ele>492.33</ele>
        <time>2017-04-04T12:11:59Z</time>
      </trkpt>
      <trkpt lat="44.97068" lon="5.17042">
        <ele>490.41</ele>
        <time>2017-04-04T12:12:09Z</time>
      </trkpt>
      <trkpt lat="44.97072" lon="5.17053">
        <ele>489.45</ele>
        <time>2017-04-04T12:12:18Z</time>
      </trkpt>
      <trkpt lat="44.97079" lon="5.1705">
        <ele>486.08</ele>
        <time>2017-04-04T12:12:30Z</time>
      </trkpt>
      <trkpt lat="44.97081" lon="5.17045">
        <ele>484.64</ele>
        <time>2017-04-04T12:12:37Z</time>
      </trkpt>
      <trkpt lat="44.97088" lon="5.17033">
        <ele>481.76</ele>
        <time>2017-04-04T12:12:48Z</time>
      </trkpt>
      <trkpt lat="44.97094" lon="5.17019">
        <ele>480.32</ele>
        <time>2017-04-04T12:12:57Z</time>
      </trkpt>
      <trkpt lat="44.971" lon="5.17006">
        <ele>477.43</ele>
        <time>2017-04-04T12:13:11Z</time>
      </trkpt>
      <trkpt lat="44.97101" lon="5.17001">
        <ele>476.47</ele>
        <time>2017-04-04T12:13:18Z</time>
      </trkpt>
      <trkpt lat="44.97105" lon="5.16995">
        <ele>475.51</ele>
        <time>2017-04-04T12:13:32Z</time>
      </trkpt>
      <trkpt lat="44.97109" lon="5.16987">
        <ele>473.59</ele>
        <time>2017-04-04T12:13:41Z</time>
      </trkpt>
      <trkpt lat="44.97118" lon="5.16971">
        <ele>470.22</ele>
        <time>2017-04-04T12:13:53Z</time>
      </trkpt>
      <trkpt lat="44.97124" lon="5.16954">
        <ele>468.78</ele>
        <time>2017-04-04T12:14:03Z</time>
      </trkpt>
      <trkpt lat="44.97132" lon="5.16942">
        <ele>466.38</ele>
        <time>2017-04-04T12:14:13Z</time>
      </trkpt>
      <trkpt lat="44.97135" lon="5.16931">
        <ele>464.93</ele>
        <time>2017-04-04T12:14:24Z</time>
      </trkpt>
      <trkpt lat="44.97135" lon="5.1693">
        <ele>465.42</ele>
        <time>2017-04-04T12:14:25Z</time>
      </trkpt>
      <trkpt lat="44.97138" lon="5.16917">
        <ele>465.42</ele>
        <time>2017-04-04T12:14:33Z</time>
      </trkpt>
      <trkpt lat="44.97141" lon="5.16908">
        <ele>464.93</ele>
        <time>2017-04-04T12:14:39Z</time>
      </trkpt>
      <trkpt lat="44.97147" lon="5.16896">
        <ele>462.53</ele>
        <time>2017-04-04T12:14:49Z</time>
      </trkpt>
      <trkpt lat="44.97152" lon="5.16882">
        <ele>461.09</ele>
        <time>2017-04-04T12:15:00Z</time>
      </trkpt>
      <trkpt lat="44.97161" lon="5.16865">
        <ele>459.17</ele>
        <time>2017-04-04T12:15:11Z</time>
      </trkpt>
      <trkpt lat="44.9717" lon="5.16853">
        <ele>457.24</ele>
        <time>2017-04-04T12:15:21Z</time>
      </trkpt>
      <trkpt lat="44.97175" lon="5.16844">
        <ele>455.8</ele>
        <time>2017-04-04T12:15:31Z</time>
      </trkpt>
      <trkpt lat="44.97189" lon="5.16826">
        <ele>454.36</ele>
        <time>2017-04-04T12:15:42Z</time>
      </trkpt>
      <trkpt lat="44.97192" lon="5.16821">
        <ele>453.4</ele>
        <time>2017-04-04T12:15:47Z</time>
      </trkpt>
      <trkpt lat="44.97202" lon="5.16812">
        <ele>451.96</ele>
        <time>2017-04-04T12:15:58Z</time>
      </trkpt>
      <trkpt lat="44.97206" lon="5.16809">
        <ele>451.96</ele>
        <time>2017-04-04T12:16:01Z</time>
      </trkpt>
      <trkpt lat="44.97212" lon="5.16802">
        <ele>451</ele>
        <time>2017-04-04T12:16:06Z</time>
      </trkpt>
      <trkpt lat="44.97215" lon="5.16798">
        <ele>450.03</ele>
        <time>2017-04-04T12:16:11Z</time>
      </trkpt>
      <trkpt lat="44.97229" lon="5.16789">
        <ele>449.07</ele>
        <time>2017-04-04T12:16:21Z</time>
      </trkpt>
      <trkpt lat="44.97235" lon="5.16789">
        <ele>448.59</ele>
        <time>2017-04-04T12:16:28Z</time>
      </trkpt>
    </trkseg>
  </trk>
</gpx>